<?xml version="1.0" encoding="UTF-8" standalone="no" ?>
<gpx xmlns="http://www.topografix.com/GPX/1/1" xmlns:xsi="http://www.w3.org/2001/XMLSchema-instance" xsi:schemaLocation="http://www.topografix.com/GPX/1/1 http://www.topografix.com/GPX/1/1/gpx.xsd" version="1.1" creator="VisuGPX - https://www.visugpx.com">
  <metadata>
    <name>PIERREFEU VE GAUTIER</name>
    <desc><![CDATA[GRAND PARCOURS CAPELLE ST BAUME 18 KM 950 M
PETIT PARCOURS COL DE VE GAUTIER KM 820 M]]></desc>
  </metadata>
  <trk>
    <name><![CDATA[27 janv. 2015 09:19:13]]></name>
    <cmt><![CDATA[27 janv. 2015 09:19:13]]></cmt>
    <trkseg>
      <trkpt lat="43.87521" lon="7.08284">
        <ele>632</ele>
        <time>2015-01-27T08:19:14Z</time>
      </trkpt>
      <trkpt lat="43.87518" lon="7.08283">
        <ele>631</ele>
        <time>2015-01-27T08:19:18Z</time>
      </trkpt>
      <trkpt lat="43.87514" lon="7.08279">
        <ele>631</ele>
        <time>2015-01-27T08:19:23Z</time>
      </trkpt>
      <trkpt lat="43.87511" lon="7.08279">
        <ele>630</ele>
        <time>2015-01-27T08:19:29Z</time>
      </trkpt>
      <trkpt lat="43.87507" lon="7.08274">
        <ele>629</ele>
        <time>2015-01-27T08:19:34Z</time>
      </trkpt>
      <trkpt lat="43.87504" lon="7.08262">
        <ele>629</ele>
        <time>2015-01-27T08:19:45Z</time>
      </trkpt>
      <trkpt lat="43.87506" lon="7.08248">
        <ele>629</ele>
        <time>2015-01-27T08:19:53Z</time>
      </trkpt>
      <trkpt lat="43.87518" lon="7.08224">
        <ele>631</ele>
        <time>2015-01-27T08:20:24Z</time>
      </trkpt>
      <trkpt lat="43.87522" lon="7.08221">
        <ele>632</ele>
        <time>2015-01-27T08:20:34Z</time>
      </trkpt>
      <trkpt lat="43.87542" lon="7.08182">
        <ele>634</ele>
        <time>2015-01-27T08:21:07Z</time>
      </trkpt>
      <trkpt lat="43.87544" lon="7.08175">
        <ele>634</ele>
        <time>2015-01-27T08:21:12Z</time>
      </trkpt>
      <trkpt lat="43.87551" lon="7.08166">
        <ele>635</ele>
        <time>2015-01-27T08:21:24Z</time>
      </trkpt>
      <trkpt lat="43.87552" lon="7.08158">
        <ele>636</ele>
        <time>2015-01-27T08:21:29Z</time>
      </trkpt>
      <trkpt lat="43.87552" lon="7.08155">
        <ele>637</ele>
        <time>2015-01-27T08:21:35Z</time>
      </trkpt>
      <trkpt lat="43.87562" lon="7.08152">
        <ele>637</ele>
        <time>2015-01-27T08:21:55Z</time>
      </trkpt>
      <trkpt lat="43.87589" lon="7.08138">
        <ele>631</ele>
        <time>2015-01-27T08:22:28Z</time>
      </trkpt>
      <trkpt lat="43.87594" lon="7.08137">
        <ele>630</ele>
        <time>2015-01-27T08:22:38Z</time>
      </trkpt>
      <trkpt lat="43.87598" lon="7.08135">
        <ele>629</ele>
        <time>2015-01-27T08:22:42Z</time>
      </trkpt>
      <trkpt lat="43.876" lon="7.08142">
        <ele>628</ele>
        <time>2015-01-27T08:22:48Z</time>
      </trkpt>
      <trkpt lat="43.87605" lon="7.08175">
        <ele>622</ele>
        <time>2015-01-27T08:23:22Z</time>
      </trkpt>
      <trkpt lat="43.87606" lon="7.08182">
        <ele>621</ele>
        <time>2015-01-27T08:23:29Z</time>
      </trkpt>
      <trkpt lat="43.87609" lon="7.08178">
        <ele>619</ele>
        <time>2015-01-27T08:23:36Z</time>
      </trkpt>
      <trkpt lat="43.87615" lon="7.08159">
        <ele>615</ele>
        <time>2015-01-27T08:23:58Z</time>
      </trkpt>
      <trkpt lat="43.8762" lon="7.08157">
        <ele>614</ele>
        <time>2015-01-27T08:24:03Z</time>
      </trkpt>
      <trkpt lat="43.87619" lon="7.08159">
        <ele>612</ele>
        <time>2015-01-27T08:26:18Z</time>
      </trkpt>
      <trkpt lat="43.87621" lon="7.0815">
        <ele>612</ele>
        <time>2015-01-27T08:27:16Z</time>
      </trkpt>
      <trkpt lat="43.87632" lon="7.08126">
        <ele>609</ele>
        <time>2015-01-27T08:27:37Z</time>
      </trkpt>
      <trkpt lat="43.87637" lon="7.08127">
        <ele>609</ele>
        <time>2015-01-27T08:27:41Z</time>
      </trkpt>
      <trkpt lat="43.8764" lon="7.08131">
        <ele>608</ele>
        <time>2015-01-27T08:27:44Z</time>
      </trkpt>
      <trkpt lat="43.8764" lon="7.08138">
        <ele>608</ele>
        <time>2015-01-27T08:27:47Z</time>
      </trkpt>
      <trkpt lat="43.87639" lon="7.08159">
        <ele>606</ele>
        <time>2015-01-27T08:27:59Z</time>
      </trkpt>
      <trkpt lat="43.87644" lon="7.08155">
        <ele>605</ele>
        <time>2015-01-27T08:28:03Z</time>
      </trkpt>
      <trkpt lat="43.87652" lon="7.08132">
        <ele>601</ele>
        <time>2015-01-27T08:28:18Z</time>
      </trkpt>
      <trkpt lat="43.87661" lon="7.08127">
        <ele>599</ele>
        <time>2015-01-27T08:28:28Z</time>
      </trkpt>
      <trkpt lat="43.87663" lon="7.08133">
        <ele>599</ele>
        <time>2015-01-27T08:28:34Z</time>
      </trkpt>
      <trkpt lat="43.87667" lon="7.08137">
        <ele>597</ele>
        <time>2015-01-27T08:28:44Z</time>
      </trkpt>
      <trkpt lat="43.87677" lon="7.08127">
        <ele>595</ele>
        <time>2015-01-27T08:28:53Z</time>
      </trkpt>
      <trkpt lat="43.87676" lon="7.0812">
        <ele>594</ele>
        <time>2015-01-27T08:28:59Z</time>
      </trkpt>
      <trkpt lat="43.87679" lon="7.08114">
        <ele>593</ele>
        <time>2015-01-27T08:29:05Z</time>
      </trkpt>
      <trkpt lat="43.87693" lon="7.08108">
        <ele>591</ele>
        <time>2015-01-27T08:29:19Z</time>
      </trkpt>
      <trkpt lat="43.87697" lon="7.08113">
        <ele>590</ele>
        <time>2015-01-27T08:29:25Z</time>
      </trkpt>
      <trkpt lat="43.87702" lon="7.08115">
        <ele>588</ele>
        <time>2015-01-27T08:29:31Z</time>
      </trkpt>
      <trkpt lat="43.87703" lon="7.08108">
        <ele>588</ele>
        <time>2015-01-27T08:29:35Z</time>
      </trkpt>
      <trkpt lat="43.877" lon="7.08102">
        <ele>587</ele>
        <time>2015-01-27T08:29:39Z</time>
      </trkpt>
      <trkpt lat="43.87694" lon="7.08092">
        <ele>585</ele>
        <time>2015-01-27T08:29:49Z</time>
      </trkpt>
      <trkpt lat="43.87696" lon="7.08086">
        <ele>584</ele>
        <time>2015-01-27T08:29:56Z</time>
      </trkpt>
      <trkpt lat="43.877" lon="7.08084">
        <ele>583</ele>
        <time>2015-01-27T08:30:01Z</time>
      </trkpt>
      <trkpt lat="43.87705" lon="7.08084">
        <ele>582</ele>
        <time>2015-01-27T08:30:06Z</time>
      </trkpt>
      <trkpt lat="43.87713" lon="7.08091">
        <ele>580</ele>
        <time>2015-01-27T08:30:15Z</time>
      </trkpt>
      <trkpt lat="43.87714" lon="7.08084">
        <ele>580</ele>
        <time>2015-01-27T08:30:19Z</time>
      </trkpt>
      <trkpt lat="43.87711" lon="7.08078">
        <ele>579</ele>
        <time>2015-01-27T08:30:23Z</time>
      </trkpt>
      <trkpt lat="43.87707" lon="7.08074">
        <ele>578</ele>
        <time>2015-01-27T08:30:27Z</time>
      </trkpt>
      <trkpt lat="43.87702" lon="7.08073">
        <ele>578</ele>
        <time>2015-01-27T08:30:32Z</time>
      </trkpt>
      <trkpt lat="43.87703" lon="7.08067">
        <ele>575</ele>
        <time>2015-01-27T08:30:40Z</time>
      </trkpt>
      <trkpt lat="43.87707" lon="7.08066">
        <ele>575</ele>
        <time>2015-01-27T08:30:45Z</time>
      </trkpt>
      <trkpt lat="43.87716" lon="7.08061">
        <ele>572</ele>
        <time>2015-01-27T08:30:57Z</time>
      </trkpt>
      <trkpt lat="43.87714" lon="7.08055">
        <ele>569</ele>
        <time>2015-01-27T08:31:06Z</time>
      </trkpt>
      <trkpt lat="43.87718" lon="7.08052">
        <ele>569</ele>
        <time>2015-01-27T08:31:13Z</time>
      </trkpt>
      <trkpt lat="43.87723" lon="7.08052">
        <ele>568</ele>
        <time>2015-01-27T08:31:17Z</time>
      </trkpt>
      <trkpt lat="43.87728" lon="7.08051">
        <ele>566</ele>
        <time>2015-01-27T08:31:22Z</time>
      </trkpt>
      <trkpt lat="43.87726" lon="7.08045">
        <ele>565</ele>
        <time>2015-01-27T08:31:30Z</time>
      </trkpt>
      <trkpt lat="43.87722" lon="7.08044">
        <ele>564</ele>
        <time>2015-01-27T08:31:35Z</time>
      </trkpt>
      <trkpt lat="43.87707" lon="7.08041">
        <ele>559</ele>
        <time>2015-01-27T08:31:54Z</time>
      </trkpt>
      <trkpt lat="43.87703" lon="7.08037">
        <ele>559</ele>
        <time>2015-01-27T08:31:58Z</time>
      </trkpt>
      <trkpt lat="43.87693" lon="7.08036">
        <ele>557</ele>
        <time>2015-01-27T08:32:09Z</time>
      </trkpt>
      <trkpt lat="43.87693" lon="7.0803">
        <ele>556</ele>
        <time>2015-01-27T08:32:15Z</time>
      </trkpt>
      <trkpt lat="43.87697" lon="7.08026">
        <ele>555</ele>
        <time>2015-01-27T08:32:20Z</time>
      </trkpt>
      <trkpt lat="43.87731" lon="7.08011">
        <ele>547</ele>
        <time>2015-01-27T08:32:53Z</time>
      </trkpt>
      <trkpt lat="43.87763" lon="7.08003">
        <ele>542</ele>
        <time>2015-01-27T08:33:25Z</time>
      </trkpt>
      <trkpt lat="43.87767" lon="7.08009">
        <ele>541</ele>
        <time>2015-01-27T08:33:30Z</time>
      </trkpt>
      <trkpt lat="43.87768" lon="7.08015">
        <ele>541</ele>
        <time>2015-01-27T08:33:34Z</time>
      </trkpt>
      <trkpt lat="43.87762" lon="7.0804">
        <ele>538</ele>
        <time>2015-01-27T08:33:52Z</time>
      </trkpt>
      <trkpt lat="43.87768" lon="7.08058">
        <ele>534</ele>
        <time>2015-01-27T08:34:08Z</time>
      </trkpt>
      <trkpt lat="43.87772" lon="7.08051">
        <ele>533</ele>
        <time>2015-01-27T08:34:19Z</time>
      </trkpt>
      <trkpt lat="43.87785" lon="7.08022">
        <ele>527</ele>
        <time>2015-01-27T08:34:40Z</time>
      </trkpt>
      <trkpt lat="43.87789" lon="7.08027">
        <ele>527</ele>
        <time>2015-01-27T08:34:45Z</time>
      </trkpt>
      <trkpt lat="43.87789" lon="7.08041">
        <ele>524</ele>
        <time>2015-01-27T08:34:55Z</time>
      </trkpt>
      <trkpt lat="43.87792" lon="7.08046">
        <ele>523</ele>
        <time>2015-01-27T08:34:59Z</time>
      </trkpt>
      <trkpt lat="43.87791" lon="7.08067">
        <ele>520</ele>
        <time>2015-01-27T08:35:11Z</time>
      </trkpt>
      <trkpt lat="43.87795" lon="7.08073">
        <ele>518</ele>
        <time>2015-01-27T08:35:40Z</time>
      </trkpt>
      <trkpt lat="43.87799" lon="7.08075">
        <ele>517</ele>
        <time>2015-01-27T08:35:49Z</time>
      </trkpt>
      <trkpt lat="43.87804" lon="7.08072">
        <ele>518</ele>
        <time>2015-01-27T08:35:57Z</time>
      </trkpt>
      <trkpt lat="43.87831" lon="7.08041">
        <ele>522</ele>
        <time>2015-01-27T08:36:32Z</time>
      </trkpt>
      <trkpt lat="43.87837" lon="7.08031">
        <ele>524</ele>
        <time>2015-01-27T08:36:43Z</time>
      </trkpt>
      <trkpt lat="43.87842" lon="7.0803">
        <ele>526</ele>
        <time>2015-01-27T08:36:47Z</time>
      </trkpt>
      <trkpt lat="43.87846" lon="7.08028">
        <ele>526</ele>
        <time>2015-01-27T08:36:51Z</time>
      </trkpt>
      <trkpt lat="43.87851" lon="7.08024">
        <ele>525</ele>
        <time>2015-01-27T08:36:55Z</time>
      </trkpt>
      <trkpt lat="43.87861" lon="7.08025">
        <ele>524</ele>
        <time>2015-01-27T08:37:03Z</time>
      </trkpt>
      <trkpt lat="43.87891" lon="7.08006">
        <ele>518</ele>
        <time>2015-01-27T08:37:37Z</time>
      </trkpt>
      <trkpt lat="43.87897" lon="7.08005">
        <ele>518</ele>
        <time>2015-01-27T08:37:41Z</time>
      </trkpt>
      <trkpt lat="43.87902" lon="7.08005">
        <ele>517</ele>
        <time>2015-01-27T08:37:46Z</time>
      </trkpt>
      <trkpt lat="43.87907" lon="7.08005">
        <ele>517</ele>
        <time>2015-01-27T08:37:51Z</time>
      </trkpt>
      <trkpt lat="43.87933" lon="7.08017">
        <ele>523</ele>
        <time>2015-01-27T08:38:28Z</time>
      </trkpt>
      <trkpt lat="43.87937" lon="7.0802">
        <ele>523</ele>
        <time>2015-01-27T08:38:33Z</time>
      </trkpt>
      <trkpt lat="43.87952" lon="7.08018">
        <ele>525</ele>
        <time>2015-01-27T08:38:47Z</time>
      </trkpt>
      <trkpt lat="43.87958" lon="7.08017">
        <ele>525</ele>
        <time>2015-01-27T08:38:52Z</time>
      </trkpt>
      <trkpt lat="43.87967" lon="7.0802">
        <ele>526</ele>
        <time>2015-01-27T08:39:00Z</time>
      </trkpt>
      <trkpt lat="43.87972" lon="7.08017">
        <ele>527</ele>
        <time>2015-01-27T08:39:05Z</time>
      </trkpt>
      <trkpt lat="43.87988" lon="7.08014">
        <ele>528</ele>
        <time>2015-01-27T08:39:19Z</time>
      </trkpt>
      <trkpt lat="43.88007" lon="7.08001">
        <ele>528</ele>
        <time>2015-01-27T08:39:35Z</time>
      </trkpt>
      <trkpt lat="43.88012" lon="7.08001">
        <ele>528</ele>
        <time>2015-01-27T08:39:40Z</time>
      </trkpt>
      <trkpt lat="43.88017" lon="7.08001">
        <ele>530</ele>
        <time>2015-01-27T08:39:49Z</time>
      </trkpt>
      <trkpt lat="43.88031" lon="7.07989">
        <ele>531</ele>
        <time>2015-01-27T08:40:02Z</time>
      </trkpt>
      <trkpt lat="43.88036" lon="7.07989">
        <ele>531</ele>
        <time>2015-01-27T08:40:07Z</time>
      </trkpt>
      <trkpt lat="43.88044" lon="7.07992">
        <ele>532</ele>
        <time>2015-01-27T08:40:20Z</time>
      </trkpt>
      <trkpt lat="43.88045" lon="7.07988">
        <ele>533</ele>
        <time>2015-01-27T08:40:50Z</time>
      </trkpt>
      <trkpt lat="43.88061" lon="7.07975">
        <ele>532</ele>
        <time>2015-01-27T08:41:14Z</time>
      </trkpt>
      <trkpt lat="43.88086" lon="7.07938">
        <ele>530</ele>
        <time>2015-01-27T08:41:47Z</time>
      </trkpt>
      <trkpt lat="43.88099" lon="7.07929">
        <ele>529</ele>
        <time>2015-01-27T08:42:00Z</time>
      </trkpt>
      <trkpt lat="43.88124" lon="7.07882">
        <ele>526</ele>
        <time>2015-01-27T08:42:31Z</time>
      </trkpt>
      <trkpt lat="43.88133" lon="7.07877">
        <ele>524</ele>
        <time>2015-01-27T08:42:40Z</time>
      </trkpt>
      <trkpt lat="43.88134" lon="7.07873">
        <ele>523</ele>
        <time>2015-01-27T08:42:48Z</time>
      </trkpt>
      <trkpt lat="43.88139" lon="7.07868">
        <ele>523</ele>
        <time>2015-01-27T08:42:56Z</time>
      </trkpt>
      <trkpt lat="43.88142" lon="7.07854">
        <ele>523</ele>
        <time>2015-01-27T08:43:04Z</time>
      </trkpt>
      <trkpt lat="43.88142" lon="7.07833">
        <ele>524</ele>
        <time>2015-01-27T08:43:18Z</time>
      </trkpt>
      <trkpt lat="43.88139" lon="7.07827">
        <ele>524</ele>
        <time>2015-01-27T08:43:23Z</time>
      </trkpt>
      <trkpt lat="43.88094" lon="7.07795">
        <ele>524</ele>
        <time>2015-01-27T08:43:54Z</time>
      </trkpt>
      <trkpt lat="43.88068" lon="7.07794">
        <ele>526</ele>
        <time>2015-01-27T08:44:13Z</time>
      </trkpt>
      <trkpt lat="43.88032" lon="7.07819">
        <ele>529</ele>
        <time>2015-01-27T08:44:44Z</time>
      </trkpt>
      <trkpt lat="43.87995" lon="7.07851">
        <ele>533</ele>
        <time>2015-01-27T08:45:15Z</time>
      </trkpt>
      <trkpt lat="43.87956" lon="7.07859">
        <ele>536</ele>
        <time>2015-01-27T08:45:47Z</time>
      </trkpt>
      <trkpt lat="43.87937" lon="7.07865">
        <ele>536</ele>
        <time>2015-01-27T08:46:02Z</time>
      </trkpt>
      <trkpt lat="43.87929" lon="7.07858">
        <ele>536</ele>
        <time>2015-01-27T08:46:11Z</time>
      </trkpt>
      <trkpt lat="43.87923" lon="7.07844">
        <ele>537</ele>
        <time>2015-01-27T08:46:29Z</time>
      </trkpt>
      <trkpt lat="43.87925" lon="7.07836">
        <ele>537</ele>
        <time>2015-01-27T08:46:39Z</time>
      </trkpt>
      <trkpt lat="43.87934" lon="7.07813">
        <ele>539</ele>
        <time>2015-01-27T08:46:56Z</time>
      </trkpt>
      <trkpt lat="43.87933" lon="7.07806">
        <ele>539</ele>
        <time>2015-01-27T08:47:00Z</time>
      </trkpt>
      <trkpt lat="43.87926" lon="7.07794">
        <ele>540</ele>
        <time>2015-01-27T08:47:08Z</time>
      </trkpt>
      <trkpt lat="43.87919" lon="7.07787">
        <ele>541</ele>
        <time>2015-01-27T08:47:21Z</time>
      </trkpt>
      <trkpt lat="43.87916" lon="7.07782">
        <ele>541</ele>
        <time>2015-01-27T08:47:25Z</time>
      </trkpt>
      <trkpt lat="43.8789" lon="7.07771">
        <ele>541</ele>
        <time>2015-01-27T08:47:44Z</time>
      </trkpt>
      <trkpt lat="43.87888" lon="7.07765">
        <ele>541</ele>
        <time>2015-01-27T08:47:51Z</time>
      </trkpt>
      <trkpt lat="43.87893" lon="7.07764">
        <ele>542</ele>
        <time>2015-01-27T08:47:55Z</time>
      </trkpt>
      <trkpt lat="43.87898" lon="7.07767">
        <ele>542</ele>
        <time>2015-01-27T08:48:00Z</time>
      </trkpt>
      <trkpt lat="43.87908" lon="7.07773">
        <ele>543</ele>
        <time>2015-01-27T08:48:09Z</time>
      </trkpt>
      <trkpt lat="43.87949" lon="7.07774">
        <ele>547</ele>
        <time>2015-01-27T08:48:40Z</time>
      </trkpt>
      <trkpt lat="43.87953" lon="7.07779">
        <ele>548</ele>
        <time>2015-01-27T08:48:44Z</time>
      </trkpt>
      <trkpt lat="43.87955" lon="7.07786">
        <ele>548</ele>
        <time>2015-01-27T08:48:48Z</time>
      </trkpt>
      <trkpt lat="43.87951" lon="7.07818">
        <ele>550</ele>
        <time>2015-01-27T08:49:03Z</time>
      </trkpt>
      <trkpt lat="43.87953" lon="7.07823">
        <ele>551</ele>
        <time>2015-01-27T08:49:06Z</time>
      </trkpt>
      <trkpt lat="43.87958" lon="7.07826">
        <ele>551</ele>
        <time>2015-01-27T08:49:09Z</time>
      </trkpt>
      <trkpt lat="43.87963" lon="7.07823">
        <ele>551</ele>
        <time>2015-01-27T08:49:12Z</time>
      </trkpt>
      <trkpt lat="43.87967" lon="7.07817">
        <ele>551</ele>
        <time>2015-01-27T08:49:16Z</time>
      </trkpt>
      <trkpt lat="43.87968" lon="7.0781">
        <ele>552</ele>
        <time>2015-01-27T08:49:20Z</time>
      </trkpt>
      <trkpt lat="43.87966" lon="7.07803">
        <ele>553</ele>
        <time>2015-01-27T08:49:25Z</time>
      </trkpt>
      <trkpt lat="43.87967" lon="7.07796">
        <ele>553</ele>
        <time>2015-01-27T08:49:29Z</time>
      </trkpt>
      <trkpt lat="43.87976" lon="7.07754">
        <ele>557</ele>
        <time>2015-01-27T08:49:53Z</time>
      </trkpt>
      <trkpt lat="43.87974" lon="7.07749">
        <ele>558</ele>
        <time>2015-01-27T08:49:57Z</time>
      </trkpt>
      <trkpt lat="43.87965" lon="7.07741">
        <ele>559</ele>
        <time>2015-01-27T08:50:04Z</time>
      </trkpt>
      <trkpt lat="43.87932" lon="7.07721">
        <ele>564</ele>
        <time>2015-01-27T08:50:35Z</time>
      </trkpt>
      <trkpt lat="43.87897" lon="7.07712">
        <ele>567</ele>
        <time>2015-01-27T08:51:03Z</time>
      </trkpt>
      <trkpt lat="43.87898" lon="7.07706">
        <ele>569</ele>
        <time>2015-01-27T08:53:43Z</time>
      </trkpt>
      <trkpt lat="43.87894" lon="7.07701">
        <ele>570</ele>
        <time>2015-01-27T08:53:49Z</time>
      </trkpt>
      <trkpt lat="43.87891" lon="7.07696">
        <ele>572</ele>
        <time>2015-01-27T08:53:54Z</time>
      </trkpt>
      <trkpt lat="43.87892" lon="7.0769">
        <ele>574</ele>
        <time>2015-01-27T08:54:03Z</time>
      </trkpt>
      <trkpt lat="43.87896" lon="7.07687">
        <ele>576</ele>
        <time>2015-01-27T08:54:10Z</time>
      </trkpt>
      <trkpt lat="43.87923" lon="7.0767">
        <ele>586</ele>
        <time>2015-01-27T08:54:45Z</time>
      </trkpt>
      <trkpt lat="43.87938" lon="7.07654">
        <ele>593</ele>
        <time>2015-01-27T08:55:10Z</time>
      </trkpt>
      <trkpt lat="43.87943" lon="7.07655">
        <ele>594</ele>
        <time>2015-01-27T08:55:15Z</time>
      </trkpt>
      <trkpt lat="43.87948" lon="7.07657">
        <ele>595</ele>
        <time>2015-01-27T08:55:20Z</time>
      </trkpt>
      <trkpt lat="43.87958" lon="7.07649">
        <ele>601</ele>
        <time>2015-01-27T08:55:43Z</time>
      </trkpt>
      <trkpt lat="43.87973" lon="7.0764">
        <ele>608</ele>
        <time>2015-01-27T08:56:18Z</time>
      </trkpt>
      <trkpt lat="43.87977" lon="7.07638">
        <ele>610</ele>
        <time>2015-01-27T08:57:01Z</time>
      </trkpt>
      <trkpt lat="43.87984" lon="7.07633">
        <ele>615</ele>
        <time>2015-01-27T08:57:16Z</time>
      </trkpt>
      <trkpt lat="43.87984" lon="7.0763">
        <ele>616</ele>
        <time>2015-01-27T08:57:22Z</time>
      </trkpt>
      <trkpt lat="43.87989" lon="7.07625">
        <ele>620</ele>
        <time>2015-01-27T08:57:34Z</time>
      </trkpt>
      <trkpt lat="43.87998" lon="7.07626">
        <ele>625</ele>
        <time>2015-01-27T08:57:52Z</time>
      </trkpt>
      <trkpt lat="43.88001" lon="7.0762">
        <ele>626</ele>
        <time>2015-01-27T08:58:01Z</time>
      </trkpt>
      <trkpt lat="43.88001" lon="7.07614">
        <ele>629</ele>
        <time>2015-01-27T08:58:11Z</time>
      </trkpt>
      <trkpt lat="43.88001" lon="7.07609">
        <ele>631</ele>
        <time>2015-01-27T08:58:19Z</time>
      </trkpt>
      <trkpt lat="43.88005" lon="7.07606">
        <ele>634</ele>
        <time>2015-01-27T08:59:07Z</time>
      </trkpt>
      <trkpt lat="43.8801" lon="7.07607">
        <ele>637</ele>
        <time>2015-01-27T08:59:14Z</time>
      </trkpt>
      <trkpt lat="43.88014" lon="7.07602">
        <ele>639</ele>
        <time>2015-01-27T08:59:23Z</time>
      </trkpt>
      <trkpt lat="43.88022" lon="7.07599">
        <ele>644</ele>
        <time>2015-01-27T08:59:41Z</time>
      </trkpt>
      <trkpt lat="43.88028" lon="7.07599">
        <ele>648</ele>
        <time>2015-01-27T08:59:55Z</time>
      </trkpt>
      <trkpt lat="43.88033" lon="7.07593">
        <ele>650</ele>
        <time>2015-01-27T09:00:07Z</time>
      </trkpt>
      <trkpt lat="43.88038" lon="7.07592">
        <ele>653</ele>
        <time>2015-01-27T09:00:15Z</time>
      </trkpt>
      <trkpt lat="43.88039" lon="7.07588">
        <ele>654</ele>
        <time>2015-01-27T09:00:31Z</time>
      </trkpt>
      <trkpt lat="43.88042" lon="7.07588">
        <ele>657</ele>
        <time>2015-01-27T09:00:37Z</time>
      </trkpt>
      <trkpt lat="43.88043" lon="7.07581">
        <ele>659</ele>
        <time>2015-01-27T09:00:56Z</time>
      </trkpt>
      <trkpt lat="43.88045" lon="7.07578">
        <ele>661</ele>
        <time>2015-01-27T09:01:13Z</time>
      </trkpt>
      <trkpt lat="43.88046" lon="7.0757">
        <ele>665</ele>
        <time>2015-01-27T09:01:49Z</time>
      </trkpt>
      <trkpt lat="43.88049" lon="7.07564">
        <ele>666</ele>
        <time>2015-01-27T09:01:53Z</time>
      </trkpt>
      <trkpt lat="43.88048" lon="7.07558">
        <ele>671</ele>
        <time>2015-01-27T09:02:31Z</time>
      </trkpt>
      <trkpt lat="43.8805" lon="7.07552">
        <ele>671</ele>
        <time>2015-01-27T09:02:37Z</time>
      </trkpt>
      <trkpt lat="43.88051" lon="7.07542">
        <ele>677</ele>
        <time>2015-01-27T09:02:54Z</time>
      </trkpt>
      <trkpt lat="43.88056" lon="7.07534">
        <ele>684</ele>
        <time>2015-01-27T09:03:39Z</time>
      </trkpt>
      <trkpt lat="43.8806" lon="7.07531">
        <ele>685</ele>
        <time>2015-01-27T09:03:47Z</time>
      </trkpt>
      <trkpt lat="43.88064" lon="7.07528">
        <ele>688</ele>
        <time>2015-01-27T09:03:55Z</time>
      </trkpt>
      <trkpt lat="43.88061" lon="7.07521">
        <ele>690</ele>
        <time>2015-01-27T09:04:16Z</time>
      </trkpt>
      <trkpt lat="43.88061" lon="7.07518">
        <ele>692</ele>
        <time>2015-01-27T09:04:22Z</time>
      </trkpt>
      <trkpt lat="43.88064" lon="7.07504">
        <ele>699</ele>
        <time>2015-01-27T09:04:55Z</time>
      </trkpt>
      <trkpt lat="43.88067" lon="7.07498">
        <ele>702</ele>
        <time>2015-01-27T09:05:08Z</time>
      </trkpt>
      <trkpt lat="43.88081" lon="7.07482">
        <ele>710</ele>
        <time>2015-01-27T09:05:46Z</time>
      </trkpt>
      <trkpt lat="43.8809" lon="7.07471">
        <ele>715</ele>
        <time>2015-01-27T09:06:10Z</time>
      </trkpt>
      <trkpt lat="43.88095" lon="7.07469">
        <ele>717</ele>
        <time>2015-01-27T09:06:18Z</time>
      </trkpt>
      <trkpt lat="43.88101" lon="7.0746">
        <ele>720</ele>
        <time>2015-01-27T09:06:32Z</time>
      </trkpt>
      <trkpt lat="43.88118" lon="7.07448">
        <ele>727</ele>
        <time>2015-01-27T09:07:04Z</time>
      </trkpt>
      <trkpt lat="43.88136" lon="7.07427">
        <ele>732</ele>
        <time>2015-01-27T09:07:35Z</time>
      </trkpt>
      <trkpt lat="43.88145" lon="7.07422">
        <ele>735</ele>
        <time>2015-01-27T09:07:47Z</time>
      </trkpt>
      <trkpt lat="43.88146" lon="7.07418">
        <ele>736</ele>
        <time>2015-01-27T09:07:54Z</time>
      </trkpt>
      <trkpt lat="43.88149" lon="7.07412">
        <ele>736</ele>
        <time>2015-01-27T09:08:02Z</time>
      </trkpt>
      <trkpt lat="43.88158" lon="7.07407">
        <ele>735</ele>
        <time>2015-01-27T09:08:12Z</time>
      </trkpt>
      <trkpt lat="43.88162" lon="7.07399">
        <ele>735</ele>
        <time>2015-01-27T09:08:19Z</time>
      </trkpt>
      <trkpt lat="43.8816" lon="7.07393">
        <ele>735</ele>
        <time>2015-01-27T09:08:25Z</time>
      </trkpt>
      <trkpt lat="43.88163" lon="7.07388">
        <ele>734</ele>
        <time>2015-01-27T09:08:29Z</time>
      </trkpt>
      <trkpt lat="43.88182" lon="7.07372">
        <ele>733</ele>
        <time>2015-01-27T09:08:42Z</time>
      </trkpt>
      <trkpt lat="43.882" lon="7.07359">
        <ele>734</ele>
        <time>2015-01-27T09:08:59Z</time>
      </trkpt>
      <trkpt lat="43.88206" lon="7.07349">
        <ele>735</ele>
        <time>2015-01-27T09:09:07Z</time>
      </trkpt>
      <trkpt lat="43.8821" lon="7.07347">
        <ele>736</ele>
        <time>2015-01-27T09:09:13Z</time>
      </trkpt>
      <trkpt lat="43.88219" lon="7.07336">
        <ele>738</ele>
        <time>2015-01-27T09:09:26Z</time>
      </trkpt>
      <trkpt lat="43.88228" lon="7.07331">
        <ele>742</ele>
        <time>2015-01-27T09:09:44Z</time>
      </trkpt>
      <trkpt lat="43.88238" lon="7.07316">
        <ele>743</ele>
        <time>2015-01-27T09:09:58Z</time>
      </trkpt>
      <trkpt lat="43.88264" lon="7.07298">
        <ele>749</ele>
        <time>2015-01-27T09:10:31Z</time>
      </trkpt>
      <trkpt lat="43.88268" lon="7.07295">
        <ele>749</ele>
        <time>2015-01-27T09:10:36Z</time>
      </trkpt>
      <trkpt lat="43.88273" lon="7.07291">
        <ele>749</ele>
        <time>2015-01-27T09:10:40Z</time>
      </trkpt>
      <trkpt lat="43.88279" lon="7.07282">
        <ele>750</ele>
        <time>2015-01-27T09:10:49Z</time>
      </trkpt>
      <trkpt lat="43.8828" lon="7.07279">
        <ele>752</ele>
        <time>2015-01-27T09:10:55Z</time>
      </trkpt>
      <trkpt lat="43.88286" lon="7.0728">
        <ele>752</ele>
        <time>2015-01-27T09:11:04Z</time>
      </trkpt>
      <trkpt lat="43.88292" lon="7.0728">
        <ele>753</ele>
        <time>2015-01-27T09:11:51Z</time>
      </trkpt>
      <trkpt lat="43.88309" lon="7.07265">
        <ele>760</ele>
        <time>2015-01-27T09:12:25Z</time>
      </trkpt>
      <trkpt lat="43.88311" lon="7.07261">
        <ele>760</ele>
        <time>2015-01-27T09:12:33Z</time>
      </trkpt>
      <trkpt lat="43.88316" lon="7.07262">
        <ele>763</ele>
        <time>2015-01-27T09:12:43Z</time>
      </trkpt>
      <trkpt lat="43.88323" lon="7.07255">
        <ele>765</ele>
        <time>2015-01-27T09:13:13Z</time>
      </trkpt>
      <trkpt lat="43.88328" lon="7.07261">
        <ele>767</ele>
        <time>2015-01-27T09:13:19Z</time>
      </trkpt>
      <trkpt lat="43.88333" lon="7.0726">
        <ele>768</ele>
        <time>2015-01-27T09:13:25Z</time>
      </trkpt>
      <trkpt lat="43.88338" lon="7.07261">
        <ele>770</ele>
        <time>2015-01-27T09:13:33Z</time>
      </trkpt>
      <trkpt lat="43.88343" lon="7.07268">
        <ele>772</ele>
        <time>2015-01-27T09:14:01Z</time>
      </trkpt>
      <trkpt lat="43.88346" lon="7.07274">
        <ele>772</ele>
        <time>2015-01-27T09:14:06Z</time>
      </trkpt>
      <trkpt lat="43.8835" lon="7.07276">
        <ele>772</ele>
        <time>2015-01-27T09:14:14Z</time>
      </trkpt>
      <trkpt lat="43.88358" lon="7.0728">
        <ele>774</ele>
        <time>2015-01-27T09:14:29Z</time>
      </trkpt>
      <trkpt lat="43.88361" lon="7.07277">
        <ele>775</ele>
        <time>2015-01-27T09:14:46Z</time>
      </trkpt>
      <trkpt lat="43.88366" lon="7.07277">
        <ele>776</ele>
        <time>2015-01-27T09:14:52Z</time>
      </trkpt>
      <trkpt lat="43.88385" lon="7.07281">
        <ele>779</ele>
        <time>2015-01-27T09:15:17Z</time>
      </trkpt>
      <trkpt lat="43.88389" lon="7.07288">
        <ele>778</ele>
        <time>2015-01-27T09:15:27Z</time>
      </trkpt>
      <trkpt lat="43.88394" lon="7.07288">
        <ele>778</ele>
        <time>2015-01-27T09:15:32Z</time>
      </trkpt>
      <trkpt lat="43.88398" lon="7.07286">
        <ele>779</ele>
        <time>2015-01-27T09:15:36Z</time>
      </trkpt>
      <trkpt lat="43.88412" lon="7.07286">
        <ele>782</ele>
        <time>2015-01-27T09:15:55Z</time>
      </trkpt>
      <trkpt lat="43.88415" lon="7.07281">
        <ele>783</ele>
        <time>2015-01-27T09:15:59Z</time>
      </trkpt>
      <trkpt lat="43.88421" lon="7.0728">
        <ele>785</ele>
        <time>2015-01-27T09:16:07Z</time>
      </trkpt>
      <trkpt lat="43.88426" lon="7.07281">
        <ele>786</ele>
        <time>2015-01-27T09:16:11Z</time>
      </trkpt>
      <trkpt lat="43.88431" lon="7.0728">
        <ele>787</ele>
        <time>2015-01-27T09:16:19Z</time>
      </trkpt>
      <trkpt lat="43.8844" lon="7.07282">
        <ele>789</ele>
        <time>2015-01-27T09:16:30Z</time>
      </trkpt>
      <trkpt lat="43.88462" lon="7.07275">
        <ele>796</ele>
        <time>2015-01-27T09:17:08Z</time>
      </trkpt>
      <trkpt lat="43.88466" lon="7.07272">
        <ele>798</ele>
        <time>2015-01-27T09:18:39Z</time>
      </trkpt>
      <trkpt lat="43.88471" lon="7.0727">
        <ele>799</ele>
        <time>2015-01-27T09:18:46Z</time>
      </trkpt>
      <trkpt lat="43.88495" lon="7.07272">
        <ele>806</ele>
        <time>2015-01-27T09:19:19Z</time>
      </trkpt>
      <trkpt lat="43.88505" lon="7.07275">
        <ele>807</ele>
        <time>2015-01-27T09:19:31Z</time>
      </trkpt>
      <trkpt lat="43.88509" lon="7.07272">
        <ele>808</ele>
        <time>2015-01-27T09:19:39Z</time>
      </trkpt>
      <trkpt lat="43.88511" lon="7.07266">
        <ele>810</ele>
        <time>2015-01-27T09:19:44Z</time>
      </trkpt>
      <trkpt lat="43.88516" lon="7.07265">
        <ele>811</ele>
        <time>2015-01-27T09:19:50Z</time>
      </trkpt>
      <trkpt lat="43.88519" lon="7.07266">
        <ele>813</ele>
        <time>2015-01-27T09:19:57Z</time>
      </trkpt>
      <trkpt lat="43.88521" lon="7.07261">
        <ele>815</ele>
        <time>2015-01-27T09:20:10Z</time>
      </trkpt>
      <trkpt lat="43.88525" lon="7.07256">
        <ele>818</ele>
        <time>2015-01-27T09:20:18Z</time>
      </trkpt>
      <trkpt lat="43.88528" lon="7.0725">
        <ele>821</ele>
        <time>2015-01-27T09:20:41Z</time>
      </trkpt>
      <trkpt lat="43.88541" lon="7.07243">
        <ele>828</ele>
        <time>2015-01-27T09:21:07Z</time>
      </trkpt>
      <trkpt lat="43.8855" lon="7.07248">
        <ele>829</ele>
        <time>2015-01-27T09:21:18Z</time>
      </trkpt>
      <trkpt lat="43.88555" lon="7.07248">
        <ele>830</ele>
        <time>2015-01-27T09:21:23Z</time>
      </trkpt>
      <trkpt lat="43.8856" lon="7.07247">
        <ele>830</ele>
        <time>2015-01-27T09:21:29Z</time>
      </trkpt>
      <trkpt lat="43.88569" lon="7.07252">
        <ele>831</ele>
        <time>2015-01-27T09:21:39Z</time>
      </trkpt>
      <trkpt lat="43.88578" lon="7.07249">
        <ele>832</ele>
        <time>2015-01-27T09:21:50Z</time>
      </trkpt>
      <trkpt lat="43.88583" lon="7.07246">
        <ele>833</ele>
        <time>2015-01-27T09:21:56Z</time>
      </trkpt>
      <trkpt lat="43.88591" lon="7.07247">
        <ele>834</ele>
        <time>2015-01-27T09:22:10Z</time>
      </trkpt>
      <trkpt lat="43.88595" lon="7.07246">
        <ele>834</ele>
        <time>2015-01-27T09:22:14Z</time>
      </trkpt>
      <trkpt lat="43.88614" lon="7.0724">
        <ele>833</ele>
        <time>2015-01-27T09:22:30Z</time>
      </trkpt>
      <trkpt lat="43.88616" lon="7.07246">
        <ele>833</ele>
        <time>2015-01-27T09:22:36Z</time>
      </trkpt>
      <trkpt lat="43.88615" lon="7.07249">
        <ele>833</ele>
        <time>2015-01-27T09:22:48Z</time>
      </trkpt>
      <trkpt lat="43.88614" lon="7.07252">
        <ele>833</ele>
        <time>2015-01-27T09:23:32Z</time>
      </trkpt>
      <trkpt lat="43.88614" lon="7.0726">
        <ele>833</ele>
        <time>2015-01-27T09:23:52Z</time>
      </trkpt>
      <trkpt lat="43.8862" lon="7.07261">
        <ele>832</ele>
        <time>2015-01-27T09:24:20Z</time>
      </trkpt>
      <trkpt lat="43.88625" lon="7.07265">
        <ele>831</ele>
        <time>2015-01-27T09:24:28Z</time>
      </trkpt>
      <trkpt lat="43.88645" lon="7.07263">
        <ele>830</ele>
        <time>2015-01-27T09:24:48Z</time>
      </trkpt>
      <trkpt lat="43.88649" lon="7.0726">
        <ele>829</ele>
        <time>2015-01-27T09:24:52Z</time>
      </trkpt>
      <trkpt lat="43.88654" lon="7.07259">
        <ele>829</ele>
        <time>2015-01-27T09:24:57Z</time>
      </trkpt>
      <trkpt lat="43.88664" lon="7.07262">
        <ele>828</ele>
        <time>2015-01-27T09:25:09Z</time>
      </trkpt>
      <trkpt lat="43.88668" lon="7.07267">
        <ele>828</ele>
        <time>2015-01-27T09:25:15Z</time>
      </trkpt>
      <trkpt lat="43.8867" lon="7.07266">
        <ele>828</ele>
        <time>2015-01-27T09:25:21Z</time>
      </trkpt>
      <trkpt lat="43.88673" lon="7.07268">
        <ele>828</ele>
        <time>2015-01-27T09:25:28Z</time>
      </trkpt>
      <trkpt lat="43.88676" lon="7.07264">
        <ele>828</ele>
        <time>2015-01-27T09:25:34Z</time>
      </trkpt>
      <trkpt lat="43.8868" lon="7.0726">
        <ele>828</ele>
        <time>2015-01-27T09:25:36Z</time>
      </trkpt>
      <trkpt lat="43.88685" lon="7.0726">
        <ele>829</ele>
        <time>2015-01-27T09:25:41Z</time>
      </trkpt>
      <trkpt lat="43.88716" lon="7.07258">
        <ele>830</ele>
        <time>2015-01-27T09:26:05Z</time>
      </trkpt>
      <trkpt lat="43.88721" lon="7.07258">
        <ele>831</ele>
        <time>2015-01-27T09:26:13Z</time>
      </trkpt>
      <trkpt lat="43.88725" lon="7.07262">
        <ele>831</ele>
        <time>2015-01-27T09:26:19Z</time>
      </trkpt>
      <trkpt lat="43.8873" lon="7.07268">
        <ele>831</ele>
        <time>2015-01-27T09:26:24Z</time>
      </trkpt>
      <trkpt lat="43.88734" lon="7.0727">
        <ele>831</ele>
        <time>2015-01-27T09:26:28Z</time>
      </trkpt>
      <trkpt lat="43.88739" lon="7.07271">
        <ele>831</ele>
        <time>2015-01-27T09:26:33Z</time>
      </trkpt>
      <trkpt lat="43.88749" lon="7.07277">
        <ele>830</ele>
        <time>2015-01-27T09:26:42Z</time>
      </trkpt>
      <trkpt lat="43.88753" lon="7.07273">
        <ele>831</ele>
        <time>2015-01-27T09:26:47Z</time>
      </trkpt>
      <trkpt lat="43.8876" lon="7.07263">
        <ele>834</ele>
        <time>2015-01-27T09:27:01Z</time>
      </trkpt>
      <trkpt lat="43.88765" lon="7.07263">
        <ele>835</ele>
        <time>2015-01-27T09:27:07Z</time>
      </trkpt>
      <trkpt lat="43.88764" lon="7.07257">
        <ele>837</ele>
        <time>2015-01-27T09:27:17Z</time>
      </trkpt>
      <trkpt lat="43.88767" lon="7.07251">
        <ele>839</ele>
        <time>2015-01-27T09:27:25Z</time>
      </trkpt>
      <trkpt lat="43.88766" lon="7.07246">
        <ele>842</ele>
        <time>2015-01-27T09:27:35Z</time>
      </trkpt>
      <trkpt lat="43.88771" lon="7.07243">
        <ele>843</ele>
        <time>2015-01-27T09:27:48Z</time>
      </trkpt>
      <trkpt lat="43.88776" lon="7.07246">
        <ele>844</ele>
        <time>2015-01-27T09:27:53Z</time>
      </trkpt>
      <trkpt lat="43.888" lon="7.07252">
        <ele>849</ele>
        <time>2015-01-27T09:28:21Z</time>
      </trkpt>
      <trkpt lat="43.88822" lon="7.07241">
        <ele>857</ele>
        <time>2015-01-27T09:28:55Z</time>
      </trkpt>
      <trkpt lat="43.88825" lon="7.07235">
        <ele>858</ele>
        <time>2015-01-27T09:29:03Z</time>
      </trkpt>
      <trkpt lat="43.8883" lon="7.07234">
        <ele>859</ele>
        <time>2015-01-27T09:29:10Z</time>
      </trkpt>
      <trkpt lat="43.88828" lon="7.07235">
        <ele>860</ele>
        <time>2015-01-27T09:29:46Z</time>
      </trkpt>
      <trkpt lat="43.88826" lon="7.07235">
        <ele>860</ele>
        <time>2015-01-27T09:29:52Z</time>
      </trkpt>
      <trkpt lat="43.88827" lon="7.07237">
        <ele>860</ele>
        <time>2015-01-27T09:30:10Z</time>
      </trkpt>
      <trkpt lat="43.88832" lon="7.07236">
        <ele>860</ele>
        <time>2015-01-27T09:30:15Z</time>
      </trkpt>
      <trkpt lat="43.88836" lon="7.07232">
        <ele>860</ele>
        <time>2015-01-27T09:30:21Z</time>
      </trkpt>
      <trkpt lat="43.88841" lon="7.07231">
        <ele>859</ele>
        <time>2015-01-27T09:30:26Z</time>
      </trkpt>
      <trkpt lat="43.88857" lon="7.07217">
        <ele>856</ele>
        <time>2015-01-27T09:30:58Z</time>
      </trkpt>
      <trkpt lat="43.88862" lon="7.07213">
        <ele>856</ele>
        <time>2015-01-27T09:31:02Z</time>
      </trkpt>
      <trkpt lat="43.88888" lon="7.07191">
        <ele>850</ele>
        <time>2015-01-27T09:31:34Z</time>
      </trkpt>
      <trkpt lat="43.88916" lon="7.07177">
        <ele>844</ele>
        <time>2015-01-27T09:32:05Z</time>
      </trkpt>
      <trkpt lat="43.88921" lon="7.07175">
        <ele>844</ele>
        <time>2015-01-27T09:32:10Z</time>
      </trkpt>
      <trkpt lat="43.88923" lon="7.07171">
        <ele>845</ele>
        <time>2015-01-27T09:32:12Z</time>
      </trkpt>
      <trkpt lat="43.88939" lon="7.07166">
        <ele>848</ele>
        <time>2015-01-27T09:32:28Z</time>
      </trkpt>
      <trkpt lat="43.88941" lon="7.07167">
        <ele>848</ele>
        <time>2015-01-27T09:32:34Z</time>
      </trkpt>
      <trkpt lat="43.88946" lon="7.07166">
        <ele>849</ele>
        <time>2015-01-27T09:32:38Z</time>
      </trkpt>
      <trkpt lat="43.8897" lon="7.07151">
        <ele>851</ele>
        <time>2015-01-27T09:33:03Z</time>
      </trkpt>
      <trkpt lat="43.88975" lon="7.07152">
        <ele>851</ele>
        <time>2015-01-27T09:33:06Z</time>
      </trkpt>
      <trkpt lat="43.8898" lon="7.0715">
        <ele>851</ele>
        <time>2015-01-27T09:33:09Z</time>
      </trkpt>
      <trkpt lat="43.8899" lon="7.07151">
        <ele>851</ele>
        <time>2015-01-27T09:33:20Z</time>
      </trkpt>
      <trkpt lat="43.88994" lon="7.07156">
        <ele>851</ele>
        <time>2015-01-27T09:33:25Z</time>
      </trkpt>
      <trkpt lat="43.89004" lon="7.07156">
        <ele>849</ele>
        <time>2015-01-27T09:33:34Z</time>
      </trkpt>
      <trkpt lat="43.89008" lon="7.07153">
        <ele>849</ele>
        <time>2015-01-27T09:33:37Z</time>
      </trkpt>
      <trkpt lat="43.89023" lon="7.07151">
        <ele>848</ele>
        <time>2015-01-27T09:33:47Z</time>
      </trkpt>
      <trkpt lat="43.89066" lon="7.07163">
        <ele>844</ele>
        <time>2015-01-27T09:34:20Z</time>
      </trkpt>
      <trkpt lat="43.89083" lon="7.0716">
        <ele>843</ele>
        <time>2015-01-27T09:34:37Z</time>
      </trkpt>
      <trkpt lat="43.89089" lon="7.07157">
        <ele>843</ele>
        <time>2015-01-27T09:34:42Z</time>
      </trkpt>
      <trkpt lat="43.89099" lon="7.07155">
        <ele>844</ele>
        <time>2015-01-27T09:34:51Z</time>
      </trkpt>
      <trkpt lat="43.89102" lon="7.0715">
        <ele>845</ele>
        <time>2015-01-27T09:34:56Z</time>
      </trkpt>
      <trkpt lat="43.89105" lon="7.07143">
        <ele>846</ele>
        <time>2015-01-27T09:35:03Z</time>
      </trkpt>
      <trkpt lat="43.8911" lon="7.07139">
        <ele>848</ele>
        <time>2015-01-27T09:35:08Z</time>
      </trkpt>
      <trkpt lat="43.89114" lon="7.0714">
        <ele>849</ele>
        <time>2015-01-27T09:35:12Z</time>
      </trkpt>
      <trkpt lat="43.89115" lon="7.07133">
        <ele>850</ele>
        <time>2015-01-27T09:35:22Z</time>
      </trkpt>
      <trkpt lat="43.89115" lon="7.07127">
        <ele>851</ele>
        <time>2015-01-27T09:35:28Z</time>
      </trkpt>
      <trkpt lat="43.89119" lon="7.07123">
        <ele>853</ele>
        <time>2015-01-27T09:35:34Z</time>
      </trkpt>
      <trkpt lat="43.89128" lon="7.07122">
        <ele>854</ele>
        <time>2015-01-27T09:35:45Z</time>
      </trkpt>
      <trkpt lat="43.89142" lon="7.07121">
        <ele>854</ele>
        <time>2015-01-27T09:35:59Z</time>
      </trkpt>
      <trkpt lat="43.89155" lon="7.07109">
        <ele>855</ele>
        <time>2015-01-27T09:36:14Z</time>
      </trkpt>
      <trkpt lat="43.89169" lon="7.071">
        <ele>857</ele>
        <time>2015-01-27T09:36:29Z</time>
      </trkpt>
      <trkpt lat="43.89194" lon="7.07076">
        <ele>860</ele>
        <time>2015-01-27T09:36:57Z</time>
      </trkpt>
      <trkpt lat="43.89197" lon="7.07071">
        <ele>861</ele>
        <time>2015-01-27T09:37:03Z</time>
      </trkpt>
      <trkpt lat="43.89206" lon="7.07067">
        <ele>863</ele>
        <time>2015-01-27T09:37:16Z</time>
      </trkpt>
      <trkpt lat="43.89206" lon="7.07059">
        <ele>865</ele>
        <time>2015-01-27T09:37:27Z</time>
      </trkpt>
      <trkpt lat="43.89208" lon="7.07052">
        <ele>867</ele>
        <time>2015-01-27T09:37:34Z</time>
      </trkpt>
      <trkpt lat="43.89212" lon="7.07048">
        <ele>868</ele>
        <time>2015-01-27T09:37:41Z</time>
      </trkpt>
      <trkpt lat="43.89222" lon="7.07045">
        <ele>871</ele>
        <time>2015-01-27T09:37:52Z</time>
      </trkpt>
      <trkpt lat="43.89223" lon="7.07042">
        <ele>871</ele>
        <time>2015-01-27T09:37:54Z</time>
      </trkpt>
      <trkpt lat="43.89232" lon="7.07024">
        <ele>879</ele>
        <time>2015-01-27T09:38:24Z</time>
      </trkpt>
      <trkpt lat="43.89234" lon="7.07022">
        <ele>880</ele>
        <time>2015-01-27T09:38:30Z</time>
      </trkpt>
      <trkpt lat="43.89245" lon="7.07025">
        <ele>884</ele>
        <time>2015-01-27T09:39:00Z</time>
      </trkpt>
      <trkpt lat="43.89244" lon="7.07021">
        <ele>884</ele>
        <time>2015-01-27T09:39:07Z</time>
      </trkpt>
      <trkpt lat="43.89243" lon="7.07015">
        <ele>885</ele>
        <time>2015-01-27T09:39:16Z</time>
      </trkpt>
      <trkpt lat="43.89247" lon="7.07016">
        <ele>886</ele>
        <time>2015-01-27T09:39:22Z</time>
      </trkpt>
      <trkpt lat="43.89251" lon="7.07015">
        <ele>890</ele>
        <time>2015-01-27T09:39:31Z</time>
      </trkpt>
      <trkpt lat="43.89254" lon="7.07017">
        <ele>892</ele>
        <time>2015-01-27T09:40:21Z</time>
      </trkpt>
      <trkpt lat="43.89257" lon="7.07015">
        <ele>893</ele>
        <time>2015-01-27T09:41:27Z</time>
      </trkpt>
      <trkpt lat="43.89262" lon="7.0701">
        <ele>895</ele>
        <time>2015-01-27T09:41:42Z</time>
      </trkpt>
      <trkpt lat="43.89263" lon="7.07003">
        <ele>898</ele>
        <time>2015-01-27T09:41:51Z</time>
      </trkpt>
      <trkpt lat="43.89267" lon="7.06998">
        <ele>902</ele>
        <time>2015-01-27T09:42:13Z</time>
      </trkpt>
      <trkpt lat="43.89277" lon="7.06988">
        <ele>911</ele>
        <time>2015-01-27T09:42:44Z</time>
      </trkpt>
      <trkpt lat="43.89282" lon="7.0698">
        <ele>915</ele>
        <time>2015-01-27T09:43:05Z</time>
      </trkpt>
      <trkpt lat="43.89287" lon="7.06978">
        <ele>917</ele>
        <time>2015-01-27T09:43:11Z</time>
      </trkpt>
      <trkpt lat="43.89289" lon="7.06975">
        <ele>919</ele>
        <time>2015-01-27T09:43:22Z</time>
      </trkpt>
      <trkpt lat="43.89287" lon="7.06969">
        <ele>920</ele>
        <time>2015-01-27T09:43:34Z</time>
      </trkpt>
      <trkpt lat="43.89291" lon="7.06966">
        <ele>923</ele>
        <time>2015-01-27T09:43:40Z</time>
      </trkpt>
      <trkpt lat="43.89306" lon="7.06948">
        <ele>930</ele>
        <time>2015-01-27T09:44:09Z</time>
      </trkpt>
      <trkpt lat="43.89307" lon="7.06945">
        <ele>932</ele>
        <time>2015-01-27T09:47:30Z</time>
      </trkpt>
      <trkpt lat="43.89312" lon="7.06942">
        <ele>932</ele>
        <time>2015-01-27T09:47:33Z</time>
      </trkpt>
      <trkpt lat="43.89315" lon="7.06937">
        <ele>932</ele>
        <time>2015-01-27T09:47:37Z</time>
      </trkpt>
      <trkpt lat="43.89325" lon="7.0693">
        <ele>933</ele>
        <time>2015-01-27T09:47:45Z</time>
      </trkpt>
      <trkpt lat="43.89329" lon="7.06916">
        <ele>933</ele>
        <time>2015-01-27T09:47:55Z</time>
      </trkpt>
      <trkpt lat="43.89336" lon="7.06908">
        <ele>934</ele>
        <time>2015-01-27T09:48:04Z</time>
      </trkpt>
      <trkpt lat="43.89338" lon="7.06901">
        <ele>935</ele>
        <time>2015-01-27T09:48:11Z</time>
      </trkpt>
      <trkpt lat="43.89339" lon="7.06894">
        <ele>936</ele>
        <time>2015-01-27T09:48:15Z</time>
      </trkpt>
      <trkpt lat="43.89342" lon="7.0689">
        <ele>937</ele>
        <time>2015-01-27T09:48:19Z</time>
      </trkpt>
      <trkpt lat="43.89354" lon="7.06877">
        <ele>938</ele>
        <time>2015-01-27T09:48:32Z</time>
      </trkpt>
      <trkpt lat="43.89368" lon="7.06859">
        <ele>942</ele>
        <time>2015-01-27T09:48:51Z</time>
      </trkpt>
      <trkpt lat="43.89382" lon="7.06857">
        <ele>946</ele>
        <time>2015-01-27T09:49:09Z</time>
      </trkpt>
      <trkpt lat="43.89386" lon="7.06853">
        <ele>947</ele>
        <time>2015-01-27T09:49:14Z</time>
      </trkpt>
      <trkpt lat="43.89416" lon="7.06853">
        <ele>950</ele>
        <time>2015-01-27T09:49:39Z</time>
      </trkpt>
      <trkpt lat="43.89421" lon="7.06856">
        <ele>951</ele>
        <time>2015-01-27T09:49:46Z</time>
      </trkpt>
      <trkpt lat="43.89426" lon="7.06857">
        <ele>952</ele>
        <time>2015-01-27T09:49:50Z</time>
      </trkpt>
      <trkpt lat="43.89431" lon="7.06856">
        <ele>952</ele>
        <time>2015-01-27T09:49:55Z</time>
      </trkpt>
      <trkpt lat="43.89439" lon="7.06863">
        <ele>952</ele>
        <time>2015-01-27T09:50:04Z</time>
      </trkpt>
      <trkpt lat="43.89445" lon="7.06873">
        <ele>953</ele>
        <time>2015-01-27T09:50:15Z</time>
      </trkpt>
      <trkpt lat="43.89449" lon="7.06877">
        <ele>953</ele>
        <time>2015-01-27T09:50:21Z</time>
      </trkpt>
      <trkpt lat="43.89452" lon="7.06882">
        <ele>952</ele>
        <time>2015-01-27T09:50:25Z</time>
      </trkpt>
      <trkpt lat="43.89455" lon="7.06882">
        <ele>951</ele>
        <time>2015-01-27T09:50:31Z</time>
      </trkpt>
      <trkpt lat="43.89463" lon="7.06893">
        <ele>950</ele>
        <time>2015-01-27T09:50:43Z</time>
      </trkpt>
      <trkpt lat="43.89468" lon="7.06915">
        <ele>946</ele>
        <time>2015-01-27T09:50:55Z</time>
      </trkpt>
      <trkpt lat="43.89468" lon="7.06921">
        <ele>946</ele>
        <time>2015-01-27T09:51:00Z</time>
      </trkpt>
      <trkpt lat="43.89472" lon="7.06929">
        <ele>944</ele>
        <time>2015-01-27T09:51:10Z</time>
      </trkpt>
      <trkpt lat="43.89472" lon="7.06937">
        <ele>944</ele>
        <time>2015-01-27T09:51:14Z</time>
      </trkpt>
      <trkpt lat="43.89475" lon="7.06942">
        <ele>942</ele>
        <time>2015-01-27T09:51:23Z</time>
      </trkpt>
      <trkpt lat="43.89479" lon="7.06945">
        <ele>941</ele>
        <time>2015-01-27T09:51:27Z</time>
      </trkpt>
      <trkpt lat="43.89484" lon="7.06956">
        <ele>938</ele>
        <time>2015-01-27T09:51:38Z</time>
      </trkpt>
      <trkpt lat="43.89486" lon="7.0697">
        <ele>934</ele>
        <time>2015-01-27T09:51:48Z</time>
      </trkpt>
      <trkpt lat="43.89489" lon="7.06976">
        <ele>933</ele>
        <time>2015-01-27T09:51:53Z</time>
      </trkpt>
      <trkpt lat="43.89497" lon="7.06978">
        <ele>930</ele>
        <time>2015-01-27T09:52:04Z</time>
      </trkpt>
      <trkpt lat="43.89516" lon="7.06982">
        <ele>925</ele>
        <time>2015-01-27T09:52:24Z</time>
      </trkpt>
      <trkpt lat="43.89527" lon="7.06996">
        <ele>922</ele>
        <time>2015-01-27T09:52:39Z</time>
      </trkpt>
      <trkpt lat="43.89538" lon="7.06996">
        <ele>920</ele>
        <time>2015-01-27T09:52:46Z</time>
      </trkpt>
      <trkpt lat="43.89577" lon="7.07002">
        <ele>915</ele>
        <time>2015-01-27T09:53:18Z</time>
      </trkpt>
      <trkpt lat="43.89585" lon="7.07006">
        <ele>914</ele>
        <time>2015-01-27T09:53:24Z</time>
      </trkpt>
      <trkpt lat="43.89597" lon="7.07003">
        <ele>913</ele>
        <time>2015-01-27T09:53:34Z</time>
      </trkpt>
      <trkpt lat="43.89606" lon="7.07006">
        <ele>913</ele>
        <time>2015-01-27T09:53:40Z</time>
      </trkpt>
      <trkpt lat="43.89616" lon="7.07007">
        <ele>912</ele>
        <time>2015-01-27T09:53:48Z</time>
      </trkpt>
      <trkpt lat="43.89621" lon="7.07009">
        <ele>912</ele>
        <time>2015-01-27T09:53:53Z</time>
      </trkpt>
      <trkpt lat="43.89653" lon="7.07021">
        <ele>919</ele>
        <time>2015-01-27T09:54:28Z</time>
      </trkpt>
      <trkpt lat="43.89658" lon="7.0702">
        <ele>920</ele>
        <time>2015-01-27T09:54:35Z</time>
      </trkpt>
      <trkpt lat="43.89661" lon="7.07015">
        <ele>922</ele>
        <time>2015-01-27T09:54:43Z</time>
      </trkpt>
      <trkpt lat="43.89664" lon="7.07009">
        <ele>922</ele>
        <time>2015-01-27T09:54:49Z</time>
      </trkpt>
      <trkpt lat="43.89674" lon="7.07004">
        <ele>924</ele>
        <time>2015-01-27T09:55:01Z</time>
      </trkpt>
      <trkpt lat="43.89704" lon="7.06999">
        <ele>931</ele>
        <time>2015-01-27T09:55:34Z</time>
      </trkpt>
      <trkpt lat="43.89719" lon="7.07001">
        <ele>934</ele>
        <time>2015-01-27T09:55:52Z</time>
      </trkpt>
      <trkpt lat="43.89724" lon="7.06998">
        <ele>935</ele>
        <time>2015-01-27T09:55:57Z</time>
      </trkpt>
      <trkpt lat="43.89748" lon="7.07">
        <ele>940</ele>
        <time>2015-01-27T09:56:30Z</time>
      </trkpt>
      <trkpt lat="43.89751" lon="7.07004">
        <ele>942</ele>
        <time>2015-01-27T09:56:36Z</time>
      </trkpt>
      <trkpt lat="43.89765" lon="7.07023">
        <ele>946</ele>
        <time>2015-01-27T09:57:03Z</time>
      </trkpt>
      <trkpt lat="43.89792" lon="7.07039">
        <ele>952</ele>
        <time>2015-01-27T09:57:43Z</time>
      </trkpt>
      <trkpt lat="43.89799" lon="7.07047">
        <ele>953</ele>
        <time>2015-01-27T09:57:53Z</time>
      </trkpt>
      <trkpt lat="43.89801" lon="7.07053">
        <ele>954</ele>
        <time>2015-01-27T09:57:58Z</time>
      </trkpt>
      <trkpt lat="43.89806" lon="7.07056">
        <ele>955</ele>
        <time>2015-01-27T09:58:04Z</time>
      </trkpt>
      <trkpt lat="43.89811" lon="7.07061">
        <ele>956</ele>
        <time>2015-01-27T09:58:10Z</time>
      </trkpt>
      <trkpt lat="43.89814" lon="7.07066">
        <ele>956</ele>
        <time>2015-01-27T09:58:16Z</time>
      </trkpt>
      <trkpt lat="43.89817" lon="7.07074">
        <ele>956</ele>
        <time>2015-01-27T09:58:30Z</time>
      </trkpt>
      <trkpt lat="43.89829" lon="7.07081">
        <ele>958</ele>
        <time>2015-01-27T09:58:49Z</time>
      </trkpt>
      <trkpt lat="43.89828" lon="7.07088">
        <ele>958</ele>
        <time>2015-01-27T09:58:54Z</time>
      </trkpt>
      <trkpt lat="43.89835" lon="7.07091">
        <ele>959</ele>
        <time>2015-01-27T09:59:05Z</time>
      </trkpt>
      <trkpt lat="43.8985" lon="7.07106">
        <ele>964</ele>
        <time>2015-01-27T09:59:29Z</time>
      </trkpt>
      <trkpt lat="43.89859" lon="7.07106">
        <ele>966</ele>
        <time>2015-01-27T09:59:38Z</time>
      </trkpt>
      <trkpt lat="43.89858" lon="7.07109">
        <ele>966</ele>
        <time>2015-01-27T09:59:45Z</time>
      </trkpt>
      <trkpt lat="43.89857" lon="7.07113">
        <ele>967</ele>
        <time>2015-01-27T09:59:52Z</time>
      </trkpt>
      <trkpt lat="43.89863" lon="7.07112">
        <ele>967</ele>
        <time>2015-01-27T10:00:06Z</time>
      </trkpt>
      <trkpt lat="43.89891" lon="7.07121">
        <ele>975</ele>
        <time>2015-01-27T10:00:41Z</time>
      </trkpt>
      <trkpt lat="43.89894" lon="7.07127">
        <ele>976</ele>
        <time>2015-01-27T10:00:49Z</time>
      </trkpt>
      <trkpt lat="43.89899" lon="7.07127">
        <ele>977</ele>
        <time>2015-01-27T10:00:54Z</time>
      </trkpt>
      <trkpt lat="43.89903" lon="7.0713">
        <ele>978</ele>
        <time>2015-01-27T10:01:01Z</time>
      </trkpt>
      <trkpt lat="43.89906" lon="7.07134">
        <ele>980</ele>
        <time>2015-01-27T10:01:48Z</time>
      </trkpt>
      <trkpt lat="43.8991" lon="7.07134">
        <ele>980</ele>
        <time>2015-01-27T10:01:55Z</time>
      </trkpt>
      <trkpt lat="43.89939" lon="7.07141">
        <ele>989</ele>
        <time>2015-01-27T10:02:31Z</time>
      </trkpt>
      <trkpt lat="43.89948" lon="7.07143">
        <ele>990</ele>
        <time>2015-01-27T10:02:38Z</time>
      </trkpt>
      <trkpt lat="43.89976" lon="7.07149">
        <ele>993</ele>
        <time>2015-01-27T10:03:11Z</time>
      </trkpt>
      <trkpt lat="43.89995" lon="7.07157">
        <ele>999</ele>
        <time>2015-01-27T10:03:41Z</time>
      </trkpt>
      <trkpt lat="43.9" lon="7.07158">
        <ele>1000</ele>
        <time>2015-01-27T10:03:47Z</time>
      </trkpt>
      <trkpt lat="43.90004" lon="7.07159">
        <ele>1000</ele>
        <time>2015-01-27T10:03:54Z</time>
      </trkpt>
      <trkpt lat="43.90013" lon="7.07163">
        <ele>1001</ele>
        <time>2015-01-27T10:04:03Z</time>
      </trkpt>
      <trkpt lat="43.90019" lon="7.07164">
        <ele>1002</ele>
        <time>2015-01-27T10:04:16Z</time>
      </trkpt>
      <trkpt lat="43.90023" lon="7.07159">
        <ele>1003</ele>
        <time>2015-01-27T10:04:21Z</time>
      </trkpt>
      <trkpt lat="43.90047" lon="7.07149">
        <ele>1007</ele>
        <time>2015-01-27T10:04:48Z</time>
      </trkpt>
      <trkpt lat="43.9005" lon="7.07143">
        <ele>1007</ele>
        <time>2015-01-27T10:04:54Z</time>
      </trkpt>
      <trkpt lat="43.90055" lon="7.07141">
        <ele>1007</ele>
        <time>2015-01-27T10:04:59Z</time>
      </trkpt>
      <trkpt lat="43.90059" lon="7.07141">
        <ele>1008</ele>
        <time>2015-01-27T10:05:04Z</time>
      </trkpt>
      <trkpt lat="43.90072" lon="7.07122">
        <ele>1010</ele>
        <time>2015-01-27T10:05:25Z</time>
      </trkpt>
      <trkpt lat="43.90084" lon="7.07106">
        <ele>1013</ele>
        <time>2015-01-27T10:05:46Z</time>
      </trkpt>
      <trkpt lat="43.90085" lon="7.071">
        <ele>1014</ele>
        <time>2015-01-27T10:05:53Z</time>
      </trkpt>
      <trkpt lat="43.90089" lon="7.07095">
        <ele>1015</ele>
        <time>2015-01-27T10:05:59Z</time>
      </trkpt>
      <trkpt lat="43.90101" lon="7.07085">
        <ele>1019</ele>
        <time>2015-01-27T10:06:20Z</time>
      </trkpt>
      <trkpt lat="43.90102" lon="7.07079">
        <ele>1021</ele>
        <time>2015-01-27T10:06:28Z</time>
      </trkpt>
      <trkpt lat="43.90109" lon="7.0707">
        <ele>1024</ele>
        <time>2015-01-27T10:06:45Z</time>
      </trkpt>
      <trkpt lat="43.90117" lon="7.07068">
        <ele>1026</ele>
        <time>2015-01-27T10:07:00Z</time>
      </trkpt>
      <trkpt lat="43.90116" lon="7.07068">
        <ele>1028</ele>
        <time>2015-01-27T10:08:10Z</time>
      </trkpt>
      <trkpt lat="43.90123" lon="7.07064">
        <ele>1029</ele>
        <time>2015-01-27T10:08:55Z</time>
      </trkpt>
      <trkpt lat="43.90132" lon="7.07048">
        <ele>1033</ele>
        <time>2015-01-27T10:09:15Z</time>
      </trkpt>
      <trkpt lat="43.90132" lon="7.07041">
        <ele>1035</ele>
        <time>2015-01-27T10:09:24Z</time>
      </trkpt>
      <trkpt lat="43.90136" lon="7.07036">
        <ele>1035</ele>
        <time>2015-01-27T10:09:28Z</time>
      </trkpt>
      <trkpt lat="43.90141" lon="7.07017">
        <ele>1039</ele>
        <time>2015-01-27T10:09:48Z</time>
      </trkpt>
      <trkpt lat="43.90141" lon="7.07013">
        <ele>1040</ele>
        <time>2015-01-27T10:09:52Z</time>
      </trkpt>
      <trkpt lat="43.9014" lon="7.07007">
        <ele>1041</ele>
        <time>2015-01-27T10:09:57Z</time>
      </trkpt>
      <trkpt lat="43.90142" lon="7.07001">
        <ele>1042</ele>
        <time>2015-01-27T10:10:03Z</time>
      </trkpt>
      <trkpt lat="43.90156" lon="7.06991">
        <ele>1043</ele>
        <time>2015-01-27T10:10:17Z</time>
      </trkpt>
      <trkpt lat="43.90161" lon="7.06989">
        <ele>1043</ele>
        <time>2015-01-27T10:10:21Z</time>
      </trkpt>
      <trkpt lat="43.90185" lon="7.06961">
        <ele>1040</ele>
        <time>2015-01-27T10:10:53Z</time>
      </trkpt>
      <trkpt lat="43.9019" lon="7.06958">
        <ele>1040</ele>
        <time>2015-01-27T10:10:57Z</time>
      </trkpt>
      <trkpt lat="43.90191" lon="7.06951">
        <ele>1041</ele>
        <time>2015-01-27T10:11:03Z</time>
      </trkpt>
      <trkpt lat="43.90193" lon="7.06939">
        <ele>1042</ele>
        <time>2015-01-27T10:11:12Z</time>
      </trkpt>
      <trkpt lat="43.90197" lon="7.06935">
        <ele>1043</ele>
        <time>2015-01-27T10:11:20Z</time>
      </trkpt>
      <trkpt lat="43.902" lon="7.0694">
        <ele>1044</ele>
        <time>2015-01-27T10:11:27Z</time>
      </trkpt>
      <trkpt lat="43.90201" lon="7.06948">
        <ele>1045</ele>
        <time>2015-01-27T10:12:00Z</time>
      </trkpt>
      <trkpt lat="43.90197" lon="7.06961">
        <ele>1046</ele>
        <time>2015-01-27T10:12:09Z</time>
      </trkpt>
      <trkpt lat="43.90194" lon="7.06967">
        <ele>1046</ele>
        <time>2015-01-27T10:12:13Z</time>
      </trkpt>
      <trkpt lat="43.9016" lon="7.0699">
        <ele>1049</ele>
        <time>2015-01-27T10:12:47Z</time>
      </trkpt>
      <trkpt lat="43.90152" lon="7.06999">
        <ele>1050</ele>
        <time>2015-01-27T10:12:56Z</time>
      </trkpt>
      <trkpt lat="43.90151" lon="7.07007">
        <ele>1051</ele>
        <time>2015-01-27T10:13:01Z</time>
      </trkpt>
      <trkpt lat="43.90158" lon="7.07056">
        <ele>1054</ele>
        <time>2015-01-27T10:13:49Z</time>
      </trkpt>
      <trkpt lat="43.90161" lon="7.07091">
        <ele>1056</ele>
        <time>2015-01-27T10:14:11Z</time>
      </trkpt>
      <trkpt lat="43.90154" lon="7.07103">
        <ele>1057</ele>
        <time>2015-01-27T10:14:20Z</time>
      </trkpt>
      <trkpt lat="43.90117" lon="7.07126">
        <ele>1060</ele>
        <time>2015-01-27T10:14:52Z</time>
      </trkpt>
      <trkpt lat="43.90114" lon="7.07133">
        <ele>1061</ele>
        <time>2015-01-27T10:14:57Z</time>
      </trkpt>
      <trkpt lat="43.90113" lon="7.07144">
        <ele>1061</ele>
        <time>2015-01-27T10:15:03Z</time>
      </trkpt>
      <trkpt lat="43.90086" lon="7.07188">
        <ele>1064</ele>
        <time>2015-01-27T10:15:35Z</time>
      </trkpt>
      <trkpt lat="43.90075" lon="7.07205">
        <ele>1064</ele>
        <time>2015-01-27T10:15:47Z</time>
      </trkpt>
      <trkpt lat="43.90069" lon="7.07209">
        <ele>1065</ele>
        <time>2015-01-27T10:15:53Z</time>
      </trkpt>
      <trkpt lat="43.90066" lon="7.07214">
        <ele>1065</ele>
        <time>2015-01-27T10:15:56Z</time>
      </trkpt>
      <trkpt lat="43.9006" lon="7.07226">
        <ele>1066</ele>
        <time>2015-01-27T10:16:05Z</time>
      </trkpt>
      <trkpt lat="43.90059" lon="7.07237">
        <ele>1066</ele>
        <time>2015-01-27T10:16:11Z</time>
      </trkpt>
      <trkpt lat="43.90062" lon="7.07244">
        <ele>1067</ele>
        <time>2015-01-27T10:16:15Z</time>
      </trkpt>
      <trkpt lat="43.90068" lon="7.07248">
        <ele>1067</ele>
        <time>2015-01-27T10:16:20Z</time>
      </trkpt>
      <trkpt lat="43.90072" lon="7.07247">
        <ele>1067</ele>
        <time>2015-01-27T10:16:23Z</time>
      </trkpt>
      <trkpt lat="43.90103" lon="7.07232">
        <ele>1070</ele>
        <time>2015-01-27T10:16:55Z</time>
      </trkpt>
      <trkpt lat="43.90138" lon="7.07227">
        <ele>1073</ele>
        <time>2015-01-27T10:17:26Z</time>
      </trkpt>
      <trkpt lat="43.90172" lon="7.07209">
        <ele>1075</ele>
        <time>2015-01-27T10:17:58Z</time>
      </trkpt>
      <trkpt lat="43.90201" lon="7.07194">
        <ele>1077</ele>
        <time>2015-01-27T10:18:29Z</time>
      </trkpt>
      <trkpt lat="43.90204" lon="7.07188">
        <ele>1078</ele>
        <time>2015-01-27T10:19:09Z</time>
      </trkpt>
      <trkpt lat="43.90215" lon="7.07165">
        <ele>1079</ele>
        <time>2015-01-27T10:19:29Z</time>
      </trkpt>
      <trkpt lat="43.90227" lon="7.07155">
        <ele>1079</ele>
        <time>2015-01-27T10:19:40Z</time>
      </trkpt>
      <trkpt lat="43.90263" lon="7.0713">
        <ele>1082</ele>
        <time>2015-01-27T10:20:13Z</time>
      </trkpt>
      <trkpt lat="43.90268" lon="7.07129">
        <ele>1082</ele>
        <time>2015-01-27T10:20:17Z</time>
      </trkpt>
      <trkpt lat="43.90296" lon="7.07146">
        <ele>1082</ele>
        <time>2015-01-27T10:20:42Z</time>
      </trkpt>
      <trkpt lat="43.903" lon="7.07144">
        <ele>1082</ele>
        <time>2015-01-27T10:20:48Z</time>
      </trkpt>
      <trkpt lat="43.90303" lon="7.07144">
        <ele>1082</ele>
        <time>2015-01-27T10:20:50Z</time>
      </trkpt>
      <trkpt lat="43.90308" lon="7.07141">
        <ele>1082</ele>
        <time>2015-01-27T10:20:54Z</time>
      </trkpt>
      <trkpt lat="43.90308" lon="7.07138">
        <ele>1082</ele>
        <time>2015-01-27T10:21:01Z</time>
      </trkpt>
      <trkpt lat="43.90314" lon="7.07132">
        <ele>1081</ele>
        <time>2015-01-27T10:21:11Z</time>
      </trkpt>
      <trkpt lat="43.90315" lon="7.07125">
        <ele>1081</ele>
        <time>2015-01-27T10:21:21Z</time>
      </trkpt>
      <trkpt lat="43.90321" lon="7.07119">
        <ele>1081</ele>
        <time>2015-01-27T10:21:27Z</time>
      </trkpt>
      <trkpt lat="43.90349" lon="7.07093">
        <ele>1081</ele>
        <time>2015-01-27T10:21:56Z</time>
      </trkpt>
      <trkpt lat="43.90387" lon="7.07079">
        <ele>1085</ele>
        <time>2015-01-27T10:22:29Z</time>
      </trkpt>
      <trkpt lat="43.90426" lon="7.07079">
        <ele>1090</ele>
        <time>2015-01-27T10:22:59Z</time>
      </trkpt>
      <trkpt lat="43.9043" lon="7.07075">
        <ele>1091</ele>
        <time>2015-01-27T10:23:05Z</time>
      </trkpt>
      <trkpt lat="43.90463" lon="7.07058">
        <ele>1094</ele>
        <time>2015-01-27T10:23:35Z</time>
      </trkpt>
      <trkpt lat="43.90464" lon="7.07055">
        <ele>1095</ele>
        <time>2015-01-27T10:23:36Z</time>
      </trkpt>
      <trkpt lat="43.90478" lon="7.07028">
        <ele>1097</ele>
        <time>2015-01-27T10:24:02Z</time>
      </trkpt>
      <trkpt lat="43.9048" lon="7.07022">
        <ele>1097</ele>
        <time>2015-01-27T10:24:06Z</time>
      </trkpt>
      <trkpt lat="43.90481" lon="7.07015">
        <ele>1096</ele>
        <time>2015-01-27T10:24:14Z</time>
      </trkpt>
      <trkpt lat="43.90488" lon="7.07014">
        <ele>1096</ele>
        <time>2015-01-27T10:25:32Z</time>
      </trkpt>
      <trkpt lat="43.90498" lon="7.07015">
        <ele>1096</ele>
        <time>2015-01-27T10:25:38Z</time>
      </trkpt>
      <trkpt lat="43.90502" lon="7.07012">
        <ele>1096</ele>
        <time>2015-01-27T10:25:43Z</time>
      </trkpt>
      <trkpt lat="43.90525" lon="7.07016">
        <ele>1096</ele>
        <time>2015-01-27T10:25:58Z</time>
      </trkpt>
      <trkpt lat="43.90562" lon="7.07049">
        <ele>1095</ele>
        <time>2015-01-27T10:26:32Z</time>
      </trkpt>
      <trkpt lat="43.90566" lon="7.07054">
        <ele>1095</ele>
        <time>2015-01-27T10:26:37Z</time>
      </trkpt>
      <trkpt lat="43.90571" lon="7.07055">
        <ele>1095</ele>
        <time>2015-01-27T10:26:44Z</time>
      </trkpt>
      <trkpt lat="43.90572" lon="7.07049">
        <ele>1095</ele>
        <time>2015-01-27T10:26:52Z</time>
      </trkpt>
      <trkpt lat="43.90568" lon="7.07044">
        <ele>1095</ele>
        <time>2015-01-27T10:26:56Z</time>
      </trkpt>
      <trkpt lat="43.90552" lon="7.0701">
        <ele>1101</ele>
        <time>2015-01-27T10:27:26Z</time>
      </trkpt>
      <trkpt lat="43.90541" lon="7.06997">
        <ele>1103</ele>
        <time>2015-01-27T10:27:41Z</time>
      </trkpt>
      <trkpt lat="43.9054" lon="7.0699">
        <ele>1104</ele>
        <time>2015-01-27T10:27:47Z</time>
      </trkpt>
      <trkpt lat="43.90541" lon="7.06985">
        <ele>1105</ele>
        <time>2015-01-27T10:27:55Z</time>
      </trkpt>
      <trkpt lat="43.90552" lon="7.06954">
        <ele>1107</ele>
        <time>2015-01-27T10:28:26Z</time>
      </trkpt>
      <trkpt lat="43.90562" lon="7.06912">
        <ele>1111</ele>
        <time>2015-01-27T10:29:03Z</time>
      </trkpt>
      <trkpt lat="43.90565" lon="7.06906">
        <ele>1111</ele>
        <time>2015-01-27T10:29:08Z</time>
      </trkpt>
      <trkpt lat="43.9057" lon="7.06907">
        <ele>1112</ele>
        <time>2015-01-27T10:29:14Z</time>
      </trkpt>
      <trkpt lat="43.90571" lon="7.06914">
        <ele>1113</ele>
        <time>2015-01-27T10:29:18Z</time>
      </trkpt>
      <trkpt lat="43.90573" lon="7.0696">
        <ele>1116</ele>
        <time>2015-01-27T10:29:48Z</time>
      </trkpt>
      <trkpt lat="43.90591" lon="7.06985">
        <ele>1118</ele>
        <time>2015-01-27T10:30:10Z</time>
      </trkpt>
      <trkpt lat="43.90595" lon="7.0699">
        <ele>1118</ele>
        <time>2015-01-27T10:30:14Z</time>
      </trkpt>
      <trkpt lat="43.90613" lon="7.07036">
        <ele>1121</ele>
        <time>2015-01-27T10:30:48Z</time>
      </trkpt>
      <trkpt lat="43.90628" lon="7.07055">
        <ele>1122</ele>
        <time>2015-01-27T10:31:04Z</time>
      </trkpt>
      <trkpt lat="43.90639" lon="7.07078">
        <ele>1124</ele>
        <time>2015-01-27T10:31:22Z</time>
      </trkpt>
      <trkpt lat="43.90644" lon="7.0708">
        <ele>1124</ele>
        <time>2015-01-27T10:31:31Z</time>
      </trkpt>
      <trkpt lat="43.90645" lon="7.07074">
        <ele>1125</ele>
        <time>2015-01-27T10:31:48Z</time>
      </trkpt>
      <trkpt lat="43.90642" lon="7.07068">
        <ele>1125</ele>
        <time>2015-01-27T10:31:53Z</time>
      </trkpt>
      <trkpt lat="43.90628" lon="7.07025">
        <ele>1128</ele>
        <time>2015-01-27T10:32:23Z</time>
      </trkpt>
      <trkpt lat="43.90616" lon="7.06971">
        <ele>1130</ele>
        <time>2015-01-27T10:32:55Z</time>
      </trkpt>
      <trkpt lat="43.90615" lon="7.06964">
        <ele>1130</ele>
        <time>2015-01-27T10:33:00Z</time>
      </trkpt>
      <trkpt lat="43.90606" lon="7.0691">
        <ele>1134</ele>
        <time>2015-01-27T10:33:32Z</time>
      </trkpt>
      <trkpt lat="43.90611" lon="7.0687">
        <ele>1137</ele>
        <time>2015-01-27T10:33:57Z</time>
      </trkpt>
      <trkpt lat="43.90612" lon="7.06865">
        <ele>1138</ele>
        <time>2015-01-27T10:34:15Z</time>
      </trkpt>
      <trkpt lat="43.90611" lon="7.06854">
        <ele>1138</ele>
        <time>2015-01-27T10:34:27Z</time>
      </trkpt>
      <trkpt lat="43.90617" lon="7.06822">
        <ele>1142</ele>
        <time>2015-01-27T10:34:53Z</time>
      </trkpt>
      <trkpt lat="43.90621" lon="7.06817">
        <ele>1143</ele>
        <time>2015-01-27T10:34:58Z</time>
      </trkpt>
      <trkpt lat="43.90623" lon="7.06815">
        <ele>1144</ele>
        <time>2015-01-27T10:35:26Z</time>
      </trkpt>
      <trkpt lat="43.90624" lon="7.06812">
        <ele>1144</ele>
        <time>2015-01-27T10:35:37Z</time>
      </trkpt>
      <trkpt lat="43.90629" lon="7.06809">
        <ele>1145</ele>
        <time>2015-01-27T10:35:45Z</time>
      </trkpt>
      <trkpt lat="43.90638" lon="7.068">
        <ele>1146</ele>
        <time>2015-01-27T10:35:55Z</time>
      </trkpt>
      <trkpt lat="43.90643" lon="7.068">
        <ele>1147</ele>
        <time>2015-01-27T10:35:59Z</time>
      </trkpt>
      <trkpt lat="43.90659" lon="7.06799">
        <ele>1150</ele>
        <time>2015-01-27T10:36:18Z</time>
      </trkpt>
      <trkpt lat="43.90662" lon="7.06794">
        <ele>1151</ele>
        <time>2015-01-27T10:36:55Z</time>
      </trkpt>
      <trkpt lat="43.9067" lon="7.06785">
        <ele>1152</ele>
        <time>2015-01-27T10:37:05Z</time>
      </trkpt>
      <trkpt lat="43.90669" lon="7.06782">
        <ele>1152</ele>
        <time>2015-01-27T10:37:45Z</time>
      </trkpt>
      <trkpt lat="43.90671" lon="7.06775">
        <ele>1152</ele>
        <time>2015-01-27T10:37:50Z</time>
      </trkpt>
      <trkpt lat="43.90677" lon="7.06764">
        <ele>1153</ele>
        <time>2015-01-27T10:38:02Z</time>
      </trkpt>
      <trkpt lat="43.90685" lon="7.06759">
        <ele>1153</ele>
        <time>2015-01-27T10:38:08Z</time>
      </trkpt>
      <trkpt lat="43.90705" lon="7.06752">
        <ele>1154</ele>
        <time>2015-01-27T10:38:24Z</time>
      </trkpt>
      <trkpt lat="43.90707" lon="7.06747">
        <ele>1154</ele>
        <time>2015-01-27T10:38:28Z</time>
      </trkpt>
      <trkpt lat="43.90713" lon="7.06747">
        <ele>1154</ele>
        <time>2015-01-27T10:38:32Z</time>
      </trkpt>
      <trkpt lat="43.9075" lon="7.06728">
        <ele>1157</ele>
        <time>2015-01-27T10:39:05Z</time>
      </trkpt>
      <trkpt lat="43.90755" lon="7.06725">
        <ele>1157</ele>
        <time>2015-01-27T10:39:09Z</time>
      </trkpt>
      <trkpt lat="43.90762" lon="7.06715">
        <ele>1158</ele>
        <time>2015-01-27T10:39:16Z</time>
      </trkpt>
      <trkpt lat="43.90762" lon="7.06709">
        <ele>1159</ele>
        <time>2015-01-27T10:39:20Z</time>
      </trkpt>
      <trkpt lat="43.90764" lon="7.06702">
        <ele>1159</ele>
        <time>2015-01-27T10:39:24Z</time>
      </trkpt>
      <trkpt lat="43.90772" lon="7.06694">
        <ele>1160</ele>
        <time>2015-01-27T10:39:34Z</time>
      </trkpt>
      <trkpt lat="43.90775" lon="7.06702">
        <ele>1161</ele>
        <time>2015-01-27T10:39:39Z</time>
      </trkpt>
      <trkpt lat="43.90773" lon="7.06709">
        <ele>1162</ele>
        <time>2015-01-27T10:39:45Z</time>
      </trkpt>
      <trkpt lat="43.90771" lon="7.06722">
        <ele>1163</ele>
        <time>2015-01-27T10:39:52Z</time>
      </trkpt>
      <trkpt lat="43.90744" lon="7.0676">
        <ele>1164</ele>
        <time>2015-01-27T10:40:23Z</time>
      </trkpt>
      <trkpt lat="43.90744" lon="7.06779">
        <ele>1165</ele>
        <time>2015-01-27T10:40:35Z</time>
      </trkpt>
      <trkpt lat="43.90747" lon="7.06784">
        <ele>1165</ele>
        <time>2015-01-27T10:40:44Z</time>
      </trkpt>
      <trkpt lat="43.90756" lon="7.06787">
        <ele>1166</ele>
        <time>2015-01-27T10:41:02Z</time>
      </trkpt>
      <trkpt lat="43.9076" lon="7.06785">
        <ele>1167</ele>
        <time>2015-01-27T10:41:12Z</time>
      </trkpt>
      <trkpt lat="43.90759" lon="7.06791">
        <ele>1168</ele>
        <time>2015-01-27T10:41:40Z</time>
      </trkpt>
      <trkpt lat="43.90769" lon="7.06804">
        <ele>1171</ele>
        <time>2015-01-27T10:42:02Z</time>
      </trkpt>
      <trkpt lat="43.90771" lon="7.06816">
        <ele>1172</ele>
        <time>2015-01-27T10:42:16Z</time>
      </trkpt>
      <trkpt lat="43.90772" lon="7.06819">
        <ele>1173</ele>
        <time>2015-01-27T10:42:32Z</time>
      </trkpt>
      <trkpt lat="43.90772" lon="7.06827">
        <ele>1174</ele>
        <time>2015-01-27T10:43:18Z</time>
      </trkpt>
      <trkpt lat="43.90772" lon="7.06848">
        <ele>1176</ele>
        <time>2015-01-27T10:43:38Z</time>
      </trkpt>
      <trkpt lat="43.90768" lon="7.0686">
        <ele>1178</ele>
        <time>2015-01-27T10:43:51Z</time>
      </trkpt>
      <trkpt lat="43.90769" lon="7.06867">
        <ele>1178</ele>
        <time>2015-01-27T10:43:54Z</time>
      </trkpt>
      <trkpt lat="43.90771" lon="7.06875">
        <ele>1179</ele>
        <time>2015-01-27T10:44:01Z</time>
      </trkpt>
      <trkpt lat="43.90771" lon="7.06889">
        <ele>1180</ele>
        <time>2015-01-27T10:44:12Z</time>
      </trkpt>
      <trkpt lat="43.90768" lon="7.06897">
        <ele>1182</ele>
        <time>2015-01-27T10:44:19Z</time>
      </trkpt>
      <trkpt lat="43.90773" lon="7.069">
        <ele>1183</ele>
        <time>2015-01-27T10:44:27Z</time>
      </trkpt>
      <trkpt lat="43.90782" lon="7.06901">
        <ele>1184</ele>
        <time>2015-01-27T10:44:37Z</time>
      </trkpt>
      <trkpt lat="43.90785" lon="7.06894">
        <ele>1185</ele>
        <time>2015-01-27T10:44:45Z</time>
      </trkpt>
      <trkpt lat="43.90794" lon="7.06887">
        <ele>1186</ele>
        <time>2015-01-27T10:44:53Z</time>
      </trkpt>
      <trkpt lat="43.90793" lon="7.06879">
        <ele>1187</ele>
        <time>2015-01-27T10:44:59Z</time>
      </trkpt>
      <trkpt lat="43.90804" lon="7.06826">
        <ele>1190</ele>
        <time>2015-01-27T10:45:32Z</time>
      </trkpt>
      <trkpt lat="43.90803" lon="7.06806">
        <ele>1192</ele>
        <time>2015-01-27T10:45:46Z</time>
      </trkpt>
      <trkpt lat="43.90805" lon="7.068">
        <ele>1193</ele>
        <time>2015-01-27T10:45:50Z</time>
      </trkpt>
      <trkpt lat="43.90814" lon="7.06791">
        <ele>1194</ele>
        <time>2015-01-27T10:46:00Z</time>
      </trkpt>
      <trkpt lat="43.90813" lon="7.06783">
        <ele>1195</ele>
        <time>2015-01-27T10:46:08Z</time>
      </trkpt>
      <trkpt lat="43.90817" lon="7.06779">
        <ele>1195</ele>
        <time>2015-01-27T10:46:13Z</time>
      </trkpt>
      <trkpt lat="43.90825" lon="7.06769">
        <ele>1196</ele>
        <time>2015-01-27T10:46:22Z</time>
      </trkpt>
      <trkpt lat="43.90829" lon="7.06756">
        <ele>1198</ele>
        <time>2015-01-27T10:46:33Z</time>
      </trkpt>
      <trkpt lat="43.90827" lon="7.06738">
        <ele>1199</ele>
        <time>2015-01-27T10:46:44Z</time>
      </trkpt>
      <trkpt lat="43.9083" lon="7.06732">
        <ele>1199</ele>
        <time>2015-01-27T10:46:49Z</time>
      </trkpt>
      <trkpt lat="43.90835" lon="7.06731">
        <ele>1199</ele>
        <time>2015-01-27T10:46:52Z</time>
      </trkpt>
      <trkpt lat="43.90839" lon="7.06731">
        <ele>1199</ele>
        <time>2015-01-27T10:46:55Z</time>
      </trkpt>
      <trkpt lat="43.90842" lon="7.06734">
        <ele>1200</ele>
        <time>2015-01-27T10:47:04Z</time>
      </trkpt>
      <trkpt lat="43.90844" lon="7.06729">
        <ele>1200</ele>
        <time>2015-01-27T10:47:21Z</time>
      </trkpt>
      <trkpt lat="43.90845" lon="7.06723">
        <ele>1200</ele>
        <time>2015-01-27T10:47:30Z</time>
      </trkpt>
      <trkpt lat="43.90847" lon="7.06717">
        <ele>1201</ele>
        <time>2015-01-27T10:47:48Z</time>
      </trkpt>
      <trkpt lat="43.90849" lon="7.06709">
        <ele>1201</ele>
        <time>2015-01-27T10:48:00Z</time>
      </trkpt>
      <trkpt lat="43.90851" lon="7.06704">
        <ele>1200</ele>
        <time>2015-01-27T10:48:13Z</time>
      </trkpt>
      <trkpt lat="43.90851" lon="7.06698">
        <ele>1199</ele>
        <time>2015-01-27T10:48:23Z</time>
      </trkpt>
      <trkpt lat="43.90854" lon="7.06691">
        <ele>1199</ele>
        <time>2015-01-27T10:48:27Z</time>
      </trkpt>
      <trkpt lat="43.90862" lon="7.06685">
        <ele>1199</ele>
        <time>2015-01-27T10:48:33Z</time>
      </trkpt>
      <trkpt lat="43.90874" lon="7.0666">
        <ele>1202</ele>
        <time>2015-01-27T10:48:55Z</time>
      </trkpt>
      <trkpt lat="43.90879" lon="7.06657">
        <ele>1202</ele>
        <time>2015-01-27T10:49:00Z</time>
      </trkpt>
      <trkpt lat="43.90882" lon="7.0664">
        <ele>1204</ele>
        <time>2015-01-27T10:49:12Z</time>
      </trkpt>
      <trkpt lat="43.90886" lon="7.06629">
        <ele>1204</ele>
        <time>2015-01-27T10:49:18Z</time>
      </trkpt>
      <trkpt lat="43.90887" lon="7.06622">
        <ele>1203</ele>
        <time>2015-01-27T10:49:23Z</time>
      </trkpt>
      <trkpt lat="43.9089" lon="7.06615">
        <ele>1203</ele>
        <time>2015-01-27T10:49:37Z</time>
      </trkpt>
      <trkpt lat="43.90894" lon="7.06607">
        <ele>1203</ele>
        <time>2015-01-27T10:49:44Z</time>
      </trkpt>
      <trkpt lat="43.909" lon="7.06603">
        <ele>1203</ele>
        <time>2015-01-27T10:49:49Z</time>
      </trkpt>
      <trkpt lat="43.90912" lon="7.06602">
        <ele>1204</ele>
        <time>2015-01-27T10:49:58Z</time>
      </trkpt>
      <trkpt lat="43.90924" lon="7.06592">
        <ele>1206</ele>
        <time>2015-01-27T10:50:15Z</time>
      </trkpt>
      <trkpt lat="43.90929" lon="7.06592">
        <ele>1206</ele>
        <time>2015-01-27T10:50:18Z</time>
      </trkpt>
      <trkpt lat="43.90938" lon="7.06586">
        <ele>1207</ele>
        <time>2015-01-27T10:50:30Z</time>
      </trkpt>
      <trkpt lat="43.90953" lon="7.06583">
        <ele>1207</ele>
        <time>2015-01-27T10:50:45Z</time>
      </trkpt>
      <trkpt lat="43.90956" lon="7.06579">
        <ele>1207</ele>
        <time>2015-01-27T10:50:53Z</time>
      </trkpt>
      <trkpt lat="43.90961" lon="7.06575">
        <ele>1206</ele>
        <time>2015-01-27T10:51:02Z</time>
      </trkpt>
      <trkpt lat="43.90977" lon="7.0657">
        <ele>1206</ele>
        <time>2015-01-27T10:51:15Z</time>
      </trkpt>
      <trkpt lat="43.90969" lon="7.06566">
        <ele>1206</ele>
        <time>2015-01-27T10:51:23Z</time>
      </trkpt>
      <trkpt lat="43.90971" lon="7.0657">
        <ele>1206</ele>
        <time>2015-01-27T10:52:08Z</time>
      </trkpt>
      <trkpt lat="43.90979" lon="7.06566">
        <ele>1206</ele>
        <time>2015-01-27T10:52:26Z</time>
      </trkpt>
      <trkpt lat="43.90984" lon="7.06567">
        <ele>1206</ele>
        <time>2015-01-27T10:52:30Z</time>
      </trkpt>
      <trkpt lat="43.9099" lon="7.06564">
        <ele>1205</ele>
        <time>2015-01-27T10:52:34Z</time>
      </trkpt>
      <trkpt lat="43.90994" lon="7.06564">
        <ele>1205</ele>
        <time>2015-01-27T10:52:42Z</time>
      </trkpt>
      <trkpt lat="43.91005" lon="7.06563">
        <ele>1205</ele>
        <time>2015-01-27T10:52:49Z</time>
      </trkpt>
      <trkpt lat="43.91013" lon="7.06568">
        <ele>1204</ele>
        <time>2015-01-27T10:53:03Z</time>
      </trkpt>
      <trkpt lat="43.91022" lon="7.06563">
        <ele>1203</ele>
        <time>2015-01-27T10:53:09Z</time>
      </trkpt>
      <trkpt lat="43.91027" lon="7.06565">
        <ele>1203</ele>
        <time>2015-01-27T10:53:15Z</time>
      </trkpt>
      <trkpt lat="43.9103" lon="7.06571">
        <ele>1203</ele>
        <time>2015-01-27T10:53:21Z</time>
      </trkpt>
      <trkpt lat="43.91032" lon="7.06577">
        <ele>1203</ele>
        <time>2015-01-27T10:53:28Z</time>
      </trkpt>
      <trkpt lat="43.91037" lon="7.06577">
        <ele>1203</ele>
        <time>2015-01-27T10:53:36Z</time>
      </trkpt>
      <trkpt lat="43.91043" lon="7.06575">
        <ele>1202</ele>
        <time>2015-01-27T10:53:40Z</time>
      </trkpt>
      <trkpt lat="43.91045" lon="7.06566">
        <ele>1201</ele>
        <time>2015-01-27T10:53:51Z</time>
      </trkpt>
      <trkpt lat="43.91058" lon="7.06555">
        <ele>1198</ele>
        <time>2015-01-27T10:54:07Z</time>
      </trkpt>
      <trkpt lat="43.91064" lon="7.06555">
        <ele>1197</ele>
        <time>2015-01-27T10:54:13Z</time>
      </trkpt>
      <trkpt lat="43.9107" lon="7.06559">
        <ele>1197</ele>
        <time>2015-01-27T10:54:18Z</time>
      </trkpt>
      <trkpt lat="43.91077" lon="7.06568">
        <ele>1197</ele>
        <time>2015-01-27T10:54:25Z</time>
      </trkpt>
      <trkpt lat="43.9108" lon="7.06573">
        <ele>1198</ele>
        <time>2015-01-27T10:54:30Z</time>
      </trkpt>
      <trkpt lat="43.91078" lon="7.06579">
        <ele>1198</ele>
        <time>2015-01-27T10:54:38Z</time>
      </trkpt>
      <trkpt lat="43.91088" lon="7.06579">
        <ele>1198</ele>
        <time>2015-01-27T10:54:48Z</time>
      </trkpt>
      <trkpt lat="43.91094" lon="7.06588">
        <ele>1199</ele>
        <time>2015-01-27T10:54:54Z</time>
      </trkpt>
      <trkpt lat="43.91092" lon="7.06593">
        <ele>1200</ele>
        <time>2015-01-27T10:55:03Z</time>
      </trkpt>
      <trkpt lat="43.91097" lon="7.06593">
        <ele>1201</ele>
        <time>2015-01-27T10:55:26Z</time>
      </trkpt>
      <trkpt lat="43.91111" lon="7.06587">
        <ele>1201</ele>
        <time>2015-01-27T10:55:49Z</time>
      </trkpt>
      <trkpt lat="43.91116" lon="7.06588">
        <ele>1201</ele>
        <time>2015-01-27T10:55:52Z</time>
      </trkpt>
      <trkpt lat="43.9112" lon="7.06585">
        <ele>1202</ele>
        <time>2015-01-27T10:55:57Z</time>
      </trkpt>
      <trkpt lat="43.91125" lon="7.06576">
        <ele>1201</ele>
        <time>2015-01-27T10:56:15Z</time>
      </trkpt>
      <trkpt lat="43.91127" lon="7.0657">
        <ele>1200</ele>
        <time>2015-01-27T10:56:23Z</time>
      </trkpt>
      <trkpt lat="43.91129" lon="7.06564">
        <ele>1200</ele>
        <time>2015-01-27T10:56:30Z</time>
      </trkpt>
      <trkpt lat="43.91161" lon="7.06533">
        <ele>1200</ele>
        <time>2015-01-27T10:57:04Z</time>
      </trkpt>
      <trkpt lat="43.91166" lon="7.06535">
        <ele>1200</ele>
        <time>2015-01-27T10:57:08Z</time>
      </trkpt>
      <trkpt lat="43.91169" lon="7.0654">
        <ele>1200</ele>
        <time>2015-01-27T10:57:15Z</time>
      </trkpt>
      <trkpt lat="43.91174" lon="7.06541">
        <ele>1199</ele>
        <time>2015-01-27T10:57:22Z</time>
      </trkpt>
      <trkpt lat="43.91173" lon="7.06534">
        <ele>1200</ele>
        <time>2015-01-27T10:57:28Z</time>
      </trkpt>
      <trkpt lat="43.91173" lon="7.06527">
        <ele>1200</ele>
        <time>2015-01-27T10:57:33Z</time>
      </trkpt>
      <trkpt lat="43.91177" lon="7.06523">
        <ele>1200</ele>
        <time>2015-01-27T10:57:37Z</time>
      </trkpt>
      <trkpt lat="43.91182" lon="7.06523">
        <ele>1201</ele>
        <time>2015-01-27T10:57:43Z</time>
      </trkpt>
      <trkpt lat="43.91186" lon="7.06519">
        <ele>1201</ele>
        <time>2015-01-27T10:57:49Z</time>
      </trkpt>
      <trkpt lat="43.91188" lon="7.06506">
        <ele>1200</ele>
        <time>2015-01-27T10:57:59Z</time>
      </trkpt>
      <trkpt lat="43.91195" lon="7.06496">
        <ele>1199</ele>
        <time>2015-01-27T10:58:08Z</time>
      </trkpt>
      <trkpt lat="43.91205" lon="7.0649">
        <ele>1199</ele>
        <time>2015-01-27T10:58:17Z</time>
      </trkpt>
      <trkpt lat="43.9122" lon="7.0646">
        <ele>1199</ele>
        <time>2015-01-27T10:58:40Z</time>
      </trkpt>
      <trkpt lat="43.91222" lon="7.06454">
        <ele>1199</ele>
        <time>2015-01-27T10:58:44Z</time>
      </trkpt>
      <trkpt lat="43.91223" lon="7.06448">
        <ele>1199</ele>
        <time>2015-01-27T10:58:51Z</time>
      </trkpt>
      <trkpt lat="43.91239" lon="7.06419">
        <ele>1201</ele>
        <time>2015-01-27T10:59:11Z</time>
      </trkpt>
      <trkpt lat="43.91255" lon="7.0641">
        <ele>1203</ele>
        <time>2015-01-27T10:59:25Z</time>
      </trkpt>
      <trkpt lat="43.91256" lon="7.06403">
        <ele>1205</ele>
        <time>2015-01-27T10:59:30Z</time>
      </trkpt>
      <trkpt lat="43.91259" lon="7.06398">
        <ele>1205</ele>
        <time>2015-01-27T10:59:33Z</time>
      </trkpt>
      <trkpt lat="43.91285" lon="7.0637">
        <ele>1208</ele>
        <time>2015-01-27T11:00:04Z</time>
      </trkpt>
      <trkpt lat="43.9129" lon="7.06367">
        <ele>1209</ele>
        <time>2015-01-27T11:00:09Z</time>
      </trkpt>
      <trkpt lat="43.91295" lon="7.06367">
        <ele>1210</ele>
        <time>2015-01-27T11:00:13Z</time>
      </trkpt>
      <trkpt lat="43.913" lon="7.06363">
        <ele>1210</ele>
        <time>2015-01-27T11:00:20Z</time>
      </trkpt>
      <trkpt lat="43.91305" lon="7.06363">
        <ele>1211</ele>
        <time>2015-01-27T11:00:26Z</time>
      </trkpt>
      <trkpt lat="43.9131" lon="7.06363">
        <ele>1211</ele>
        <time>2015-01-27T11:00:29Z</time>
      </trkpt>
      <trkpt lat="43.91319" lon="7.06358">
        <ele>1211</ele>
        <time>2015-01-27T11:00:43Z</time>
      </trkpt>
      <trkpt lat="43.91333" lon="7.0634">
        <ele>1212</ele>
        <time>2015-01-27T11:01:06Z</time>
      </trkpt>
      <trkpt lat="43.91333" lon="7.06333">
        <ele>1212</ele>
        <time>2015-01-27T11:01:10Z</time>
      </trkpt>
      <trkpt lat="43.91331" lon="7.06327">
        <ele>1212</ele>
        <time>2015-01-27T11:01:13Z</time>
      </trkpt>
      <trkpt lat="43.91331" lon="7.06321">
        <ele>1212</ele>
        <time>2015-01-27T11:01:17Z</time>
      </trkpt>
      <trkpt lat="43.91336" lon="7.06315">
        <ele>1212</ele>
        <time>2015-01-27T11:01:22Z</time>
      </trkpt>
      <trkpt lat="43.91341" lon="7.0631">
        <ele>1212</ele>
        <time>2015-01-27T11:01:27Z</time>
      </trkpt>
      <trkpt lat="43.91351" lon="7.0631">
        <ele>1212</ele>
        <time>2015-01-27T11:01:36Z</time>
      </trkpt>
      <trkpt lat="43.91353" lon="7.06303">
        <ele>1213</ele>
        <time>2015-01-27T11:01:42Z</time>
      </trkpt>
      <trkpt lat="43.91356" lon="7.06297">
        <ele>1213</ele>
        <time>2015-01-27T11:01:48Z</time>
      </trkpt>
      <trkpt lat="43.91359" lon="7.06296">
        <ele>1212</ele>
        <time>2015-01-27T11:01:55Z</time>
      </trkpt>
      <trkpt lat="43.91367" lon="7.06287">
        <ele>1212</ele>
        <time>2015-01-27T11:02:06Z</time>
      </trkpt>
      <trkpt lat="43.91372" lon="7.06284">
        <ele>1213</ele>
        <time>2015-01-27T11:02:10Z</time>
      </trkpt>
      <trkpt lat="43.91376" lon="7.06281">
        <ele>1213</ele>
        <time>2015-01-27T11:02:16Z</time>
      </trkpt>
      <trkpt lat="43.91382" lon="7.06269">
        <ele>1214</ele>
        <time>2015-01-27T11:02:37Z</time>
      </trkpt>
      <trkpt lat="43.91387" lon="7.06266">
        <ele>1215</ele>
        <time>2015-01-27T11:02:42Z</time>
      </trkpt>
      <trkpt lat="43.9139" lon="7.06261">
        <ele>1216</ele>
        <time>2015-01-27T11:02:51Z</time>
      </trkpt>
      <trkpt lat="43.9139" lon="7.06254">
        <ele>1216</ele>
        <time>2015-01-27T11:02:58Z</time>
      </trkpt>
      <trkpt lat="43.91394" lon="7.06251">
        <ele>1217</ele>
        <time>2015-01-27T11:03:04Z</time>
      </trkpt>
      <trkpt lat="43.91394" lon="7.06244">
        <ele>1217</ele>
        <time>2015-01-27T11:03:09Z</time>
      </trkpt>
      <trkpt lat="43.91395" lon="7.06237">
        <ele>1218</ele>
        <time>2015-01-27T11:03:13Z</time>
      </trkpt>
      <trkpt lat="43.91406" lon="7.06223">
        <ele>1217</ele>
        <time>2015-01-27T11:03:31Z</time>
      </trkpt>
      <trkpt lat="43.91406" lon="7.06217">
        <ele>1217</ele>
        <time>2015-01-27T11:03:35Z</time>
      </trkpt>
      <trkpt lat="43.91404" lon="7.06209">
        <ele>1217</ele>
        <time>2015-01-27T11:03:40Z</time>
      </trkpt>
      <trkpt lat="43.91405" lon="7.06193">
        <ele>1217</ele>
        <time>2015-01-27T11:03:50Z</time>
      </trkpt>
      <trkpt lat="43.91408" lon="7.06187">
        <ele>1217</ele>
        <time>2015-01-27T11:03:57Z</time>
      </trkpt>
      <trkpt lat="43.91416" lon="7.06149">
        <ele>1215</ele>
        <time>2015-01-27T11:04:28Z</time>
      </trkpt>
      <trkpt lat="43.91418" lon="7.06136">
        <ele>1215</ele>
        <time>2015-01-27T11:04:35Z</time>
      </trkpt>
      <trkpt lat="43.91422" lon="7.06131">
        <ele>1215</ele>
        <time>2015-01-27T11:04:41Z</time>
      </trkpt>
      <trkpt lat="43.91426" lon="7.06127">
        <ele>1216</ele>
        <time>2015-01-27T11:04:48Z</time>
      </trkpt>
      <trkpt lat="43.91425" lon="7.0612">
        <ele>1217</ele>
        <time>2015-01-27T11:04:54Z</time>
      </trkpt>
      <trkpt lat="43.91426" lon="7.06117">
        <ele>1219</ele>
        <time>2015-01-27T11:05:06Z</time>
      </trkpt>
      <trkpt lat="43.91425" lon="7.06115">
        <ele>1221</ele>
        <time>2015-01-27T11:09:49Z</time>
      </trkpt>
      <trkpt lat="43.91426" lon="7.06109">
        <ele>1221</ele>
        <time>2015-01-27T11:09:53Z</time>
      </trkpt>
      <trkpt lat="43.91429" lon="7.06106">
        <ele>1222</ele>
        <time>2015-01-27T11:10:00Z</time>
      </trkpt>
      <trkpt lat="43.91428" lon="7.06097">
        <ele>1223</ele>
        <time>2015-01-27T11:10:24Z</time>
      </trkpt>
      <trkpt lat="43.91429" lon="7.06081">
        <ele>1223</ele>
        <time>2015-01-27T11:10:42Z</time>
      </trkpt>
      <trkpt lat="43.91421" lon="7.06034">
        <ele>1222</ele>
        <time>2015-01-27T11:11:12Z</time>
      </trkpt>
      <trkpt lat="43.9143" lon="7.0599">
        <ele>1221</ele>
        <time>2015-01-27T11:11:36Z</time>
      </trkpt>
      <trkpt lat="43.91427" lon="7.05983">
        <ele>1221</ele>
        <time>2015-01-27T11:11:41Z</time>
      </trkpt>
      <trkpt lat="43.91426" lon="7.05959">
        <ele>1220</ele>
        <time>2015-01-27T11:11:54Z</time>
      </trkpt>
      <trkpt lat="43.91429" lon="7.05943">
        <ele>1221</ele>
        <time>2015-01-27T11:12:05Z</time>
      </trkpt>
      <trkpt lat="43.91429" lon="7.05936">
        <ele>1221</ele>
        <time>2015-01-27T11:12:11Z</time>
      </trkpt>
      <trkpt lat="43.9143" lon="7.05929">
        <ele>1221</ele>
        <time>2015-01-27T11:12:15Z</time>
      </trkpt>
      <trkpt lat="43.91431" lon="7.05877">
        <ele>1219</ele>
        <time>2015-01-27T11:12:46Z</time>
      </trkpt>
      <trkpt lat="43.91429" lon="7.05865">
        <ele>1219</ele>
        <time>2015-01-27T11:12:52Z</time>
      </trkpt>
      <trkpt lat="43.91431" lon="7.05842">
        <ele>1217</ele>
        <time>2015-01-27T11:13:07Z</time>
      </trkpt>
      <trkpt lat="43.9143" lon="7.05836">
        <ele>1217</ele>
        <time>2015-01-27T11:13:14Z</time>
      </trkpt>
      <trkpt lat="43.91425" lon="7.05833">
        <ele>1216</ele>
        <time>2015-01-27T11:13:16Z</time>
      </trkpt>
      <trkpt lat="43.91424" lon="7.05825">
        <ele>1216</ele>
        <time>2015-01-27T11:13:20Z</time>
      </trkpt>
      <trkpt lat="43.91427" lon="7.05818">
        <ele>1215</ele>
        <time>2015-01-27T11:13:26Z</time>
      </trkpt>
      <trkpt lat="43.9143" lon="7.05811">
        <ele>1215</ele>
        <time>2015-01-27T11:13:29Z</time>
      </trkpt>
      <trkpt lat="43.9143" lon="7.05805">
        <ele>1215</ele>
        <time>2015-01-27T11:13:34Z</time>
      </trkpt>
      <trkpt lat="43.91426" lon="7.05792">
        <ele>1214</ele>
        <time>2015-01-27T11:13:41Z</time>
      </trkpt>
      <trkpt lat="43.91426" lon="7.05776">
        <ele>1214</ele>
        <time>2015-01-27T11:13:51Z</time>
      </trkpt>
      <trkpt lat="43.91427" lon="7.05764">
        <ele>1215</ele>
        <time>2015-01-27T11:13:58Z</time>
      </trkpt>
      <trkpt lat="43.91426" lon="7.05757">
        <ele>1215</ele>
        <time>2015-01-27T11:14:03Z</time>
      </trkpt>
      <trkpt lat="43.91424" lon="7.05733">
        <ele>1216</ele>
        <time>2015-01-27T11:14:21Z</time>
      </trkpt>
      <trkpt lat="43.91417" lon="7.05725">
        <ele>1216</ele>
        <time>2015-01-27T11:14:27Z</time>
      </trkpt>
      <trkpt lat="43.91414" lon="7.05719">
        <ele>1216</ele>
        <time>2015-01-27T11:14:30Z</time>
      </trkpt>
      <trkpt lat="43.91414" lon="7.05713">
        <ele>1216</ele>
        <time>2015-01-27T11:14:35Z</time>
      </trkpt>
      <trkpt lat="43.91418" lon="7.05688">
        <ele>1216</ele>
        <time>2015-01-27T11:14:48Z</time>
      </trkpt>
      <trkpt lat="43.9142" lon="7.05683">
        <ele>1216</ele>
        <time>2015-01-27T11:14:50Z</time>
      </trkpt>
      <trkpt lat="43.91422" lon="7.05681">
        <ele>1216</ele>
        <time>2015-01-27T11:14:51Z</time>
      </trkpt>
      <trkpt lat="43.91427" lon="7.05665">
        <ele>1215</ele>
        <time>2015-01-27T11:15:01Z</time>
      </trkpt>
      <trkpt lat="43.91431" lon="7.05604">
        <ele>1213</ele>
        <time>2015-01-27T11:15:37Z</time>
      </trkpt>
      <trkpt lat="43.91429" lon="7.05596">
        <ele>1213</ele>
        <time>2015-01-27T11:15:42Z</time>
      </trkpt>
      <trkpt lat="43.91424" lon="7.0557">
        <ele>1214</ele>
        <time>2015-01-27T11:15:59Z</time>
      </trkpt>
      <trkpt lat="43.91423" lon="7.05555">
        <ele>1215</ele>
        <time>2015-01-27T11:16:13Z</time>
      </trkpt>
      <trkpt lat="43.9142" lon="7.05551">
        <ele>1216</ele>
        <time>2015-01-27T11:16:17Z</time>
      </trkpt>
      <trkpt lat="43.91407" lon="7.0553">
        <ele>1215</ele>
        <time>2015-01-27T11:16:34Z</time>
      </trkpt>
      <trkpt lat="43.91408" lon="7.05517">
        <ele>1214</ele>
        <time>2015-01-27T11:16:44Z</time>
      </trkpt>
      <trkpt lat="43.91409" lon="7.05507">
        <ele>1211</ele>
        <time>2015-01-27T11:16:59Z</time>
      </trkpt>
      <trkpt lat="43.91415" lon="7.05504">
        <ele>1211</ele>
        <time>2015-01-27T11:17:23Z</time>
      </trkpt>
      <trkpt lat="43.91425" lon="7.05501">
        <ele>1211</ele>
        <time>2015-01-27T11:17:32Z</time>
      </trkpt>
      <trkpt lat="43.91431" lon="7.05502">
        <ele>1212</ele>
        <time>2015-01-27T11:17:45Z</time>
      </trkpt>
      <trkpt lat="43.91435" lon="7.05497">
        <ele>1212</ele>
        <time>2015-01-27T11:17:50Z</time>
      </trkpt>
      <trkpt lat="43.91438" lon="7.05492">
        <ele>1212</ele>
        <time>2015-01-27T11:17:55Z</time>
      </trkpt>
      <trkpt lat="43.91443" lon="7.05492">
        <ele>1213</ele>
        <time>2015-01-27T11:18:02Z</time>
      </trkpt>
      <trkpt lat="43.91446" lon="7.05489">
        <ele>1213</ele>
        <time>2015-01-27T11:18:12Z</time>
      </trkpt>
      <trkpt lat="43.91449" lon="7.05485">
        <ele>1213</ele>
        <time>2015-01-27T11:18:27Z</time>
      </trkpt>
      <trkpt lat="43.9145" lon="7.05477">
        <ele>1212</ele>
        <time>2015-01-27T11:18:39Z</time>
      </trkpt>
      <trkpt lat="43.91461" lon="7.05463">
        <ele>1210</ele>
        <time>2015-01-27T11:18:54Z</time>
      </trkpt>
      <trkpt lat="43.91464" lon="7.0545">
        <ele>1210</ele>
        <time>2015-01-27T11:19:01Z</time>
      </trkpt>
      <trkpt lat="43.91468" lon="7.05445">
        <ele>1209</ele>
        <time>2015-01-27T11:19:06Z</time>
      </trkpt>
      <trkpt lat="43.91472" lon="7.05443">
        <ele>1210</ele>
        <time>2015-01-27T11:19:13Z</time>
      </trkpt>
      <trkpt lat="43.91476" lon="7.05439">
        <ele>1210</ele>
        <time>2015-01-27T11:19:19Z</time>
      </trkpt>
      <trkpt lat="43.9148" lon="7.05426">
        <ele>1211</ele>
        <time>2015-01-27T11:19:32Z</time>
      </trkpt>
      <trkpt lat="43.9149" lon="7.05416">
        <ele>1211</ele>
        <time>2015-01-27T11:19:54Z</time>
      </trkpt>
      <trkpt lat="43.91493" lon="7.05414">
        <ele>1211</ele>
        <time>2015-01-27T11:20:23Z</time>
      </trkpt>
      <trkpt lat="43.91494" lon="7.05407">
        <ele>1209</ele>
        <time>2015-01-27T11:20:32Z</time>
      </trkpt>
      <trkpt lat="43.91497" lon="7.05402">
        <ele>1208</ele>
        <time>2015-01-27T11:20:39Z</time>
      </trkpt>
      <trkpt lat="43.91499" lon="7.05395">
        <ele>1208</ele>
        <time>2015-01-27T11:20:46Z</time>
      </trkpt>
      <trkpt lat="43.91494" lon="7.05393">
        <ele>1207</ele>
        <time>2015-01-27T11:21:11Z</time>
      </trkpt>
      <trkpt lat="43.91491" lon="7.05387">
        <ele>1206</ele>
        <time>2015-01-27T11:21:15Z</time>
      </trkpt>
      <trkpt lat="43.91493" lon="7.05376">
        <ele>1203</ele>
        <time>2015-01-27T11:21:31Z</time>
      </trkpt>
      <trkpt lat="43.91489" lon="7.05377">
        <ele>1202</ele>
        <time>2015-01-27T11:21:54Z</time>
      </trkpt>
      <trkpt lat="43.91486" lon="7.0538">
        <ele>1201</ele>
        <time>2015-01-27T11:22:48Z</time>
      </trkpt>
      <trkpt lat="43.91481" lon="7.0538">
        <ele>1200</ele>
        <time>2015-01-27T11:22:57Z</time>
      </trkpt>
      <trkpt lat="43.91478" lon="7.05385">
        <ele>1199</ele>
        <time>2015-01-27T11:23:05Z</time>
      </trkpt>
      <trkpt lat="43.91473" lon="7.05382">
        <ele>1198</ele>
        <time>2015-01-27T11:23:10Z</time>
      </trkpt>
      <trkpt lat="43.91469" lon="7.05378">
        <ele>1196</ele>
        <time>2015-01-27T11:23:19Z</time>
      </trkpt>
      <trkpt lat="43.91469" lon="7.05374">
        <ele>1195</ele>
        <time>2015-01-27T11:23:34Z</time>
      </trkpt>
      <trkpt lat="43.91465" lon="7.05371">
        <ele>1193</ele>
        <time>2015-01-27T11:23:39Z</time>
      </trkpt>
      <trkpt lat="43.91461" lon="7.05373">
        <ele>1192</ele>
        <time>2015-01-27T11:23:48Z</time>
      </trkpt>
      <trkpt lat="43.91448" lon="7.05364">
        <ele>1185</ele>
        <time>2015-01-27T11:24:12Z</time>
      </trkpt>
      <trkpt lat="43.91448" lon="7.05369">
        <ele>1184</ele>
        <time>2015-01-27T11:24:22Z</time>
      </trkpt>
      <trkpt lat="43.91446" lon="7.05375">
        <ele>1184</ele>
        <time>2015-01-27T11:24:28Z</time>
      </trkpt>
      <trkpt lat="43.9144" lon="7.05377">
        <ele>1182</ele>
        <time>2015-01-27T11:24:45Z</time>
      </trkpt>
      <trkpt lat="43.91434" lon="7.05376">
        <ele>1181</ele>
        <time>2015-01-27T11:24:49Z</time>
      </trkpt>
      <trkpt lat="43.9143" lon="7.05372">
        <ele>1180</ele>
        <time>2015-01-27T11:24:53Z</time>
      </trkpt>
      <trkpt lat="43.91433" lon="7.05366">
        <ele>1179</ele>
        <time>2015-01-27T11:25:11Z</time>
      </trkpt>
      <trkpt lat="43.91438" lon="7.05347">
        <ele>1177</ele>
        <time>2015-01-27T11:25:24Z</time>
      </trkpt>
      <trkpt lat="43.91436" lon="7.05339">
        <ele>1177</ele>
        <time>2015-01-27T11:25:28Z</time>
      </trkpt>
      <trkpt lat="43.91431" lon="7.0532">
        <ele>1174</ele>
        <time>2015-01-27T11:25:40Z</time>
      </trkpt>
      <trkpt lat="43.91434" lon="7.053">
        <ele>1171</ele>
        <time>2015-01-27T11:25:56Z</time>
      </trkpt>
      <trkpt lat="43.9143" lon="7.0529">
        <ele>1170</ele>
        <time>2015-01-27T11:26:10Z</time>
      </trkpt>
      <trkpt lat="43.91425" lon="7.05285">
        <ele>1167</ele>
        <time>2015-01-27T11:26:27Z</time>
      </trkpt>
      <trkpt lat="43.91418" lon="7.05271">
        <ele>1166</ele>
        <time>2015-01-27T11:26:59Z</time>
      </trkpt>
      <trkpt lat="43.91418" lon="7.05266">
        <ele>1165</ele>
        <time>2015-01-27T11:27:06Z</time>
      </trkpt>
      <trkpt lat="43.91414" lon="7.05267">
        <ele>1164</ele>
        <time>2015-01-27T11:27:51Z</time>
      </trkpt>
      <trkpt lat="43.91403" lon="7.05272">
        <ele>1163</ele>
        <time>2015-01-27T11:28:11Z</time>
      </trkpt>
      <trkpt lat="43.91405" lon="7.05276">
        <ele>1160</ele>
        <time>2015-01-27T11:28:42Z</time>
      </trkpt>
      <trkpt lat="43.91409" lon="7.05282">
        <ele>1161</ele>
        <time>2015-01-27T11:28:48Z</time>
      </trkpt>
      <trkpt lat="43.9141" lon="7.05316">
        <ele>1163</ele>
        <time>2015-01-27T11:29:14Z</time>
      </trkpt>
      <trkpt lat="43.91406" lon="7.05332">
        <ele>1164</ele>
        <time>2015-01-27T11:29:40Z</time>
      </trkpt>
      <trkpt lat="43.91405" lon="7.05342">
        <ele>1161</ele>
        <time>2015-01-27T12:06:10Z</time>
      </trkpt>
      <trkpt lat="43.91405" lon="7.05347">
        <ele>1161</ele>
        <time>2015-01-27T12:06:18Z</time>
      </trkpt>
      <trkpt lat="43.91405" lon="7.05354">
        <ele>1161</ele>
        <time>2015-01-27T12:06:23Z</time>
      </trkpt>
      <trkpt lat="43.91405" lon="7.0536">
        <ele>1161</ele>
        <time>2015-01-27T12:06:31Z</time>
      </trkpt>
      <trkpt lat="43.91398" lon="7.05379">
        <ele>1163</ele>
        <time>2015-01-27T12:06:43Z</time>
      </trkpt>
      <trkpt lat="43.91389" lon="7.05384">
        <ele>1164</ele>
        <time>2015-01-27T12:06:51Z</time>
      </trkpt>
      <trkpt lat="43.91376" lon="7.05394">
        <ele>1164</ele>
        <time>2015-01-27T12:07:09Z</time>
      </trkpt>
      <trkpt lat="43.91371" lon="7.05407">
        <ele>1164</ele>
        <time>2015-01-27T12:07:25Z</time>
      </trkpt>
      <trkpt lat="43.91372" lon="7.05415">
        <ele>1164</ele>
        <time>2015-01-27T12:07:36Z</time>
      </trkpt>
      <trkpt lat="43.9136" lon="7.05472">
        <ele>1167</ele>
        <time>2015-01-27T12:08:07Z</time>
      </trkpt>
      <trkpt lat="43.91357" lon="7.05497">
        <ele>1169</ele>
        <time>2015-01-27T12:08:22Z</time>
      </trkpt>
      <trkpt lat="43.91355" lon="7.05504">
        <ele>1169</ele>
        <time>2015-01-27T12:08:26Z</time>
      </trkpt>
      <trkpt lat="43.91357" lon="7.0551">
        <ele>1168</ele>
        <time>2015-01-27T12:08:34Z</time>
      </trkpt>
      <trkpt lat="43.91359" lon="7.05517">
        <ele>1168</ele>
        <time>2015-01-27T12:08:39Z</time>
      </trkpt>
      <trkpt lat="43.91362" lon="7.05516">
        <ele>1168</ele>
        <time>2015-01-27T12:08:52Z</time>
      </trkpt>
      <trkpt lat="43.91372" lon="7.05512">
        <ele>1170</ele>
        <time>2015-01-27T12:10:28Z</time>
      </trkpt>
      <trkpt lat="43.91354" lon="7.05529">
        <ele>1169</ele>
        <time>2015-01-27T12:10:53Z</time>
      </trkpt>
      <trkpt lat="43.91356" lon="7.05527">
        <ele>1169</ele>
        <time>2015-01-27T12:11:05Z</time>
      </trkpt>
      <trkpt lat="43.9136" lon="7.05532">
        <ele>1169</ele>
        <time>2015-01-27T12:11:13Z</time>
      </trkpt>
      <trkpt lat="43.91363" lon="7.05537">
        <ele>1169</ele>
        <time>2015-01-27T12:11:19Z</time>
      </trkpt>
      <trkpt lat="43.91365" lon="7.05544">
        <ele>1169</ele>
        <time>2015-01-27T12:11:24Z</time>
      </trkpt>
      <trkpt lat="43.91378" lon="7.05587">
        <ele>1178</ele>
        <time>2015-01-27T12:11:58Z</time>
      </trkpt>
      <trkpt lat="43.91376" lon="7.05594">
        <ele>1179</ele>
        <time>2015-01-27T12:12:02Z</time>
      </trkpt>
      <trkpt lat="43.91369" lon="7.05603">
        <ele>1180</ele>
        <time>2015-01-27T12:12:10Z</time>
      </trkpt>
      <trkpt lat="43.91367" lon="7.05609">
        <ele>1181</ele>
        <time>2015-01-27T12:12:14Z</time>
      </trkpt>
      <trkpt lat="43.91369" lon="7.05628">
        <ele>1183</ele>
        <time>2015-01-27T12:12:29Z</time>
      </trkpt>
      <trkpt lat="43.9137" lon="7.05632">
        <ele>1184</ele>
        <time>2015-01-27T12:12:40Z</time>
      </trkpt>
      <trkpt lat="43.91369" lon="7.05635">
        <ele>1185</ele>
        <time>2015-01-27T12:12:47Z</time>
      </trkpt>
      <trkpt lat="43.91369" lon="7.05639">
        <ele>1185</ele>
        <time>2015-01-27T12:12:53Z</time>
      </trkpt>
      <trkpt lat="43.91372" lon="7.05643">
        <ele>1186</ele>
        <time>2015-01-27T12:13:05Z</time>
      </trkpt>
      <trkpt lat="43.91371" lon="7.05649">
        <ele>1186</ele>
        <time>2015-01-27T12:13:11Z</time>
      </trkpt>
      <trkpt lat="43.91368" lon="7.05655">
        <ele>1187</ele>
        <time>2015-01-27T12:13:15Z</time>
      </trkpt>
      <trkpt lat="43.91362" lon="7.05664">
        <ele>1187</ele>
        <time>2015-01-27T12:13:27Z</time>
      </trkpt>
      <trkpt lat="43.91361" lon="7.05671">
        <ele>1188</ele>
        <time>2015-01-27T12:13:48Z</time>
      </trkpt>
      <trkpt lat="43.91362" lon="7.05677">
        <ele>1188</ele>
        <time>2015-01-27T12:13:57Z</time>
      </trkpt>
      <trkpt lat="43.91359" lon="7.05684">
        <ele>1187</ele>
        <time>2015-01-27T12:14:02Z</time>
      </trkpt>
      <trkpt lat="43.91357" lon="7.0569">
        <ele>1186</ele>
        <time>2015-01-27T12:14:06Z</time>
      </trkpt>
      <trkpt lat="43.91356" lon="7.05696">
        <ele>1186</ele>
        <time>2015-01-27T12:14:11Z</time>
      </trkpt>
      <trkpt lat="43.91349" lon="7.05707">
        <ele>1186</ele>
        <time>2015-01-27T12:14:21Z</time>
      </trkpt>
      <trkpt lat="43.91334" lon="7.0574">
        <ele>1182</ele>
        <time>2015-01-27T12:14:54Z</time>
      </trkpt>
      <trkpt lat="43.91329" lon="7.05751">
        <ele>1180</ele>
        <time>2015-01-27T12:15:09Z</time>
      </trkpt>
      <trkpt lat="43.9133" lon="7.05759">
        <ele>1180</ele>
        <time>2015-01-27T12:15:41Z</time>
      </trkpt>
      <trkpt lat="43.91329" lon="7.05796">
        <ele>1176</ele>
        <time>2015-01-27T12:16:13Z</time>
      </trkpt>
      <trkpt lat="43.91327" lon="7.05798">
        <ele>1176</ele>
        <time>2015-01-27T12:16:19Z</time>
      </trkpt>
      <trkpt lat="43.91327" lon="7.05806">
        <ele>1175</ele>
        <time>2015-01-27T12:16:26Z</time>
      </trkpt>
      <trkpt lat="43.91328" lon="7.0581">
        <ele>1175</ele>
        <time>2015-01-27T12:16:33Z</time>
      </trkpt>
      <trkpt lat="43.91326" lon="7.05814">
        <ele>1175</ele>
        <time>2015-01-27T12:16:39Z</time>
      </trkpt>
      <trkpt lat="43.91326" lon="7.05817">
        <ele>1175</ele>
        <time>2015-01-27T12:16:40Z</time>
      </trkpt>
      <trkpt lat="43.91327" lon="7.05824">
        <ele>1175</ele>
        <time>2015-01-27T12:16:47Z</time>
      </trkpt>
      <trkpt lat="43.91323" lon="7.0585">
        <ele>1174</ele>
        <time>2015-01-27T12:17:05Z</time>
      </trkpt>
      <trkpt lat="43.91315" lon="7.05865">
        <ele>1173</ele>
        <time>2015-01-27T12:17:19Z</time>
      </trkpt>
      <trkpt lat="43.91315" lon="7.05872">
        <ele>1173</ele>
        <time>2015-01-27T12:17:27Z</time>
      </trkpt>
      <trkpt lat="43.91313" lon="7.05881">
        <ele>1172</ele>
        <time>2015-01-27T12:17:41Z</time>
      </trkpt>
      <trkpt lat="43.91309" lon="7.05885">
        <ele>1171</ele>
        <time>2015-01-27T12:18:08Z</time>
      </trkpt>
      <trkpt lat="43.9131" lon="7.05888">
        <ele>1171</ele>
        <time>2015-01-27T12:18:14Z</time>
      </trkpt>
      <trkpt lat="43.91309" lon="7.05894">
        <ele>1171</ele>
        <time>2015-01-27T12:18:20Z</time>
      </trkpt>
      <trkpt lat="43.91305" lon="7.05897">
        <ele>1171</ele>
        <time>2015-01-27T12:18:26Z</time>
      </trkpt>
      <trkpt lat="43.91303" lon="7.05903">
        <ele>1171</ele>
        <time>2015-01-27T12:18:31Z</time>
      </trkpt>
      <trkpt lat="43.91296" lon="7.05911">
        <ele>1171</ele>
        <time>2015-01-27T12:18:38Z</time>
      </trkpt>
      <trkpt lat="43.91288" lon="7.05916">
        <ele>1170</ele>
        <time>2015-01-27T12:18:47Z</time>
      </trkpt>
      <trkpt lat="43.91286" lon="7.05921">
        <ele>1170</ele>
        <time>2015-01-27T12:18:54Z</time>
      </trkpt>
      <trkpt lat="43.91281" lon="7.05926">
        <ele>1170</ele>
        <time>2015-01-27T12:19:03Z</time>
      </trkpt>
      <trkpt lat="43.91277" lon="7.05928">
        <ele>1171</ele>
        <time>2015-01-27T12:19:11Z</time>
      </trkpt>
      <trkpt lat="43.91272" lon="7.0594">
        <ele>1170</ele>
        <time>2015-01-27T12:19:23Z</time>
      </trkpt>
      <trkpt lat="43.91268" lon="7.05945">
        <ele>1170</ele>
        <time>2015-01-27T12:19:27Z</time>
      </trkpt>
      <trkpt lat="43.91265" lon="7.0595">
        <ele>1172</ele>
        <time>2015-01-27T12:19:34Z</time>
      </trkpt>
      <trkpt lat="43.91257" lon="7.05957">
        <ele>1172</ele>
        <time>2015-01-27T12:19:44Z</time>
      </trkpt>
      <trkpt lat="43.91252" lon="7.05959">
        <ele>1172</ele>
        <time>2015-01-27T12:19:52Z</time>
      </trkpt>
      <trkpt lat="43.91246" lon="7.05958">
        <ele>1172</ele>
        <time>2015-01-27T12:20:11Z</time>
      </trkpt>
      <trkpt lat="43.91238" lon="7.05953">
        <ele>1170</ele>
        <time>2015-01-27T12:20:21Z</time>
      </trkpt>
      <trkpt lat="43.91236" lon="7.05948">
        <ele>1168</ele>
        <time>2015-01-27T12:20:31Z</time>
      </trkpt>
      <trkpt lat="43.91233" lon="7.0595">
        <ele>1167</ele>
        <time>2015-01-27T12:20:58Z</time>
      </trkpt>
      <trkpt lat="43.91227" lon="7.05948">
        <ele>1166</ele>
        <time>2015-01-27T12:21:11Z</time>
      </trkpt>
      <trkpt lat="43.91226" lon="7.05942">
        <ele>1164</ele>
        <time>2015-01-27T12:21:20Z</time>
      </trkpt>
      <trkpt lat="43.91223" lon="7.05934">
        <ele>1162</ele>
        <time>2015-01-27T12:21:34Z</time>
      </trkpt>
      <trkpt lat="43.91217" lon="7.05933">
        <ele>1161</ele>
        <time>2015-01-27T12:21:40Z</time>
      </trkpt>
      <trkpt lat="43.91191" lon="7.05939">
        <ele>1157</ele>
        <time>2015-01-27T12:22:01Z</time>
      </trkpt>
      <trkpt lat="43.91183" lon="7.05947">
        <ele>1154</ele>
        <time>2015-01-27T12:22:11Z</time>
      </trkpt>
      <trkpt lat="43.91178" lon="7.05947">
        <ele>1152</ele>
        <time>2015-01-27T12:22:19Z</time>
      </trkpt>
      <trkpt lat="43.91175" lon="7.05942">
        <ele>1152</ele>
        <time>2015-01-27T12:22:23Z</time>
      </trkpt>
      <trkpt lat="43.91169" lon="7.05924">
        <ele>1148</ele>
        <time>2015-01-27T12:22:35Z</time>
      </trkpt>
      <trkpt lat="43.91175" lon="7.05899">
        <ele>1145</ele>
        <time>2015-01-27T12:22:49Z</time>
      </trkpt>
      <trkpt lat="43.91181" lon="7.05889">
        <ele>1144</ele>
        <time>2015-01-27T12:23:00Z</time>
      </trkpt>
      <trkpt lat="43.91178" lon="7.05887">
        <ele>1143</ele>
        <time>2015-01-27T12:23:15Z</time>
      </trkpt>
      <trkpt lat="43.91174" lon="7.05892">
        <ele>1143</ele>
        <time>2015-01-27T12:23:18Z</time>
      </trkpt>
      <trkpt lat="43.91166" lon="7.0591">
        <ele>1143</ele>
        <time>2015-01-27T12:23:30Z</time>
      </trkpt>
      <trkpt lat="43.91162" lon="7.05913">
        <ele>1142</ele>
        <time>2015-01-27T12:23:36Z</time>
      </trkpt>
      <trkpt lat="43.91161" lon="7.05905">
        <ele>1142</ele>
        <time>2015-01-27T12:23:40Z</time>
      </trkpt>
      <trkpt lat="43.91171" lon="7.05882">
        <ele>1139</ele>
        <time>2015-01-27T12:23:56Z</time>
      </trkpt>
      <trkpt lat="43.91208" lon="7.05858">
        <ele>1134</ele>
        <time>2015-01-27T12:24:30Z</time>
      </trkpt>
      <trkpt lat="43.91205" lon="7.05853">
        <ele>1133</ele>
        <time>2015-01-27T12:24:35Z</time>
      </trkpt>
      <trkpt lat="43.912" lon="7.05855">
        <ele>1132</ele>
        <time>2015-01-27T12:24:39Z</time>
      </trkpt>
      <trkpt lat="43.91185" lon="7.05863">
        <ele>1130</ele>
        <time>2015-01-27T12:24:52Z</time>
      </trkpt>
      <trkpt lat="43.91178" lon="7.05861">
        <ele>1129</ele>
        <time>2015-01-27T12:24:56Z</time>
      </trkpt>
      <trkpt lat="43.91143" lon="7.05866">
        <ele>1122</ele>
        <time>2015-01-27T12:25:29Z</time>
      </trkpt>
      <trkpt lat="43.91136" lon="7.05874">
        <ele>1120</ele>
        <time>2015-01-27T12:25:37Z</time>
      </trkpt>
      <trkpt lat="43.91132" lon="7.05884">
        <ele>1119</ele>
        <time>2015-01-27T12:25:42Z</time>
      </trkpt>
      <trkpt lat="43.91128" lon="7.05889">
        <ele>1117</ele>
        <time>2015-01-27T12:25:49Z</time>
      </trkpt>
      <trkpt lat="43.91113" lon="7.05914">
        <ele>1113</ele>
        <time>2015-01-27T12:26:10Z</time>
      </trkpt>
      <trkpt lat="43.91109" lon="7.05971">
        <ele>1108</ele>
        <time>2015-01-27T12:26:41Z</time>
      </trkpt>
      <trkpt lat="43.91109" lon="7.05992">
        <ele>1107</ele>
        <time>2015-01-27T12:26:51Z</time>
      </trkpt>
      <trkpt lat="43.91115" lon="7.06002">
        <ele>1106</ele>
        <time>2015-01-27T12:26:59Z</time>
      </trkpt>
      <trkpt lat="43.91122" lon="7.06003">
        <ele>1105</ele>
        <time>2015-01-27T12:27:10Z</time>
      </trkpt>
      <trkpt lat="43.91125" lon="7.06006">
        <ele>1105</ele>
        <time>2015-01-27T12:27:12Z</time>
      </trkpt>
      <trkpt lat="43.91128" lon="7.06012">
        <ele>1104</ele>
        <time>2015-01-27T12:27:18Z</time>
      </trkpt>
      <trkpt lat="43.9114" lon="7.06027">
        <ele>1103</ele>
        <time>2015-01-27T12:27:29Z</time>
      </trkpt>
      <trkpt lat="43.91137" lon="7.06032">
        <ele>1102</ele>
        <time>2015-01-27T12:27:33Z</time>
      </trkpt>
      <trkpt lat="43.91127" lon="7.06052">
        <ele>1101</ele>
        <time>2015-01-27T12:27:44Z</time>
      </trkpt>
      <trkpt lat="43.91097" lon="7.06077">
        <ele>1094</ele>
        <time>2015-01-27T12:28:17Z</time>
      </trkpt>
      <trkpt lat="43.9109" lon="7.06102">
        <ele>1090</ele>
        <time>2015-01-27T12:28:33Z</time>
      </trkpt>
      <trkpt lat="43.91085" lon="7.06105">
        <ele>1090</ele>
        <time>2015-01-27T12:28:39Z</time>
      </trkpt>
      <trkpt lat="43.9108" lon="7.06104">
        <ele>1089</ele>
        <time>2015-01-27T12:28:43Z</time>
      </trkpt>
      <trkpt lat="43.91079" lon="7.06098">
        <ele>1088</ele>
        <time>2015-01-27T12:28:46Z</time>
      </trkpt>
      <trkpt lat="43.91081" lon="7.06092">
        <ele>1087</ele>
        <time>2015-01-27T12:28:50Z</time>
      </trkpt>
      <trkpt lat="43.91084" lon="7.06086">
        <ele>1087</ele>
        <time>2015-01-27T12:28:55Z</time>
      </trkpt>
      <trkpt lat="43.91085" lon="7.06079">
        <ele>1085</ele>
        <time>2015-01-27T12:29:03Z</time>
      </trkpt>
      <trkpt lat="43.91079" lon="7.06081">
        <ele>1084</ele>
        <time>2015-01-27T12:29:08Z</time>
      </trkpt>
      <trkpt lat="43.91074" lon="7.06086">
        <ele>1084</ele>
        <time>2015-01-27T12:29:11Z</time>
      </trkpt>
      <trkpt lat="43.91067" lon="7.06098">
        <ele>1083</ele>
        <time>2015-01-27T12:29:20Z</time>
      </trkpt>
      <trkpt lat="43.91066" lon="7.06105">
        <ele>1083</ele>
        <time>2015-01-27T12:29:23Z</time>
      </trkpt>
      <trkpt lat="43.91067" lon="7.06111">
        <ele>1083</ele>
        <time>2015-01-27T12:29:28Z</time>
      </trkpt>
      <trkpt lat="43.91077" lon="7.06127">
        <ele>1083</ele>
        <time>2015-01-27T12:29:42Z</time>
      </trkpt>
      <trkpt lat="43.91099" lon="7.06147">
        <ele>1084</ele>
        <time>2015-01-27T12:30:02Z</time>
      </trkpt>
      <trkpt lat="43.911" lon="7.06154">
        <ele>1084</ele>
        <time>2015-01-27T12:30:05Z</time>
      </trkpt>
      <trkpt lat="43.91098" lon="7.0616">
        <ele>1084</ele>
        <time>2015-01-27T12:30:08Z</time>
      </trkpt>
      <trkpt lat="43.91089" lon="7.06175">
        <ele>1083</ele>
        <time>2015-01-27T12:30:18Z</time>
      </trkpt>
      <trkpt lat="43.91091" lon="7.06207">
        <ele>1083</ele>
        <time>2015-01-27T12:30:38Z</time>
      </trkpt>
      <trkpt lat="43.91105" lon="7.06253">
        <ele>1083</ele>
        <time>2015-01-27T12:31:02Z</time>
      </trkpt>
      <trkpt lat="43.91094" lon="7.06285">
        <ele>1084</ele>
        <time>2015-01-27T12:31:19Z</time>
      </trkpt>
      <trkpt lat="43.91076" lon="7.06308">
        <ele>1084</ele>
        <time>2015-01-27T12:31:37Z</time>
      </trkpt>
      <trkpt lat="43.91059" lon="7.06309">
        <ele>1084</ele>
        <time>2015-01-27T12:31:49Z</time>
      </trkpt>
      <trkpt lat="43.91044" lon="7.06305">
        <ele>1084</ele>
        <time>2015-01-27T12:32:01Z</time>
      </trkpt>
      <trkpt lat="43.91007" lon="7.06337">
        <ele>1083</ele>
        <time>2015-01-27T12:32:31Z</time>
      </trkpt>
      <trkpt lat="43.90993" lon="7.06345">
        <ele>1083</ele>
        <time>2015-01-27T12:32:42Z</time>
      </trkpt>
      <trkpt lat="43.90952" lon="7.06343">
        <ele>1083</ele>
        <time>2015-01-27T12:33:14Z</time>
      </trkpt>
      <trkpt lat="43.90905" lon="7.06373">
        <ele>1083</ele>
        <time>2015-01-27T12:33:45Z</time>
      </trkpt>
      <trkpt lat="43.90869" lon="7.064">
        <ele>1083</ele>
        <time>2015-01-27T12:34:16Z</time>
      </trkpt>
      <trkpt lat="43.90829" lon="7.06418">
        <ele>1083</ele>
        <time>2015-01-27T12:34:50Z</time>
      </trkpt>
      <trkpt lat="43.90797" lon="7.0646">
        <ele>1083</ele>
        <time>2015-01-27T12:35:21Z</time>
      </trkpt>
      <trkpt lat="43.90778" lon="7.06501">
        <ele>1083</ele>
        <time>2015-01-27T12:35:48Z</time>
      </trkpt>
      <trkpt lat="43.90766" lon="7.06552">
        <ele>1084</ele>
        <time>2015-01-27T12:36:15Z</time>
      </trkpt>
      <trkpt lat="43.90744" lon="7.06563">
        <ele>1084</ele>
        <time>2015-01-27T12:36:33Z</time>
      </trkpt>
      <trkpt lat="43.90695" lon="7.06575">
        <ele>1084</ele>
        <time>2015-01-27T12:37:07Z</time>
      </trkpt>
      <trkpt lat="43.90655" lon="7.06602">
        <ele>1083</ele>
        <time>2015-01-27T12:37:39Z</time>
      </trkpt>
      <trkpt lat="43.90639" lon="7.06603">
        <ele>1083</ele>
        <time>2015-01-27T12:37:54Z</time>
      </trkpt>
      <trkpt lat="43.90628" lon="7.06605">
        <ele>1083</ele>
        <time>2015-01-27T12:38:27Z</time>
      </trkpt>
      <trkpt lat="43.90625" lon="7.06605">
        <ele>1083</ele>
        <time>2015-01-27T12:38:38Z</time>
      </trkpt>
      <trkpt lat="43.9062" lon="7.0661">
        <ele>1083</ele>
        <time>2015-01-27T12:38:49Z</time>
      </trkpt>
      <trkpt lat="43.90617" lon="7.06615">
        <ele>1083</ele>
        <time>2015-01-27T12:38:57Z</time>
      </trkpt>
      <trkpt lat="43.90616" lon="7.06618">
        <ele>1083</ele>
        <time>2015-01-27T12:39:03Z</time>
      </trkpt>
      <trkpt lat="43.90619" lon="7.06624">
        <ele>1083</ele>
        <time>2015-01-27T12:39:27Z</time>
      </trkpt>
      <trkpt lat="43.90623" lon="7.06619">
        <ele>1083</ele>
        <time>2015-01-27T12:39:32Z</time>
      </trkpt>
      <trkpt lat="43.90626" lon="7.06612">
        <ele>1083</ele>
        <time>2015-01-27T12:39:45Z</time>
      </trkpt>
      <trkpt lat="43.90631" lon="7.06609">
        <ele>1083</ele>
        <time>2015-01-27T12:39:50Z</time>
      </trkpt>
      <trkpt lat="43.90632" lon="7.06603">
        <ele>1083</ele>
        <time>2015-01-27T12:39:55Z</time>
      </trkpt>
      <trkpt lat="43.90636" lon="7.06602">
        <ele>1083</ele>
        <time>2015-01-27T12:40:19Z</time>
      </trkpt>
      <trkpt lat="43.9065" lon="7.06604">
        <ele>1083</ele>
        <time>2015-01-27T12:40:29Z</time>
      </trkpt>
      <trkpt lat="43.90647" lon="7.06602">
        <ele>1083</ele>
        <time>2015-01-27T12:40:40Z</time>
      </trkpt>
      <trkpt lat="43.90627" lon="7.066">
        <ele>1082</ele>
        <time>2015-01-27T12:40:57Z</time>
      </trkpt>
      <trkpt lat="43.90628" lon="7.06597">
        <ele>1082</ele>
        <time>2015-01-27T12:41:13Z</time>
      </trkpt>
      <trkpt lat="43.90633" lon="7.06597">
        <ele>1082</ele>
        <time>2015-01-27T12:41:21Z</time>
      </trkpt>
      <trkpt lat="43.90637" lon="7.06594">
        <ele>1081</ele>
        <time>2015-01-27T12:41:30Z</time>
      </trkpt>
      <trkpt lat="43.90637" lon="7.06587">
        <ele>1080</ele>
        <time>2015-01-27T12:41:37Z</time>
      </trkpt>
      <trkpt lat="43.90636" lon="7.06584">
        <ele>1078</ele>
        <time>2015-01-27T12:41:48Z</time>
      </trkpt>
      <trkpt lat="43.90636" lon="7.06578">
        <ele>1077</ele>
        <time>2015-01-27T12:41:53Z</time>
      </trkpt>
      <trkpt lat="43.90633" lon="7.06571">
        <ele>1076</ele>
        <time>2015-01-27T12:41:59Z</time>
      </trkpt>
      <trkpt lat="43.90629" lon="7.06567">
        <ele>1076</ele>
        <time>2015-01-27T12:42:03Z</time>
      </trkpt>
      <trkpt lat="43.90627" lon="7.06566">
        <ele>1075</ele>
        <time>2015-01-27T12:42:10Z</time>
      </trkpt>
      <trkpt lat="43.90622" lon="7.06562">
        <ele>1074</ele>
        <time>2015-01-27T12:42:31Z</time>
      </trkpt>
      <trkpt lat="43.90613" lon="7.06558">
        <ele>1073</ele>
        <time>2015-01-27T12:42:42Z</time>
      </trkpt>
      <trkpt lat="43.90611" lon="7.06551">
        <ele>1072</ele>
        <time>2015-01-27T12:42:48Z</time>
      </trkpt>
      <trkpt lat="43.9061" lon="7.06543">
        <ele>1071</ele>
        <time>2015-01-27T12:42:53Z</time>
      </trkpt>
      <trkpt lat="43.90604" lon="7.06525">
        <ele>1069</ele>
        <time>2015-01-27T12:43:05Z</time>
      </trkpt>
      <trkpt lat="43.90604" lon="7.06519">
        <ele>1068</ele>
        <time>2015-01-27T12:43:11Z</time>
      </trkpt>
      <trkpt lat="43.90607" lon="7.06505">
        <ele>1066</ele>
        <time>2015-01-27T12:43:20Z</time>
      </trkpt>
      <trkpt lat="43.90604" lon="7.06497">
        <ele>1064</ele>
        <time>2015-01-27T12:44:03Z</time>
      </trkpt>
      <trkpt lat="43.90597" lon="7.06458">
        <ele>1058</ele>
        <time>2015-01-27T12:44:33Z</time>
      </trkpt>
      <trkpt lat="43.90596" lon="7.06451">
        <ele>1057</ele>
        <time>2015-01-27T12:44:37Z</time>
      </trkpt>
      <trkpt lat="43.90592" lon="7.06447">
        <ele>1056</ele>
        <time>2015-01-27T12:44:51Z</time>
      </trkpt>
      <trkpt lat="43.90587" lon="7.06445">
        <ele>1055</ele>
        <time>2015-01-27T12:44:57Z</time>
      </trkpt>
      <trkpt lat="43.90583" lon="7.06449">
        <ele>1054</ele>
        <time>2015-01-27T12:45:01Z</time>
      </trkpt>
      <trkpt lat="43.90578" lon="7.06445">
        <ele>1053</ele>
        <time>2015-01-27T12:45:08Z</time>
      </trkpt>
      <trkpt lat="43.90562" lon="7.06422">
        <ele>1048</ele>
        <time>2015-01-27T12:45:31Z</time>
      </trkpt>
      <trkpt lat="43.90559" lon="7.06427">
        <ele>1046</ele>
        <time>2015-01-27T12:45:39Z</time>
      </trkpt>
      <trkpt lat="43.90556" lon="7.06421">
        <ele>1045</ele>
        <time>2015-01-27T12:45:45Z</time>
      </trkpt>
      <trkpt lat="43.90553" lon="7.06414">
        <ele>1044</ele>
        <time>2015-01-27T12:45:50Z</time>
      </trkpt>
      <trkpt lat="43.90548" lon="7.06415">
        <ele>1042</ele>
        <time>2015-01-27T12:45:55Z</time>
      </trkpt>
      <trkpt lat="43.90548" lon="7.06421">
        <ele>1041</ele>
        <time>2015-01-27T12:45:59Z</time>
      </trkpt>
      <trkpt lat="43.90543" lon="7.06422">
        <ele>1040</ele>
        <time>2015-01-27T12:46:06Z</time>
      </trkpt>
      <trkpt lat="43.90541" lon="7.06428">
        <ele>1039</ele>
        <time>2015-01-27T12:46:12Z</time>
      </trkpt>
      <trkpt lat="43.90538" lon="7.06425">
        <ele>1038</ele>
        <time>2015-01-27T12:46:20Z</time>
      </trkpt>
      <trkpt lat="43.90539" lon="7.06418">
        <ele>1038</ele>
        <time>2015-01-27T12:46:27Z</time>
      </trkpt>
      <trkpt lat="43.90534" lon="7.06417">
        <ele>1036</ele>
        <time>2015-01-27T12:46:35Z</time>
      </trkpt>
      <trkpt lat="43.90531" lon="7.06413">
        <ele>1035</ele>
        <time>2015-01-27T12:46:43Z</time>
      </trkpt>
      <trkpt lat="43.90529" lon="7.06406">
        <ele>1033</ele>
        <time>2015-01-27T12:46:49Z</time>
      </trkpt>
      <trkpt lat="43.90526" lon="7.06393">
        <ele>1032</ele>
        <time>2015-01-27T12:47:04Z</time>
      </trkpt>
      <trkpt lat="43.90524" lon="7.06399">
        <ele>1032</ele>
        <time>2015-01-27T12:47:15Z</time>
      </trkpt>
      <trkpt lat="43.90521" lon="7.06394">
        <ele>1031</ele>
        <time>2015-01-27T12:47:22Z</time>
      </trkpt>
      <trkpt lat="43.90514" lon="7.06385">
        <ele>1028</ele>
        <time>2015-01-27T12:47:39Z</time>
      </trkpt>
      <trkpt lat="43.90516" lon="7.06383">
        <ele>1027</ele>
        <time>2015-01-27T12:48:01Z</time>
      </trkpt>
      <trkpt lat="43.90516" lon="7.06389">
        <ele>1030</ele>
        <time>2015-01-27T12:56:21Z</time>
      </trkpt>
      <trkpt lat="43.90513" lon="7.06382">
        <ele>1029</ele>
        <time>2015-01-27T12:56:54Z</time>
      </trkpt>
      <trkpt lat="43.90505" lon="7.06374">
        <ele>1027</ele>
        <time>2015-01-27T12:57:07Z</time>
      </trkpt>
      <trkpt lat="43.90502" lon="7.06378">
        <ele>1023</ele>
        <time>2015-01-27T12:57:16Z</time>
      </trkpt>
      <trkpt lat="43.90497" lon="7.06374">
        <ele>1022</ele>
        <time>2015-01-27T12:57:24Z</time>
      </trkpt>
      <trkpt lat="43.90483" lon="7.06376">
        <ele>1016</ele>
        <time>2015-01-27T12:57:41Z</time>
      </trkpt>
      <trkpt lat="43.90479" lon="7.0637">
        <ele>1015</ele>
        <time>2015-01-27T12:57:46Z</time>
      </trkpt>
      <trkpt lat="43.90475" lon="7.06357">
        <ele>1012</ele>
        <time>2015-01-27T12:57:56Z</time>
      </trkpt>
      <trkpt lat="43.90465" lon="7.06342">
        <ele>1009</ele>
        <time>2015-01-27T12:58:09Z</time>
      </trkpt>
      <trkpt lat="43.90464" lon="7.06335">
        <ele>1007</ele>
        <time>2015-01-27T12:58:15Z</time>
      </trkpt>
      <trkpt lat="43.90456" lon="7.06318">
        <ele>1005</ele>
        <time>2015-01-27T12:58:26Z</time>
      </trkpt>
      <trkpt lat="43.90454" lon="7.06296">
        <ele>1002</ele>
        <time>2015-01-27T12:58:37Z</time>
      </trkpt>
      <trkpt lat="43.90441" lon="7.06266">
        <ele>997</ele>
        <time>2015-01-27T12:58:56Z</time>
      </trkpt>
      <trkpt lat="43.90433" lon="7.06259">
        <ele>994</ele>
        <time>2015-01-27T12:59:06Z</time>
      </trkpt>
      <trkpt lat="43.90433" lon="7.06252">
        <ele>993</ele>
        <time>2015-01-27T12:59:10Z</time>
      </trkpt>
      <trkpt lat="43.90437" lon="7.06233">
        <ele>990</ele>
        <time>2015-01-27T12:59:25Z</time>
      </trkpt>
      <trkpt lat="43.90434" lon="7.06226">
        <ele>989</ele>
        <time>2015-01-27T12:59:29Z</time>
      </trkpt>
      <trkpt lat="43.90409" lon="7.062">
        <ele>985</ele>
        <time>2015-01-27T12:59:56Z</time>
      </trkpt>
      <trkpt lat="43.90399" lon="7.062">
        <ele>983</ele>
        <time>2015-01-27T13:00:03Z</time>
      </trkpt>
      <trkpt lat="43.90378" lon="7.06212">
        <ele>978</ele>
        <time>2015-01-27T13:00:28Z</time>
      </trkpt>
      <trkpt lat="43.90371" lon="7.06219">
        <ele>976</ele>
        <time>2015-01-27T13:00:37Z</time>
      </trkpt>
      <trkpt lat="43.90366" lon="7.06215">
        <ele>975</ele>
        <time>2015-01-27T13:00:42Z</time>
      </trkpt>
      <trkpt lat="43.90365" lon="7.06209">
        <ele>974</ele>
        <time>2015-01-27T13:00:46Z</time>
      </trkpt>
      <trkpt lat="43.90358" lon="7.06204">
        <ele>971</ele>
        <time>2015-01-27T13:01:01Z</time>
      </trkpt>
      <trkpt lat="43.90355" lon="7.06211">
        <ele>970</ele>
        <time>2015-01-27T13:01:07Z</time>
      </trkpt>
      <trkpt lat="43.9035" lon="7.06207">
        <ele>968</ele>
        <time>2015-01-27T13:01:15Z</time>
      </trkpt>
      <trkpt lat="43.9035" lon="7.062">
        <ele>967</ele>
        <time>2015-01-27T13:01:19Z</time>
      </trkpt>
      <trkpt lat="43.90345" lon="7.06197">
        <ele>967</ele>
        <time>2015-01-27T13:01:25Z</time>
      </trkpt>
      <trkpt lat="43.90335" lon="7.06194">
        <ele>964</ele>
        <time>2015-01-27T13:01:37Z</time>
      </trkpt>
      <trkpt lat="43.90334" lon="7.06188">
        <ele>963</ele>
        <time>2015-01-27T13:01:42Z</time>
      </trkpt>
      <trkpt lat="43.9033" lon="7.06191">
        <ele>961</ele>
        <time>2015-01-27T13:01:47Z</time>
      </trkpt>
      <trkpt lat="43.90327" lon="7.06185">
        <ele>960</ele>
        <time>2015-01-27T13:01:54Z</time>
      </trkpt>
      <trkpt lat="43.90327" lon="7.06179">
        <ele>959</ele>
        <time>2015-01-27T13:01:59Z</time>
      </trkpt>
      <trkpt lat="43.90324" lon="7.06174">
        <ele>956</ele>
        <time>2015-01-27T13:02:09Z</time>
      </trkpt>
      <trkpt lat="43.9032" lon="7.06177">
        <ele>955</ele>
        <time>2015-01-27T13:02:19Z</time>
      </trkpt>
      <trkpt lat="43.90308" lon="7.06188">
        <ele>952</ele>
        <time>2015-01-27T13:02:32Z</time>
      </trkpt>
      <trkpt lat="43.90304" lon="7.06184">
        <ele>950</ele>
        <time>2015-01-27T13:02:39Z</time>
      </trkpt>
      <trkpt lat="43.90302" lon="7.06178">
        <ele>949</ele>
        <time>2015-01-27T13:02:44Z</time>
      </trkpt>
      <trkpt lat="43.90298" lon="7.06181">
        <ele>947</ele>
        <time>2015-01-27T13:02:49Z</time>
      </trkpt>
      <trkpt lat="43.90295" lon="7.06179">
        <ele>946</ele>
        <time>2015-01-27T13:02:56Z</time>
      </trkpt>
      <trkpt lat="43.90291" lon="7.06175">
        <ele>944</ele>
        <time>2015-01-27T13:03:03Z</time>
      </trkpt>
      <trkpt lat="43.90282" lon="7.06173">
        <ele>941</ele>
        <time>2015-01-27T13:03:11Z</time>
      </trkpt>
      <trkpt lat="43.9027" lon="7.06161">
        <ele>938</ele>
        <time>2015-01-27T13:03:24Z</time>
      </trkpt>
      <trkpt lat="43.90268" lon="7.06154">
        <ele>936</ele>
        <time>2015-01-27T13:03:28Z</time>
      </trkpt>
      <trkpt lat="43.90263" lon="7.06151">
        <ele>935</ele>
        <time>2015-01-27T13:03:34Z</time>
      </trkpt>
      <trkpt lat="43.90259" lon="7.06153">
        <ele>933</ele>
        <time>2015-01-27T13:03:40Z</time>
      </trkpt>
      <trkpt lat="43.90254" lon="7.06157">
        <ele>932</ele>
        <time>2015-01-27T13:03:44Z</time>
      </trkpt>
      <trkpt lat="43.9025" lon="7.06156">
        <ele>930</ele>
        <time>2015-01-27T13:03:50Z</time>
      </trkpt>
      <trkpt lat="43.90249" lon="7.06149">
        <ele>929</ele>
        <time>2015-01-27T13:03:53Z</time>
      </trkpt>
      <trkpt lat="43.90244" lon="7.06144">
        <ele>927</ele>
        <time>2015-01-27T13:03:59Z</time>
      </trkpt>
      <trkpt lat="43.90239" lon="7.06146">
        <ele>926</ele>
        <time>2015-01-27T13:04:07Z</time>
      </trkpt>
      <trkpt lat="43.90234" lon="7.0615">
        <ele>924</ele>
        <time>2015-01-27T13:04:12Z</time>
      </trkpt>
      <trkpt lat="43.90231" lon="7.06145">
        <ele>923</ele>
        <time>2015-01-27T13:04:18Z</time>
      </trkpt>
      <trkpt lat="43.90232" lon="7.06138">
        <ele>923</ele>
        <time>2015-01-27T13:04:22Z</time>
      </trkpt>
      <trkpt lat="43.90228" lon="7.06138">
        <ele>921</ele>
        <time>2015-01-27T13:04:28Z</time>
      </trkpt>
      <trkpt lat="43.90219" lon="7.06137">
        <ele>919</ele>
        <time>2015-01-27T13:05:05Z</time>
      </trkpt>
      <trkpt lat="43.90218" lon="7.0614">
        <ele>919</ele>
        <time>2015-01-27T13:06:06Z</time>
      </trkpt>
      <trkpt lat="43.90219" lon="7.06143">
        <ele>919</ele>
        <time>2015-01-27T13:06:35Z</time>
      </trkpt>
      <trkpt lat="43.90213" lon="7.06139">
        <ele>918</ele>
        <time>2015-01-27T13:06:48Z</time>
      </trkpt>
      <trkpt lat="43.90209" lon="7.06136">
        <ele>917</ele>
        <time>2015-01-27T13:06:52Z</time>
      </trkpt>
      <trkpt lat="43.90204" lon="7.06138">
        <ele>916</ele>
        <time>2015-01-27T13:06:57Z</time>
      </trkpt>
      <trkpt lat="43.90199" lon="7.06141">
        <ele>915</ele>
        <time>2015-01-27T13:07:01Z</time>
      </trkpt>
      <trkpt lat="43.90195" lon="7.06139">
        <ele>915</ele>
        <time>2015-01-27T13:07:04Z</time>
      </trkpt>
      <trkpt lat="43.90192" lon="7.06134">
        <ele>914</ele>
        <time>2015-01-27T13:07:07Z</time>
      </trkpt>
      <trkpt lat="43.90188" lon="7.06136">
        <ele>913</ele>
        <time>2015-01-27T13:07:12Z</time>
      </trkpt>
      <trkpt lat="43.90188" lon="7.06143">
        <ele>912</ele>
        <time>2015-01-27T13:07:15Z</time>
      </trkpt>
      <trkpt lat="43.90191" lon="7.06147">
        <ele>912</ele>
        <time>2015-01-27T13:07:21Z</time>
      </trkpt>
      <trkpt lat="43.90192" lon="7.06154">
        <ele>911</ele>
        <time>2015-01-27T13:07:25Z</time>
      </trkpt>
      <trkpt lat="43.90187" lon="7.06166">
        <ele>909</ele>
        <time>2015-01-27T13:07:34Z</time>
      </trkpt>
      <trkpt lat="43.90172" lon="7.06183">
        <ele>906</ele>
        <time>2015-01-27T13:07:50Z</time>
      </trkpt>
      <trkpt lat="43.90171" lon="7.0619">
        <ele>906</ele>
        <time>2015-01-27T13:07:55Z</time>
      </trkpt>
      <trkpt lat="43.90176" lon="7.06201">
        <ele>905</ele>
        <time>2015-01-27T13:08:04Z</time>
      </trkpt>
      <trkpt lat="43.90174" lon="7.06207">
        <ele>905</ele>
        <time>2015-01-27T13:08:08Z</time>
      </trkpt>
      <trkpt lat="43.90167" lon="7.06208">
        <ele>904</ele>
        <time>2015-01-27T13:08:12Z</time>
      </trkpt>
      <trkpt lat="43.9016" lon="7.06208">
        <ele>903</ele>
        <time>2015-01-27T13:08:17Z</time>
      </trkpt>
      <trkpt lat="43.90126" lon="7.06195">
        <ele>896</ele>
        <time>2015-01-27T13:08:51Z</time>
      </trkpt>
      <trkpt lat="43.90122" lon="7.06193">
        <ele>894</ele>
        <time>2015-01-27T13:08:55Z</time>
      </trkpt>
      <trkpt lat="43.90112" lon="7.06196">
        <ele>893</ele>
        <time>2015-01-27T13:09:03Z</time>
      </trkpt>
      <trkpt lat="43.90091" lon="7.06179">
        <ele>887</ele>
        <time>2015-01-27T13:09:25Z</time>
      </trkpt>
      <trkpt lat="43.9009" lon="7.06186">
        <ele>886</ele>
        <time>2015-01-27T13:09:29Z</time>
      </trkpt>
      <trkpt lat="43.90087" lon="7.06191">
        <ele>884</ele>
        <time>2015-01-27T13:09:33Z</time>
      </trkpt>
      <trkpt lat="43.90082" lon="7.06188">
        <ele>883</ele>
        <time>2015-01-27T13:09:37Z</time>
      </trkpt>
      <trkpt lat="43.90078" lon="7.06183">
        <ele>882</ele>
        <time>2015-01-27T13:09:40Z</time>
      </trkpt>
      <trkpt lat="43.90073" lon="7.06183">
        <ele>881</ele>
        <time>2015-01-27T13:09:45Z</time>
      </trkpt>
      <trkpt lat="43.90059" lon="7.06186">
        <ele>876</ele>
        <time>2015-01-27T13:10:03Z</time>
      </trkpt>
      <trkpt lat="43.90025" lon="7.06178">
        <ele>870</ele>
        <time>2015-01-27T13:10:30Z</time>
      </trkpt>
      <trkpt lat="43.9002" lon="7.0618">
        <ele>870</ele>
        <time>2015-01-27T13:10:34Z</time>
      </trkpt>
      <trkpt lat="43.90015" lon="7.06179">
        <ele>870</ele>
        <time>2015-01-27T13:10:38Z</time>
      </trkpt>
      <trkpt lat="43.90011" lon="7.06176">
        <ele>870</ele>
        <time>2015-01-27T13:10:42Z</time>
      </trkpt>
      <trkpt lat="43.90007" lon="7.06179">
        <ele>870</ele>
        <time>2015-01-27T13:10:45Z</time>
      </trkpt>
      <trkpt lat="43.8997" lon="7.06176">
        <ele>862</ele>
        <time>2015-01-27T13:11:15Z</time>
      </trkpt>
      <trkpt lat="43.89965" lon="7.06174">
        <ele>861</ele>
        <time>2015-01-27T13:11:18Z</time>
      </trkpt>
      <trkpt lat="43.89952" lon="7.06162">
        <ele>859</ele>
        <time>2015-01-27T13:11:28Z</time>
      </trkpt>
      <trkpt lat="43.89928" lon="7.06151">
        <ele>853</ele>
        <time>2015-01-27T13:11:52Z</time>
      </trkpt>
      <trkpt lat="43.89924" lon="7.06144">
        <ele>852</ele>
        <time>2015-01-27T13:11:58Z</time>
      </trkpt>
      <trkpt lat="43.89919" lon="7.06143">
        <ele>851</ele>
        <time>2015-01-27T13:12:02Z</time>
      </trkpt>
      <trkpt lat="43.89906" lon="7.06149">
        <ele>847</ele>
        <time>2015-01-27T13:12:16Z</time>
      </trkpt>
      <trkpt lat="43.89903" lon="7.06152">
        <ele>845</ele>
        <time>2015-01-27T13:12:26Z</time>
      </trkpt>
      <trkpt lat="43.89899" lon="7.06153">
        <ele>844</ele>
        <time>2015-01-27T13:12:38Z</time>
      </trkpt>
      <trkpt lat="43.89895" lon="7.06156">
        <ele>843</ele>
        <time>2015-01-27T13:12:42Z</time>
      </trkpt>
      <trkpt lat="43.89852" lon="7.06169">
        <ele>834</ele>
        <time>2015-01-27T13:13:13Z</time>
      </trkpt>
      <trkpt lat="43.89847" lon="7.06171">
        <ele>833</ele>
        <time>2015-01-27T13:13:19Z</time>
      </trkpt>
      <trkpt lat="43.89844" lon="7.06171">
        <ele>832</ele>
        <time>2015-01-27T13:13:21Z</time>
      </trkpt>
      <trkpt lat="43.89837" lon="7.0617">
        <ele>832</ele>
        <time>2015-01-27T13:13:26Z</time>
      </trkpt>
      <trkpt lat="43.89833" lon="7.06167">
        <ele>831</ele>
        <time>2015-01-27T13:13:31Z</time>
      </trkpt>
      <trkpt lat="43.89807" lon="7.06165">
        <ele>829</ele>
        <time>2015-01-27T13:13:51Z</time>
      </trkpt>
      <trkpt lat="43.89796" lon="7.06168">
        <ele>830</ele>
        <time>2015-01-27T13:14:09Z</time>
      </trkpt>
      <trkpt lat="43.89791" lon="7.0617">
        <ele>830</ele>
        <time>2015-01-27T13:14:12Z</time>
      </trkpt>
      <trkpt lat="43.89762" lon="7.06209">
        <ele>826</ele>
        <time>2015-01-27T13:14:44Z</time>
      </trkpt>
      <trkpt lat="43.89744" lon="7.0624">
        <ele>820</ele>
        <time>2015-01-27T13:16:02Z</time>
      </trkpt>
      <trkpt lat="43.89729" lon="7.06262">
        <ele>814</ele>
        <time>2015-01-27T13:16:21Z</time>
      </trkpt>
      <trkpt lat="43.89724" lon="7.06263">
        <ele>813</ele>
        <time>2015-01-27T13:16:25Z</time>
      </trkpt>
      <trkpt lat="43.89695" lon="7.06258">
        <ele>806</ele>
        <time>2015-01-27T13:16:57Z</time>
      </trkpt>
      <trkpt lat="43.89685" lon="7.06261">
        <ele>803</ele>
        <time>2015-01-27T13:17:06Z</time>
      </trkpt>
      <trkpt lat="43.89666" lon="7.06262">
        <ele>797</ele>
        <time>2015-01-27T13:17:26Z</time>
      </trkpt>
      <trkpt lat="43.89664" lon="7.06256">
        <ele>795</ele>
        <time>2015-01-27T13:17:31Z</time>
      </trkpt>
      <trkpt lat="43.89659" lon="7.06253">
        <ele>794</ele>
        <time>2015-01-27T13:17:37Z</time>
      </trkpt>
      <trkpt lat="43.89649" lon="7.06257">
        <ele>792</ele>
        <time>2015-01-27T13:17:44Z</time>
      </trkpt>
      <trkpt lat="43.89645" lon="7.06254">
        <ele>791</ele>
        <time>2015-01-27T13:17:47Z</time>
      </trkpt>
      <trkpt lat="43.89643" lon="7.06248">
        <ele>790</ele>
        <time>2015-01-27T13:17:50Z</time>
      </trkpt>
      <trkpt lat="43.89643" lon="7.06222">
        <ele>788</ele>
        <time>2015-01-27T13:18:13Z</time>
      </trkpt>
      <trkpt lat="43.89637" lon="7.06212">
        <ele>786</ele>
        <time>2015-01-27T13:18:25Z</time>
      </trkpt>
      <trkpt lat="43.89632" lon="7.06212">
        <ele>785</ele>
        <time>2015-01-27T13:18:29Z</time>
      </trkpt>
      <trkpt lat="43.89621" lon="7.06213">
        <ele>782</ele>
        <time>2015-01-27T13:18:37Z</time>
      </trkpt>
      <trkpt lat="43.89612" lon="7.06204">
        <ele>781</ele>
        <time>2015-01-27T13:18:44Z</time>
      </trkpt>
      <trkpt lat="43.89611" lon="7.0619">
        <ele>779</ele>
        <time>2015-01-27T13:18:55Z</time>
      </trkpt>
      <trkpt lat="43.89607" lon="7.06188">
        <ele>778</ele>
        <time>2015-01-27T13:18:59Z</time>
      </trkpt>
      <trkpt lat="43.89597" lon="7.06184">
        <ele>776</ele>
        <time>2015-01-27T13:19:08Z</time>
      </trkpt>
      <trkpt lat="43.89592" lon="7.06185">
        <ele>774</ele>
        <time>2015-01-27T13:19:16Z</time>
      </trkpt>
      <trkpt lat="43.89563" lon="7.06172">
        <ele>769</ele>
        <time>2015-01-27T13:19:42Z</time>
      </trkpt>
      <trkpt lat="43.89526" lon="7.06145">
        <ele>762</ele>
        <time>2015-01-27T13:20:15Z</time>
      </trkpt>
      <trkpt lat="43.895" lon="7.0611">
        <ele>753</ele>
        <time>2015-01-27T13:20:46Z</time>
      </trkpt>
      <trkpt lat="43.89486" lon="7.06091">
        <ele>748</ele>
        <time>2015-01-27T13:21:03Z</time>
      </trkpt>
      <trkpt lat="43.89481" lon="7.06091">
        <ele>747</ele>
        <time>2015-01-27T13:21:08Z</time>
      </trkpt>
      <trkpt lat="43.89477" lon="7.06088">
        <ele>745</ele>
        <time>2015-01-27T13:21:13Z</time>
      </trkpt>
      <trkpt lat="43.89473" lon="7.06082">
        <ele>744</ele>
        <time>2015-01-27T13:21:18Z</time>
      </trkpt>
      <trkpt lat="43.89469" lon="7.06085">
        <ele>743</ele>
        <time>2015-01-27T13:21:25Z</time>
      </trkpt>
      <trkpt lat="43.89465" lon="7.06082">
        <ele>742</ele>
        <time>2015-01-27T13:21:30Z</time>
      </trkpt>
      <trkpt lat="43.89441" lon="7.06061">
        <ele>734</ele>
        <time>2015-01-27T13:21:55Z</time>
      </trkpt>
      <trkpt lat="43.89411" lon="7.06059">
        <ele>724</ele>
        <time>2015-01-27T13:22:25Z</time>
      </trkpt>
      <trkpt lat="43.89377" lon="7.06051">
        <ele>715</ele>
        <time>2015-01-27T13:22:58Z</time>
      </trkpt>
      <trkpt lat="43.89341" lon="7.06045">
        <ele>706</ele>
        <time>2015-01-27T13:23:33Z</time>
      </trkpt>
      <trkpt lat="43.89338" lon="7.0605">
        <ele>705</ele>
        <time>2015-01-27T13:23:55Z</time>
      </trkpt>
      <trkpt lat="43.8934" lon="7.06054">
        <ele>705</ele>
        <time>2015-01-27T13:24:14Z</time>
      </trkpt>
      <trkpt lat="43.89345" lon="7.06058">
        <ele>705</ele>
        <time>2015-01-27T13:24:19Z</time>
      </trkpt>
      <trkpt lat="43.8937" lon="7.06077">
        <ele>709</ele>
        <time>2015-01-27T13:24:49Z</time>
      </trkpt>
      <trkpt lat="43.89393" lon="7.06126">
        <ele>712</ele>
        <time>2015-01-27T13:25:23Z</time>
      </trkpt>
      <trkpt lat="43.894" lon="7.06138">
        <ele>712</ele>
        <time>2015-01-27T13:25:31Z</time>
      </trkpt>
      <trkpt lat="43.8941" lon="7.06193">
        <ele>710</ele>
        <time>2015-01-27T13:26:00Z</time>
      </trkpt>
      <trkpt lat="43.89438" lon="7.06229">
        <ele>708</ele>
        <time>2015-01-27T13:26:28Z</time>
      </trkpt>
      <trkpt lat="43.89474" lon="7.06268">
        <ele>706</ele>
        <time>2015-01-27T13:27:00Z</time>
      </trkpt>
      <trkpt lat="43.89507" lon="7.06304">
        <ele>703</ele>
        <time>2015-01-27T13:27:30Z</time>
      </trkpt>
      <trkpt lat="43.89524" lon="7.0632">
        <ele>702</ele>
        <time>2015-01-27T13:27:55Z</time>
      </trkpt>
      <trkpt lat="43.89528" lon="7.06317">
        <ele>701</ele>
        <time>2015-01-27T13:28:12Z</time>
      </trkpt>
      <trkpt lat="43.89533" lon="7.06321">
        <ele>701</ele>
        <time>2015-01-27T13:28:18Z</time>
      </trkpt>
      <trkpt lat="43.89537" lon="7.06333">
        <ele>701</ele>
        <time>2015-01-27T13:28:29Z</time>
      </trkpt>
      <trkpt lat="43.89535" lon="7.06339">
        <ele>701</ele>
        <time>2015-01-27T13:28:33Z</time>
      </trkpt>
      <trkpt lat="43.89505" lon="7.0636">
        <ele>702</ele>
        <time>2015-01-27T13:28:57Z</time>
      </trkpt>
      <trkpt lat="43.89497" lon="7.06362">
        <ele>702</ele>
        <time>2015-01-27T13:29:02Z</time>
      </trkpt>
      <trkpt lat="43.89492" lon="7.0636">
        <ele>702</ele>
        <time>2015-01-27T13:29:06Z</time>
      </trkpt>
      <trkpt lat="43.89456" lon="7.06368">
        <ele>705</ele>
        <time>2015-01-27T13:29:33Z</time>
      </trkpt>
      <trkpt lat="43.89422" lon="7.06397">
        <ele>708</ele>
        <time>2015-01-27T13:30:03Z</time>
      </trkpt>
      <trkpt lat="43.89417" lon="7.06401">
        <ele>708</ele>
        <time>2015-01-27T13:30:06Z</time>
      </trkpt>
      <trkpt lat="43.89392" lon="7.06436">
        <ele>712</ele>
        <time>2015-01-27T13:30:37Z</time>
      </trkpt>
      <trkpt lat="43.89359" lon="7.06472">
        <ele>716</ele>
        <time>2015-01-27T13:31:09Z</time>
      </trkpt>
      <trkpt lat="43.89318" lon="7.0649">
        <ele>719</ele>
        <time>2015-01-27T13:31:41Z</time>
      </trkpt>
      <trkpt lat="43.89276" lon="7.06476">
        <ele>721</ele>
        <time>2015-01-27T13:32:13Z</time>
      </trkpt>
      <trkpt lat="43.89272" lon="7.06476">
        <ele>721</ele>
        <time>2015-01-27T13:32:17Z</time>
      </trkpt>
      <trkpt lat="43.89233" lon="7.06505">
        <ele>721</ele>
        <time>2015-01-27T13:32:49Z</time>
      </trkpt>
      <trkpt lat="43.89199" lon="7.06538">
        <ele>718</ele>
        <time>2015-01-27T13:33:21Z</time>
      </trkpt>
      <trkpt lat="43.8916" lon="7.06563">
        <ele>714</ele>
        <time>2015-01-27T13:33:53Z</time>
      </trkpt>
      <trkpt lat="43.89121" lon="7.066">
        <ele>708</ele>
        <time>2015-01-27T13:34:27Z</time>
      </trkpt>
      <trkpt lat="43.89086" lon="7.0663">
        <ele>702</ele>
        <time>2015-01-27T13:35:03Z</time>
      </trkpt>
      <trkpt lat="43.89047" lon="7.06646">
        <ele>696</ele>
        <time>2015-01-27T13:35:35Z</time>
      </trkpt>
      <trkpt lat="43.89026" lon="7.06701">
        <ele>691</ele>
        <time>2015-01-27T13:36:06Z</time>
      </trkpt>
      <trkpt lat="43.89023" lon="7.06706">
        <ele>690</ele>
        <time>2015-01-27T13:36:10Z</time>
      </trkpt>
      <trkpt lat="43.89019" lon="7.06708">
        <ele>689</ele>
        <time>2015-01-27T13:36:16Z</time>
      </trkpt>
      <trkpt lat="43.88976" lon="7.06732">
        <ele>684</ele>
        <time>2015-01-27T13:36:49Z</time>
      </trkpt>
      <trkpt lat="43.88971" lon="7.06732">
        <ele>684</ele>
        <time>2015-01-27T13:36:53Z</time>
      </trkpt>
      <trkpt lat="43.88951" lon="7.06727">
        <ele>682</ele>
        <time>2015-01-27T13:37:09Z</time>
      </trkpt>
      <trkpt lat="43.8891" lon="7.06737">
        <ele>678</ele>
        <time>2015-01-27T13:37:41Z</time>
      </trkpt>
      <trkpt lat="43.8887" lon="7.06731">
        <ele>675</ele>
        <time>2015-01-27T13:38:16Z</time>
      </trkpt>
      <trkpt lat="43.88825" lon="7.06724">
        <ele>671</ele>
        <time>2015-01-27T13:38:48Z</time>
      </trkpt>
      <trkpt lat="43.88801" lon="7.06732">
        <ele>670</ele>
        <time>2015-01-27T13:39:04Z</time>
      </trkpt>
      <trkpt lat="43.88775" lon="7.06778">
        <ele>669</ele>
        <time>2015-01-27T13:39:34Z</time>
      </trkpt>
      <trkpt lat="43.88767" lon="7.06787">
        <ele>668</ele>
        <time>2015-01-27T13:39:42Z</time>
      </trkpt>
      <trkpt lat="43.88762" lon="7.06786">
        <ele>668</ele>
        <time>2015-01-27T13:39:46Z</time>
      </trkpt>
      <trkpt lat="43.88744" lon="7.06771">
        <ele>668</ele>
        <time>2015-01-27T13:40:01Z</time>
      </trkpt>
      <trkpt lat="43.88733" lon="7.06771">
        <ele>667</ele>
        <time>2015-01-27T13:40:09Z</time>
      </trkpt>
      <trkpt lat="43.88702" lon="7.06813">
        <ele>664</ele>
        <time>2015-01-27T13:40:39Z</time>
      </trkpt>
      <trkpt lat="43.88697" lon="7.06812">
        <ele>664</ele>
        <time>2015-01-27T13:40:47Z</time>
      </trkpt>
      <trkpt lat="43.88651" lon="7.06787">
        <ele>661</ele>
        <time>2015-01-27T13:41:17Z</time>
      </trkpt>
      <trkpt lat="43.88645" lon="7.06785">
        <ele>661</ele>
        <time>2015-01-27T13:41:23Z</time>
      </trkpt>
      <trkpt lat="43.88616" lon="7.06783">
        <ele>658</ele>
        <time>2015-01-27T13:41:49Z</time>
      </trkpt>
      <trkpt lat="43.88604" lon="7.068">
        <ele>657</ele>
        <time>2015-01-27T13:42:01Z</time>
      </trkpt>
      <trkpt lat="43.88601" lon="7.06828">
        <ele>656</ele>
        <time>2015-01-27T13:42:15Z</time>
      </trkpt>
      <trkpt lat="43.88595" lon="7.06828">
        <ele>655</ele>
        <time>2015-01-27T13:42:20Z</time>
      </trkpt>
      <trkpt lat="43.88573" lon="7.06836">
        <ele>653</ele>
        <time>2015-01-27T13:42:40Z</time>
      </trkpt>
      <trkpt lat="43.88567" lon="7.06833">
        <ele>652</ele>
        <time>2015-01-27T13:42:44Z</time>
      </trkpt>
      <trkpt lat="43.88526" lon="7.06803">
        <ele>651</ele>
        <time>2015-01-27T13:43:18Z</time>
      </trkpt>
      <trkpt lat="43.88488" lon="7.06786">
        <ele>649</ele>
        <time>2015-01-27T13:43:48Z</time>
      </trkpt>
      <trkpt lat="43.88458" lon="7.06785">
        <ele>647</ele>
        <time>2015-01-27T13:44:13Z</time>
      </trkpt>
      <trkpt lat="43.88433" lon="7.06802">
        <ele>648</ele>
        <time>2015-01-27T13:44:34Z</time>
      </trkpt>
      <trkpt lat="43.88395" lon="7.06825">
        <ele>645</ele>
        <time>2015-01-27T13:45:04Z</time>
      </trkpt>
      <trkpt lat="43.88379" lon="7.06838">
        <ele>643</ele>
        <time>2015-01-27T13:45:20Z</time>
      </trkpt>
      <trkpt lat="43.88354" lon="7.06904">
        <ele>639</ele>
        <time>2015-01-27T13:45:56Z</time>
      </trkpt>
      <trkpt lat="43.88349" lon="7.06905">
        <ele>638</ele>
        <time>2015-01-27T13:46:01Z</time>
      </trkpt>
      <trkpt lat="43.88308" lon="7.06914">
        <ele>635</ele>
        <time>2015-01-27T13:46:32Z</time>
      </trkpt>
      <trkpt lat="43.88294" lon="7.06924">
        <ele>634</ele>
        <time>2015-01-27T13:46:44Z</time>
      </trkpt>
      <trkpt lat="43.88285" lon="7.0695">
        <ele>633</ele>
        <time>2015-01-27T13:47:00Z</time>
      </trkpt>
      <trkpt lat="43.88284" lon="7.06957">
        <ele>633</ele>
        <time>2015-01-27T13:47:03Z</time>
      </trkpt>
      <trkpt lat="43.88284" lon="7.06963">
        <ele>632</ele>
        <time>2015-01-27T13:47:06Z</time>
      </trkpt>
      <trkpt lat="43.88283" lon="7.07002">
        <ele>630</ele>
        <time>2015-01-27T13:47:25Z</time>
      </trkpt>
      <trkpt lat="43.8828" lon="7.0701">
        <ele>630</ele>
        <time>2015-01-27T13:47:29Z</time>
      </trkpt>
      <trkpt lat="43.88275" lon="7.07009">
        <ele>630</ele>
        <time>2015-01-27T13:47:35Z</time>
      </trkpt>
      <trkpt lat="43.88222" lon="7.07019">
        <ele>629</ele>
        <time>2015-01-27T13:48:08Z</time>
      </trkpt>
      <trkpt lat="43.88187" lon="7.07059">
        <ele>626</ele>
        <time>2015-01-27T13:48:42Z</time>
      </trkpt>
      <trkpt lat="43.88165" lon="7.07104">
        <ele>623</ele>
        <time>2015-01-27T13:49:13Z</time>
      </trkpt>
      <trkpt lat="43.88137" lon="7.07113">
        <ele>621</ele>
        <time>2015-01-27T13:49:33Z</time>
      </trkpt>
      <trkpt lat="43.88097" lon="7.07119">
        <ele>617</ele>
        <time>2015-01-27T13:50:03Z</time>
      </trkpt>
      <trkpt lat="43.88062" lon="7.07147">
        <ele>613</ele>
        <time>2015-01-27T13:50:35Z</time>
      </trkpt>
      <trkpt lat="43.88033" lon="7.07165">
        <ele>608</ele>
        <time>2015-01-27T13:51:06Z</time>
      </trkpt>
      <trkpt lat="43.88" lon="7.07181">
        <ele>605</ele>
        <time>2015-01-27T13:51:40Z</time>
      </trkpt>
      <trkpt lat="43.87981" lon="7.07226">
        <ele>603</ele>
        <time>2015-01-27T13:52:08Z</time>
      </trkpt>
      <trkpt lat="43.87963" lon="7.07283">
        <ele>602</ele>
        <time>2015-01-27T13:52:40Z</time>
      </trkpt>
      <trkpt lat="43.87942" lon="7.07337">
        <ele>600</ele>
        <time>2015-01-27T13:53:12Z</time>
      </trkpt>
      <trkpt lat="43.8792" lon="7.07393">
        <ele>597</ele>
        <time>2015-01-27T13:53:43Z</time>
      </trkpt>
      <trkpt lat="43.87901" lon="7.07446">
        <ele>596</ele>
        <time>2015-01-27T13:54:15Z</time>
      </trkpt>
      <trkpt lat="43.87874" lon="7.07492">
        <ele>591</ele>
        <time>2015-01-27T13:54:47Z</time>
      </trkpt>
      <trkpt lat="43.87876" lon="7.07528">
        <ele>589</ele>
        <time>2015-01-27T13:55:04Z</time>
      </trkpt>
      <trkpt lat="43.87873" lon="7.07533">
        <ele>589</ele>
        <time>2015-01-27T13:55:08Z</time>
      </trkpt>
      <trkpt lat="43.8787" lon="7.07535">
        <ele>589</ele>
        <time>2015-01-27T13:55:09Z</time>
      </trkpt>
      <trkpt lat="43.87848" lon="7.07567">
        <ele>586</ele>
        <time>2015-01-27T13:55:41Z</time>
      </trkpt>
      <trkpt lat="43.87832" lon="7.07586">
        <ele>583</ele>
        <time>2015-01-27T13:55:59Z</time>
      </trkpt>
      <trkpt lat="43.8781" lon="7.07629">
        <ele>582</ele>
        <time>2015-01-27T13:56:26Z</time>
      </trkpt>
      <trkpt lat="43.87812" lon="7.07633">
        <ele>582</ele>
        <time>2015-01-27T13:56:28Z</time>
      </trkpt>
      <trkpt lat="43.87819" lon="7.07641">
        <ele>581</ele>
        <time>2015-01-27T13:56:34Z</time>
      </trkpt>
      <trkpt lat="43.87822" lon="7.07646">
        <ele>581</ele>
        <time>2015-01-27T13:56:41Z</time>
      </trkpt>
      <trkpt lat="43.87838" lon="7.07657">
        <ele>580</ele>
        <time>2015-01-27T13:56:52Z</time>
      </trkpt>
      <trkpt lat="43.87842" lon="7.07657">
        <ele>579</ele>
        <time>2015-01-27T13:56:57Z</time>
      </trkpt>
      <trkpt lat="43.87847" lon="7.07661">
        <ele>579</ele>
        <time>2015-01-27T13:57:01Z</time>
      </trkpt>
      <trkpt lat="43.87877" lon="7.07699">
        <ele>574</ele>
        <time>2015-01-27T13:57:32Z</time>
      </trkpt>
      <trkpt lat="43.8788" lon="7.07707">
        <ele>574</ele>
        <time>2015-01-27T13:57:35Z</time>
      </trkpt>
      <trkpt lat="43.87886" lon="7.07713">
        <ele>573</ele>
        <time>2015-01-27T13:57:40Z</time>
      </trkpt>
      <trkpt lat="43.87895" lon="7.07714">
        <ele>572</ele>
        <time>2015-01-27T13:57:55Z</time>
      </trkpt>
      <trkpt lat="43.87897" lon="7.07715">
        <ele>572</ele>
        <time>2015-01-27T13:58:06Z</time>
      </trkpt>
      <trkpt lat="43.87925" lon="7.07724">
        <ele>568</ele>
        <time>2015-01-27T13:58:37Z</time>
      </trkpt>
      <trkpt lat="43.87964" lon="7.07744">
        <ele>563</ele>
        <time>2015-01-27T13:59:10Z</time>
      </trkpt>
      <trkpt lat="43.87967" lon="7.07748">
        <ele>562</ele>
        <time>2015-01-27T13:59:13Z</time>
      </trkpt>
      <trkpt lat="43.8797" lon="7.07763">
        <ele>561</ele>
        <time>2015-01-27T13:59:19Z</time>
      </trkpt>
      <trkpt lat="43.87967" lon="7.07783">
        <ele>559</ele>
        <time>2015-01-27T13:59:30Z</time>
      </trkpt>
      <trkpt lat="43.87963" lon="7.07789">
        <ele>559</ele>
        <time>2015-01-27T13:59:33Z</time>
      </trkpt>
      <trkpt lat="43.87958" lon="7.0781">
        <ele>557</ele>
        <time>2015-01-27T13:59:44Z</time>
      </trkpt>
      <trkpt lat="43.8796" lon="7.07816">
        <ele>556</ele>
        <time>2015-01-27T13:59:48Z</time>
      </trkpt>
      <trkpt lat="43.87961" lon="7.07823">
        <ele>555</ele>
        <time>2015-01-27T13:59:52Z</time>
      </trkpt>
      <trkpt lat="43.87956" lon="7.07825">
        <ele>555</ele>
        <time>2015-01-27T13:59:57Z</time>
      </trkpt>
      <trkpt lat="43.87952" lon="7.07821">
        <ele>554</ele>
        <time>2015-01-27T14:00:01Z</time>
      </trkpt>
      <trkpt lat="43.87952" lon="7.07814">
        <ele>554</ele>
        <time>2015-01-27T14:00:05Z</time>
      </trkpt>
      <trkpt lat="43.87957" lon="7.07786">
        <ele>552</ele>
        <time>2015-01-27T14:00:21Z</time>
      </trkpt>
      <trkpt lat="43.87954" lon="7.0778">
        <ele>551</ele>
        <time>2015-01-27T14:00:26Z</time>
      </trkpt>
      <trkpt lat="43.87907" lon="7.07771">
        <ele>545</ele>
        <time>2015-01-27T14:00:59Z</time>
      </trkpt>
      <trkpt lat="43.87892" lon="7.07766">
        <ele>544</ele>
        <time>2015-01-27T14:01:11Z</time>
      </trkpt>
      <trkpt lat="43.87888" lon="7.07768">
        <ele>544</ele>
        <time>2015-01-27T14:01:14Z</time>
      </trkpt>
      <trkpt lat="43.87884" lon="7.07772">
        <ele>543</ele>
        <time>2015-01-27T14:01:17Z</time>
      </trkpt>
      <trkpt lat="43.87887" lon="7.07777">
        <ele>543</ele>
        <time>2015-01-27T14:01:20Z</time>
      </trkpt>
      <trkpt lat="43.87892" lon="7.07781">
        <ele>543</ele>
        <time>2015-01-27T14:01:24Z</time>
      </trkpt>
      <trkpt lat="43.8792" lon="7.0779">
        <ele>541</ele>
        <time>2015-01-27T14:01:50Z</time>
      </trkpt>
      <trkpt lat="43.87929" lon="7.07807">
        <ele>540</ele>
        <time>2015-01-27T14:02:01Z</time>
      </trkpt>
      <trkpt lat="43.87928" lon="7.07814">
        <ele>540</ele>
        <time>2015-01-27T14:02:05Z</time>
      </trkpt>
      <trkpt lat="43.87919" lon="7.07838">
        <ele>538</ele>
        <time>2015-01-27T14:02:17Z</time>
      </trkpt>
      <trkpt lat="43.87919" lon="7.07844">
        <ele>537</ele>
        <time>2015-01-27T14:02:22Z</time>
      </trkpt>
      <trkpt lat="43.87916" lon="7.07851">
        <ele>535</ele>
        <time>2015-01-27T14:02:45Z</time>
      </trkpt>
      <trkpt lat="43.87911" lon="7.07852">
        <ele>534</ele>
        <time>2015-01-27T14:02:50Z</time>
      </trkpt>
      <trkpt lat="43.87908" lon="7.07858">
        <ele>532</ele>
        <time>2015-01-27T14:02:55Z</time>
      </trkpt>
      <trkpt lat="43.87909" lon="7.07868">
        <ele>529</ele>
        <time>2015-01-27T14:03:05Z</time>
      </trkpt>
      <trkpt lat="43.87906" lon="7.07874">
        <ele>528</ele>
        <time>2015-01-27T14:03:10Z</time>
      </trkpt>
      <trkpt lat="43.87901" lon="7.07877">
        <ele>526</ele>
        <time>2015-01-27T14:03:15Z</time>
      </trkpt>
      <trkpt lat="43.87892" lon="7.07881">
        <ele>524</ele>
        <time>2015-01-27T14:03:26Z</time>
      </trkpt>
      <trkpt lat="43.87883" lon="7.07898">
        <ele>520</ele>
        <time>2015-01-27T14:03:40Z</time>
      </trkpt>
      <trkpt lat="43.87886" lon="7.07904">
        <ele>519</ele>
        <time>2015-01-27T14:03:45Z</time>
      </trkpt>
      <trkpt lat="43.87889" lon="7.07908">
        <ele>517</ele>
        <time>2015-01-27T14:03:54Z</time>
      </trkpt>
      <trkpt lat="43.8789" lon="7.07912">
        <ele>515</ele>
        <time>2015-01-27T14:04:28Z</time>
      </trkpt>
      <trkpt lat="43.87893" lon="7.07916">
        <ele>514</ele>
        <time>2015-01-27T14:05:08Z</time>
      </trkpt>
      <trkpt lat="43.87893" lon="7.0792">
        <ele>512</ele>
        <time>2015-01-27T14:05:19Z</time>
      </trkpt>
      <trkpt lat="43.87889" lon="7.07923">
        <ele>510</ele>
        <time>2015-01-27T14:05:29Z</time>
      </trkpt>
      <trkpt lat="43.8789" lon="7.07928">
        <ele>508</ele>
        <time>2015-01-27T14:05:43Z</time>
      </trkpt>
      <trkpt lat="43.87895" lon="7.07938">
        <ele>505</ele>
        <time>2015-01-27T14:06:00Z</time>
      </trkpt>
      <trkpt lat="43.87896" lon="7.07943">
        <ele>504</ele>
        <time>2015-01-27T14:06:17Z</time>
      </trkpt>
      <trkpt lat="43.879" lon="7.07939">
        <ele>502</ele>
        <time>2015-01-27T14:07:21Z</time>
      </trkpt>
      <trkpt lat="43.87902" lon="7.07944">
        <ele>502</ele>
        <time>2015-01-27T14:07:44Z</time>
      </trkpt>
      <trkpt lat="43.879" lon="7.07946">
        <ele>502</ele>
        <time>2015-01-27T14:07:50Z</time>
      </trkpt>
      <trkpt lat="43.87894" lon="7.07947">
        <ele>502</ele>
        <time>2015-01-27T14:08:06Z</time>
      </trkpt>
      <trkpt lat="43.87889" lon="7.07951">
        <ele>502</ele>
        <time>2015-01-27T14:08:19Z</time>
      </trkpt>
      <trkpt lat="43.87886" lon="7.07956">
        <ele>503</ele>
        <time>2015-01-27T14:08:25Z</time>
      </trkpt>
      <trkpt lat="43.87867" lon="7.0798">
        <ele>506</ele>
        <time>2015-01-27T14:08:58Z</time>
      </trkpt>
      <trkpt lat="43.8786" lon="7.0802">
        <ele>516</ele>
        <time>2015-01-27T14:09:41Z</time>
      </trkpt>
      <trkpt lat="43.87853" lon="7.08025">
        <ele>520</ele>
        <time>2015-01-27T14:10:57Z</time>
      </trkpt>
      <trkpt lat="43.87854" lon="7.08021">
        <ele>521</ele>
        <time>2015-01-27T14:13:27Z</time>
      </trkpt>
      <trkpt lat="43.87852" lon="7.08021">
        <ele>521</ele>
        <time>2015-01-27T14:14:31Z</time>
      </trkpt>
      <trkpt lat="43.87848" lon="7.08027">
        <ele>521</ele>
        <time>2015-01-27T14:14:35Z</time>
      </trkpt>
      <trkpt lat="43.87837" lon="7.0804">
        <ele>522</ele>
        <time>2015-01-27T14:14:47Z</time>
      </trkpt>
      <trkpt lat="43.87832" lon="7.08042">
        <ele>522</ele>
        <time>2015-01-27T14:14:54Z</time>
      </trkpt>
      <trkpt lat="43.87803" lon="7.08073">
        <ele>516</ele>
        <time>2015-01-27T14:15:24Z</time>
      </trkpt>
      <trkpt lat="43.87799" lon="7.08078">
        <ele>516</ele>
        <time>2015-01-27T14:15:28Z</time>
      </trkpt>
      <trkpt lat="43.87796" lon="7.08079">
        <ele>514</ele>
        <time>2015-01-27T14:15:54Z</time>
      </trkpt>
      <trkpt lat="43.87795" lon="7.08073">
        <ele>514</ele>
        <time>2015-01-27T14:16:06Z</time>
      </trkpt>
      <trkpt lat="43.87795" lon="7.08066">
        <ele>514</ele>
        <time>2015-01-27T14:16:12Z</time>
      </trkpt>
      <trkpt lat="43.87793" lon="7.08064">
        <ele>516</ele>
        <time>2015-01-27T14:16:29Z</time>
      </trkpt>
      <trkpt lat="43.87793" lon="7.08056">
        <ele>516</ele>
        <time>2015-01-27T14:16:34Z</time>
      </trkpt>
      <trkpt lat="43.8779" lon="7.08031">
        <ele>520</ele>
        <time>2015-01-27T14:16:56Z</time>
      </trkpt>
      <trkpt lat="43.87786" lon="7.08025">
        <ele>521</ele>
        <time>2015-01-27T14:17:03Z</time>
      </trkpt>
      <trkpt lat="43.87783" lon="7.08025">
        <ele>522</ele>
        <time>2015-01-27T14:17:10Z</time>
      </trkpt>
      <trkpt lat="43.87776" lon="7.08032">
        <ele>524</ele>
        <time>2015-01-27T14:17:43Z</time>
      </trkpt>
      <trkpt lat="43.87776" lon="7.08039">
        <ele>524</ele>
        <time>2015-01-27T14:17:48Z</time>
      </trkpt>
      <trkpt lat="43.87776" lon="7.08046">
        <ele>526</ele>
        <time>2015-01-27T14:17:54Z</time>
      </trkpt>
      <trkpt lat="43.8777" lon="7.08056">
        <ele>528</ele>
        <time>2015-01-27T14:18:04Z</time>
      </trkpt>
      <trkpt lat="43.87768" lon="7.08053">
        <ele>528</ele>
        <time>2015-01-27T14:18:11Z</time>
      </trkpt>
      <trkpt lat="43.87767" lon="7.08045">
        <ele>529</ele>
        <time>2015-01-27T14:18:50Z</time>
      </trkpt>
      <trkpt lat="43.87764" lon="7.08039">
        <ele>532</ele>
        <time>2015-01-27T14:18:56Z</time>
      </trkpt>
      <trkpt lat="43.87764" lon="7.08032">
        <ele>533</ele>
        <time>2015-01-27T14:19:01Z</time>
      </trkpt>
      <trkpt lat="43.87766" lon="7.08025">
        <ele>535</ele>
        <time>2015-01-27T14:19:06Z</time>
      </trkpt>
      <trkpt lat="43.87768" lon="7.08011">
        <ele>536</ele>
        <time>2015-01-27T14:19:15Z</time>
      </trkpt>
      <trkpt lat="43.87764" lon="7.08005">
        <ele>537</ele>
        <time>2015-01-27T14:19:21Z</time>
      </trkpt>
      <trkpt lat="43.8776" lon="7.08003">
        <ele>538</ele>
        <time>2015-01-27T14:19:26Z</time>
      </trkpt>
      <trkpt lat="43.8775" lon="7.08006">
        <ele>540</ele>
        <time>2015-01-27T14:19:36Z</time>
      </trkpt>
      <trkpt lat="43.87738" lon="7.08016">
        <ele>542</ele>
        <time>2015-01-27T14:19:48Z</time>
      </trkpt>
      <trkpt lat="43.87722" lon="7.08018">
        <ele>543</ele>
        <time>2015-01-27T14:20:02Z</time>
      </trkpt>
      <trkpt lat="43.87715" lon="7.08025">
        <ele>545</ele>
        <time>2015-01-27T14:20:16Z</time>
      </trkpt>
      <trkpt lat="43.87701" lon="7.08031">
        <ele>546</ele>
        <time>2015-01-27T14:20:46Z</time>
      </trkpt>
      <trkpt lat="43.87693" lon="7.08037">
        <ele>548</ele>
        <time>2015-01-27T14:20:58Z</time>
      </trkpt>
      <trkpt lat="43.87693" lon="7.08043">
        <ele>549</ele>
        <time>2015-01-27T14:21:05Z</time>
      </trkpt>
      <trkpt lat="43.87698" lon="7.08043">
        <ele>550</ele>
        <time>2015-01-27T14:21:11Z</time>
      </trkpt>
      <trkpt lat="43.87703" lon="7.08042">
        <ele>551</ele>
        <time>2015-01-27T14:21:16Z</time>
      </trkpt>
      <trkpt lat="43.87707" lon="7.08046">
        <ele>552</ele>
        <time>2015-01-27T14:21:22Z</time>
      </trkpt>
      <trkpt lat="43.87712" lon="7.08046">
        <ele>554</ele>
        <time>2015-01-27T14:21:27Z</time>
      </trkpt>
      <trkpt lat="43.87716" lon="7.08045">
        <ele>555</ele>
        <time>2015-01-27T14:21:32Z</time>
      </trkpt>
      <trkpt lat="43.8773" lon="7.08052">
        <ele>558</ele>
        <time>2015-01-27T14:21:48Z</time>
      </trkpt>
      <trkpt lat="43.87725" lon="7.08055">
        <ele>559</ele>
        <time>2015-01-27T14:21:52Z</time>
      </trkpt>
      <trkpt lat="43.87716" lon="7.08058">
        <ele>560</ele>
        <time>2015-01-27T14:22:01Z</time>
      </trkpt>
      <trkpt lat="43.87715" lon="7.08064">
        <ele>561</ele>
        <time>2015-01-27T14:22:08Z</time>
      </trkpt>
      <trkpt lat="43.87715" lon="7.0807">
        <ele>563</ele>
        <time>2015-01-27T14:22:18Z</time>
      </trkpt>
      <trkpt lat="43.8771" lon="7.08074">
        <ele>564</ele>
        <time>2015-01-27T14:22:25Z</time>
      </trkpt>
      <trkpt lat="43.87703" lon="7.08082">
        <ele>567</ele>
        <time>2015-01-27T14:22:38Z</time>
      </trkpt>
      <trkpt lat="43.87706" lon="7.08086">
        <ele>568</ele>
        <time>2015-01-27T14:22:44Z</time>
      </trkpt>
      <trkpt lat="43.87715" lon="7.08093">
        <ele>571</ele>
        <time>2015-01-27T14:22:55Z</time>
      </trkpt>
      <trkpt lat="43.87715" lon="7.081">
        <ele>572</ele>
        <time>2015-01-27T14:23:00Z</time>
      </trkpt>
      <trkpt lat="43.8771" lon="7.08097">
        <ele>573</ele>
        <time>2015-01-27T14:23:06Z</time>
      </trkpt>
      <trkpt lat="43.87706" lon="7.08094">
        <ele>573</ele>
        <time>2015-01-27T14:23:10Z</time>
      </trkpt>
      <trkpt lat="43.87696" lon="7.08096">
        <ele>575</ele>
        <time>2015-01-27T14:23:19Z</time>
      </trkpt>
      <trkpt lat="43.87694" lon="7.08102">
        <ele>576</ele>
        <time>2015-01-27T14:23:25Z</time>
      </trkpt>
      <trkpt lat="43.87698" lon="7.08107">
        <ele>577</ele>
        <time>2015-01-27T14:23:31Z</time>
      </trkpt>
      <trkpt lat="43.87704" lon="7.08115">
        <ele>579</ele>
        <time>2015-01-27T14:23:42Z</time>
      </trkpt>
      <trkpt lat="43.87702" lon="7.08121">
        <ele>580</ele>
        <time>2015-01-27T14:23:46Z</time>
      </trkpt>
      <trkpt lat="43.87697" lon="7.08122">
        <ele>581</ele>
        <time>2015-01-27T14:23:51Z</time>
      </trkpt>
      <trkpt lat="43.87694" lon="7.08118">
        <ele>581</ele>
        <time>2015-01-27T14:23:55Z</time>
      </trkpt>
      <trkpt lat="43.87689" lon="7.08117">
        <ele>583</ele>
        <time>2015-01-27T14:24:00Z</time>
      </trkpt>
      <trkpt lat="43.87675" lon="7.08124">
        <ele>585</ele>
        <time>2015-01-27T14:24:15Z</time>
      </trkpt>
      <trkpt lat="43.87672" lon="7.08129">
        <ele>586</ele>
        <time>2015-01-27T14:24:20Z</time>
      </trkpt>
      <trkpt lat="43.87676" lon="7.08134">
        <ele>587</ele>
        <time>2015-01-27T14:24:25Z</time>
      </trkpt>
      <trkpt lat="43.87676" lon="7.08141">
        <ele>587</ele>
        <time>2015-01-27T14:24:30Z</time>
      </trkpt>
      <trkpt lat="43.87672" lon="7.08145">
        <ele>588</ele>
        <time>2015-01-27T14:24:34Z</time>
      </trkpt>
      <trkpt lat="43.87667" lon="7.08148">
        <ele>589</ele>
        <time>2015-01-27T14:24:39Z</time>
      </trkpt>
      <trkpt lat="43.87663" lon="7.08145">
        <ele>590</ele>
        <time>2015-01-27T14:24:46Z</time>
      </trkpt>
      <trkpt lat="43.87662" lon="7.08137">
        <ele>591</ele>
        <time>2015-01-27T14:24:50Z</time>
      </trkpt>
      <trkpt lat="43.87658" lon="7.08135">
        <ele>592</ele>
        <time>2015-01-27T14:24:55Z</time>
      </trkpt>
      <trkpt lat="43.87654" lon="7.08139">
        <ele>593</ele>
        <time>2015-01-27T14:25:01Z</time>
      </trkpt>
      <trkpt lat="43.87643" lon="7.08154">
        <ele>597</ele>
        <time>2015-01-27T14:25:21Z</time>
      </trkpt>
      <trkpt lat="43.8764" lon="7.08149">
        <ele>598</ele>
        <time>2015-01-27T14:25:28Z</time>
      </trkpt>
      <trkpt lat="43.87638" lon="7.08143">
        <ele>599</ele>
        <time>2015-01-27T14:25:33Z</time>
      </trkpt>
      <trkpt lat="43.8764" lon="7.08136">
        <ele>600</ele>
        <time>2015-01-27T14:25:38Z</time>
      </trkpt>
      <trkpt lat="43.87637" lon="7.08131">
        <ele>602</ele>
        <time>2015-01-27T14:25:43Z</time>
      </trkpt>
      <trkpt lat="43.87632" lon="7.08131">
        <ele>602</ele>
        <time>2015-01-27T14:25:47Z</time>
      </trkpt>
      <trkpt lat="43.87628" lon="7.08137">
        <ele>603</ele>
        <time>2015-01-27T14:25:51Z</time>
      </trkpt>
      <trkpt lat="43.87625" lon="7.08143">
        <ele>603</ele>
        <time>2015-01-27T14:25:56Z</time>
      </trkpt>
      <trkpt lat="43.87622" lon="7.08161">
        <ele>605</ele>
        <time>2015-01-27T14:26:10Z</time>
      </trkpt>
      <trkpt lat="43.87617" lon="7.0816">
        <ele>606</ele>
        <time>2015-01-27T14:26:17Z</time>
      </trkpt>
      <trkpt lat="43.87614" lon="7.08166">
        <ele>608</ele>
        <time>2015-01-27T14:26:25Z</time>
      </trkpt>
      <trkpt lat="43.87608" lon="7.0819">
        <ele>612</ele>
        <time>2015-01-27T14:26:46Z</time>
      </trkpt>
      <trkpt lat="43.87607" lon="7.08184">
        <ele>613</ele>
        <time>2015-01-27T14:26:52Z</time>
      </trkpt>
      <trkpt lat="43.87608" lon="7.08177">
        <ele>614</ele>
        <time>2015-01-27T14:26:57Z</time>
      </trkpt>
      <trkpt lat="43.87606" lon="7.08171">
        <ele>614</ele>
        <time>2015-01-27T14:27:02Z</time>
      </trkpt>
      <trkpt lat="43.876" lon="7.0814">
        <ele>621</ele>
        <time>2015-01-27T14:27:28Z</time>
      </trkpt>
      <trkpt lat="43.87595" lon="7.08143">
        <ele>622</ele>
        <time>2015-01-27T14:27:35Z</time>
      </trkpt>
      <trkpt lat="43.87575" lon="7.08144">
        <ele>627</ele>
        <time>2015-01-27T14:27:59Z</time>
      </trkpt>
      <trkpt lat="43.87571" lon="7.08141">
        <ele>628</ele>
        <time>2015-01-27T14:28:05Z</time>
      </trkpt>
      <trkpt lat="43.87568" lon="7.08152">
        <ele>629</ele>
        <time>2015-01-27T14:28:18Z</time>
      </trkpt>
      <trkpt lat="43.87568" lon="7.0816">
        <ele>631</ele>
        <time>2015-01-27T14:28:32Z</time>
      </trkpt>
      <trkpt lat="43.87565" lon="7.08159">
        <ele>631</ele>
        <time>2015-01-27T14:28:44Z</time>
      </trkpt>
      <trkpt lat="43.8756" lon="7.08164">
        <ele>631</ele>
        <time>2015-01-27T14:29:12Z</time>
      </trkpt>
      <trkpt lat="43.87553" lon="7.08173">
        <ele>631</ele>
        <time>2015-01-27T14:29:27Z</time>
      </trkpt>
      <trkpt lat="43.87546" lon="7.0817">
        <ele>630</ele>
        <time>2015-01-27T14:29:38Z</time>
      </trkpt>
      <trkpt lat="43.87541" lon="7.08173">
        <ele>629</ele>
        <time>2015-01-27T14:29:43Z</time>
      </trkpt>
      <trkpt lat="43.87528" lon="7.08206">
        <ele>627</ele>
        <time>2015-01-27T14:30:12Z</time>
      </trkpt>
      <trkpt lat="43.87527" lon="7.08213">
        <ele>627</ele>
        <time>2015-01-27T14:30:16Z</time>
      </trkpt>
      <trkpt lat="43.8752" lon="7.08223">
        <ele>626</ele>
        <time>2015-01-27T14:30:29Z</time>
      </trkpt>
      <trkpt lat="43.8752" lon="7.08231">
        <ele>626</ele>
        <time>2015-01-27T14:30:34Z</time>
      </trkpt>
      <trkpt lat="43.87509" lon="7.08247">
        <ele>625</ele>
        <time>2015-01-27T14:30:52Z</time>
      </trkpt>
      <trkpt lat="43.87504" lon="7.08266">
        <ele>624</ele>
        <time>2015-01-27T14:31:11Z</time>
      </trkpt>
      <trkpt lat="43.87504" lon="7.08271">
        <ele>624</ele>
        <time>2015-01-27T14:31:21Z</time>
      </trkpt>
      <trkpt lat="43.87509" lon="7.08283">
        <ele>623</ele>
        <time>2015-01-27T14:31:33Z</time>
      </trkpt>
    </trkseg>
  </trk>
</gpx>